<?xml version="1.0" encoding="UTF-8" standalone="no" ?>
<gpx xmlns="http://www.topografix.com/GPX/1/1" xmlns:xsi="http://www.w3.org/2001/XMLSchema-instance" xsi:schemaLocation="http://www.topografix.com/GPX/1/1 http://www.topografix.com/GPX/1/1/gpx.xsd" version="1.1" creator="VisuGPX - https://www.visugpx.com">
  <metadata>
    <name>Pic de Montaigu</name>
    <desc><![CDATA[Montée par les cabanes de la Lit puis l\'arête  Sud Est
Descente par l\'arête Sud Ouest puis cabanes de la Lit
Il faut mètre un peu les mains (III)
[img]https://lh5.googleusercontent.com/-4OmTByi7Aek/T9N2vkY0yMI/AAAAAAAAI-M/pbnBgf1QtgU/s645/2012.06.09 Montaigu %282%29.JPG[/img]

[img]https://lh4.googleusercontent.com/-eINYuFnlMcE/T9N2zvDdrII/AAAAAAAAI-U/VbzS3PGWGwE/s645/2012.06.09 Montaigu %283%29.JPG[/img]]]></desc>
  </metadata>
  <trk>
    <name><![CDATA[ACTIVE LOG]]></name>
    <trkseg>
      <trkpt lat="42.96574" lon="0.09418">
        <ele>1058.068359</ele>
        <time>2012-06-09T06:24:43Z</time>
      </trkpt>
      <trkpt lat="42.96573" lon="0.0942">
        <ele>1063.835938</ele>
        <time>2012-06-09T06:25:21Z</time>
      </trkpt>
      <trkpt lat="42.9657" lon="0.09422">
        <ele>1063.355469</ele>
        <time>2012-06-09T06:25:46Z</time>
      </trkpt>
      <trkpt lat="42.9657" lon="0.09422">
        <ele>1068.642822</ele>
        <time>2012-06-09T06:26:15Z</time>
      </trkpt>
      <trkpt lat="42.96568" lon="0.09418">
        <ele>1067.200684</ele>
        <time>2012-06-09T06:26:36Z</time>
      </trkpt>
      <trkpt lat="42.96568" lon="0.0942">
        <ele>1067.681152</ele>
        <time>2012-06-09T06:27:06Z</time>
      </trkpt>
      <trkpt lat="42.96568" lon="0.09419">
        <ele>1067.681152</ele>
        <time>2012-06-09T06:27:08Z</time>
      </trkpt>
      <trkpt lat="42.96571" lon="0.09407">
        <ele>1068.162109</ele>
        <time>2012-06-09T06:27:26Z</time>
      </trkpt>
      <trkpt lat="42.96571" lon="0.09407">
        <ele>1068.162109</ele>
        <time>2012-06-09T06:27:40Z</time>
      </trkpt>
      <trkpt lat="42.96588" lon="0.09379">
        <ele>1071.526611</ele>
        <time>2012-06-09T06:28:01Z</time>
      </trkpt>
      <trkpt lat="42.96603" lon="0.09376">
        <ele>1072.96875</ele>
        <time>2012-06-09T06:28:19Z</time>
      </trkpt>
      <trkpt lat="42.96607" lon="0.09378">
        <ele>1073.449463</ele>
        <time>2012-06-09T06:28:36Z</time>
      </trkpt>
      <trkpt lat="42.9661" lon="0.09379">
        <ele>1072.96875</ele>
        <time>2012-06-09T06:28:45Z</time>
      </trkpt>
      <trkpt lat="42.96621" lon="0.09385">
        <ele>1073.929932</ele>
        <time>2012-06-09T06:28:57Z</time>
      </trkpt>
      <trkpt lat="42.96624" lon="0.09388">
        <ele>1074.410645</ele>
        <time>2012-06-09T06:29:01Z</time>
      </trkpt>
      <trkpt lat="42.96628" lon="0.09391">
        <ele>1075.371826</ele>
        <time>2012-06-09T06:29:05Z</time>
      </trkpt>
      <trkpt lat="42.9663" lon="0.09394">
        <ele>1076.333252</ele>
        <time>2012-06-09T06:29:15Z</time>
      </trkpt>
      <trkpt lat="42.96642" lon="0.09412">
        <ele>1077.775146</ele>
        <time>2012-06-09T06:29:30Z</time>
      </trkpt>
      <trkpt lat="42.9665" lon="0.09423">
        <ele>1079.697754</ele>
        <time>2012-06-09T06:29:42Z</time>
      </trkpt>
      <trkpt lat="42.96656" lon="0.09432">
        <ele>1081.139893</ele>
        <time>2012-06-09T06:29:49Z</time>
      </trkpt>
      <trkpt lat="42.9666" lon="0.09437">
        <ele>1082.581787</ele>
        <time>2012-06-09T06:29:53Z</time>
      </trkpt>
      <trkpt lat="42.96667" lon="0.09442">
        <ele>1085.946533</ele>
        <time>2012-06-09T06:30:00Z</time>
      </trkpt>
      <trkpt lat="42.96673" lon="0.09447">
        <ele>1087.869141</ele>
        <time>2012-06-09T06:30:06Z</time>
      </trkpt>
      <trkpt lat="42.96688" lon="0.09456">
        <ele>1090.272461</ele>
        <time>2012-06-09T06:30:19Z</time>
      </trkpt>
      <trkpt lat="42.96698" lon="0.09468">
        <ele>1091.714355</ele>
        <time>2012-06-09T06:30:30Z</time>
      </trkpt>
      <trkpt lat="42.96699" lon="0.0947">
        <ele>1091.714355</ele>
        <time>2012-06-09T06:30:32Z</time>
      </trkpt>
      <trkpt lat="42.9671" lon="0.09478">
        <ele>1091.714355</ele>
        <time>2012-06-09T06:30:43Z</time>
      </trkpt>
      <trkpt lat="42.96712" lon="0.09481">
        <ele>1092.195068</ele>
        <time>2012-06-09T06:30:46Z</time>
      </trkpt>
      <trkpt lat="42.96713" lon="0.09483">
        <ele>1092.675781</ele>
        <time>2012-06-09T06:30:48Z</time>
      </trkpt>
      <trkpt lat="42.96717" lon="0.09489">
        <ele>1093.636963</ele>
        <time>2012-06-09T06:30:53Z</time>
      </trkpt>
      <trkpt lat="42.96723" lon="0.0949">
        <ele>1096.040283</ele>
        <time>2012-06-09T06:30:59Z</time>
      </trkpt>
      <trkpt lat="42.96738" lon="0.09484">
        <ele>1102.769531</ele>
        <time>2012-06-09T06:31:16Z</time>
      </trkpt>
      <trkpt lat="42.96743" lon="0.09483">
        <ele>1104.21167</ele>
        <time>2012-06-09T06:31:21Z</time>
      </trkpt>
      <trkpt lat="42.96751" lon="0.09487">
        <ele>1105.172852</ele>
        <time>2012-06-09T06:31:28Z</time>
      </trkpt>
      <trkpt lat="42.96756" lon="0.09501">
        <ele>1105.653564</ele>
        <time>2012-06-09T06:31:40Z</time>
      </trkpt>
      <trkpt lat="42.9676" lon="0.09507">
        <ele>1106.134033</ele>
        <time>2012-06-09T06:31:46Z</time>
      </trkpt>
      <trkpt lat="42.96761" lon="0.09509">
        <ele>1106.134033</ele>
        <time>2012-06-09T06:31:48Z</time>
      </trkpt>
      <trkpt lat="42.96767" lon="0.09515">
        <ele>1107.095459</ele>
        <time>2012-06-09T06:31:57Z</time>
      </trkpt>
      <trkpt lat="42.96781" lon="0.09528">
        <ele>1110.940674</ele>
        <time>2012-06-09T06:32:16Z</time>
      </trkpt>
      <trkpt lat="42.96786" lon="0.0953">
        <ele>1112.382568</ele>
        <time>2012-06-09T06:32:22Z</time>
      </trkpt>
      <trkpt lat="42.96788" lon="0.09531">
        <ele>1112.863281</ele>
        <time>2012-06-09T06:32:25Z</time>
      </trkpt>
      <trkpt lat="42.96805" lon="0.09543">
        <ele>1118.631348</ele>
        <time>2012-06-09T06:32:46Z</time>
      </trkpt>
      <trkpt lat="42.96815" lon="0.09552">
        <ele>1121.99585</ele>
        <time>2012-06-09T06:32:59Z</time>
      </trkpt>
      <trkpt lat="42.9682" lon="0.09555">
        <ele>1122.957275</ele>
        <time>2012-06-09T06:33:04Z</time>
      </trkpt>
      <trkpt lat="42.96833" lon="0.09563">
        <ele>1127.763672</ele>
        <time>2012-06-09T06:33:21Z</time>
      </trkpt>
      <trkpt lat="42.96849" lon="0.09565">
        <ele>1131.608887</ele>
        <time>2012-06-09T06:33:38Z</time>
      </trkpt>
      <trkpt lat="42.96862" lon="0.09566">
        <ele>1138.819092</ele>
        <time>2012-06-09T06:33:53Z</time>
      </trkpt>
      <trkpt lat="42.96874" lon="0.09575">
        <ele>1141.702881</ele>
        <time>2012-06-09T06:34:08Z</time>
      </trkpt>
      <trkpt lat="42.96884" lon="0.09579">
        <ele>1142.183594</ele>
        <time>2012-06-09T06:34:21Z</time>
      </trkpt>
      <trkpt lat="42.96885" lon="0.0958">
        <ele>1143.144775</ele>
        <time>2012-06-09T06:34:23Z</time>
      </trkpt>
      <trkpt lat="42.96899" lon="0.09586">
        <ele>1147.951416</ele>
        <time>2012-06-09T06:34:41Z</time>
      </trkpt>
      <trkpt lat="42.96912" lon="0.09591">
        <ele>1153.23877</ele>
        <time>2012-06-09T06:34:57Z</time>
      </trkpt>
      <trkpt lat="42.96922" lon="0.09595">
        <ele>1156.603271</ele>
        <time>2012-06-09T06:35:10Z</time>
      </trkpt>
      <trkpt lat="42.96933" lon="0.09594">
        <ele>1161.890625</ele>
        <time>2012-06-09T06:35:25Z</time>
      </trkpt>
      <trkpt lat="42.96935" lon="0.09595">
        <ele>1162.851807</ele>
        <time>2012-06-09T06:35:28Z</time>
      </trkpt>
      <trkpt lat="42.96942" lon="0.09592">
        <ele>1165.255371</ele>
        <time>2012-06-09T06:35:36Z</time>
      </trkpt>
      <trkpt lat="42.9695" lon="0.09595">
        <ele>1169.100586</ele>
        <time>2012-06-09T06:35:45Z</time>
      </trkpt>
      <trkpt lat="42.96963" lon="0.096">
        <ele>1169.100586</ele>
        <time>2012-06-09T06:35:58Z</time>
      </trkpt>
      <trkpt lat="42.96965" lon="0.09602">
        <ele>1169.100586</ele>
        <time>2012-06-09T06:36:01Z</time>
      </trkpt>
      <trkpt lat="42.96975" lon="0.09609">
        <ele>1168.13916</ele>
        <time>2012-06-09T06:36:12Z</time>
      </trkpt>
      <trkpt lat="42.96978" lon="0.09612">
        <ele>1169.100586</ele>
        <time>2012-06-09T06:36:17Z</time>
      </trkpt>
      <trkpt lat="42.96984" lon="0.09617">
        <ele>1170.061768</ele>
        <time>2012-06-09T06:36:26Z</time>
      </trkpt>
      <trkpt lat="42.96986" lon="0.0962">
        <ele>1170.061768</ele>
        <time>2012-06-09T06:36:29Z</time>
      </trkpt>
      <trkpt lat="42.96998" lon="0.09632">
        <ele>1169.581299</ele>
        <time>2012-06-09T06:36:49Z</time>
      </trkpt>
      <trkpt lat="42.97002" lon="0.09639">
        <ele>1170.061768</ele>
        <time>2012-06-09T06:36:56Z</time>
      </trkpt>
      <trkpt lat="42.97006" lon="0.09643">
        <ele>1170.54248</ele>
        <time>2012-06-09T06:37:01Z</time>
      </trkpt>
      <trkpt lat="42.97011" lon="0.09649">
        <ele>1170.54248</ele>
        <time>2012-06-09T06:37:09Z</time>
      </trkpt>
      <trkpt lat="42.97024" lon="0.09657">
        <ele>1170.061768</ele>
        <time>2012-06-09T06:37:24Z</time>
      </trkpt>
      <trkpt lat="42.97039" lon="0.09662">
        <ele>1173.906982</ele>
        <time>2012-06-09T06:37:42Z</time>
      </trkpt>
      <trkpt lat="42.97041" lon="0.09663">
        <ele>1175.348877</ele>
        <time>2012-06-09T06:37:44Z</time>
      </trkpt>
      <trkpt lat="42.97054" lon="0.09666">
        <ele>1180.636475</ele>
        <time>2012-06-09T06:38:00Z</time>
      </trkpt>
      <trkpt lat="42.97066" lon="0.09666">
        <ele>1185.923584</ele>
        <time>2012-06-09T06:38:16Z</time>
      </trkpt>
      <trkpt lat="42.97069" lon="0.09668">
        <ele>1187.365479</ele>
        <time>2012-06-09T06:38:19Z</time>
      </trkpt>
      <trkpt lat="42.97072" lon="0.09671">
        <ele>1188.807617</ele>
        <time>2012-06-09T06:38:23Z</time>
      </trkpt>
      <trkpt lat="42.97079" lon="0.09679">
        <ele>1193.614014</ele>
        <time>2012-06-09T06:38:32Z</time>
      </trkpt>
      <trkpt lat="42.97086" lon="0.09682">
        <ele>1196.017578</ele>
        <time>2012-06-09T06:38:39Z</time>
      </trkpt>
      <trkpt lat="42.97097" lon="0.09687">
        <ele>1197.940186</ele>
        <time>2012-06-09T06:38:53Z</time>
      </trkpt>
      <trkpt lat="42.9711" lon="0.09684">
        <ele>1200.343506</ele>
        <time>2012-06-09T06:39:09Z</time>
      </trkpt>
      <trkpt lat="42.97115" lon="0.09683">
        <ele>1201.7854</ele>
        <time>2012-06-09T06:39:16Z</time>
      </trkpt>
      <trkpt lat="42.97117" lon="0.09681">
        <ele>1202.265869</ele>
        <time>2012-06-09T06:39:18Z</time>
      </trkpt>
      <trkpt lat="42.97119" lon="0.0968">
        <ele>1202.746582</ele>
        <time>2012-06-09T06:39:20Z</time>
      </trkpt>
      <trkpt lat="42.97123" lon="0.09678">
        <ele>1202.746582</ele>
        <time>2012-06-09T06:39:25Z</time>
      </trkpt>
      <trkpt lat="42.9713" lon="0.09674">
        <ele>1203.708008</ele>
        <time>2012-06-09T06:39:33Z</time>
      </trkpt>
      <trkpt lat="42.97136" lon="0.0967">
        <ele>1204.669189</ele>
        <time>2012-06-09T06:39:41Z</time>
      </trkpt>
      <trkpt lat="42.97138" lon="0.09669">
        <ele>1205.149902</ele>
        <time>2012-06-09T06:39:43Z</time>
      </trkpt>
      <trkpt lat="42.97142" lon="0.09666">
        <ele>1206.111084</ele>
        <time>2012-06-09T06:39:47Z</time>
      </trkpt>
      <trkpt lat="42.97146" lon="0.09664">
        <ele>1206.591797</ele>
        <time>2012-06-09T06:39:52Z</time>
      </trkpt>
      <trkpt lat="42.97156" lon="0.09658">
        <ele>1207.553223</ele>
        <time>2012-06-09T06:40:04Z</time>
      </trkpt>
      <trkpt lat="42.97171" lon="0.0965">
        <ele>1209.47583</ele>
        <time>2012-06-09T06:40:21Z</time>
      </trkpt>
      <trkpt lat="42.9717" lon="0.09639">
        <ele>1207.07251</ele>
        <time>2012-06-09T06:40:38Z</time>
      </trkpt>
      <trkpt lat="42.97168" lon="0.09639">
        <ele>1206.591797</ele>
        <time>2012-06-09T06:40:41Z</time>
      </trkpt>
      <trkpt lat="42.97163" lon="0.09639">
        <ele>1206.111084</ele>
        <time>2012-06-09T06:40:46Z</time>
      </trkpt>
      <trkpt lat="42.97159" lon="0.0964">
        <ele>1205.149902</ele>
        <time>2012-06-09T06:40:51Z</time>
      </trkpt>
      <trkpt lat="42.97155" lon="0.09642">
        <ele>1205.149902</ele>
        <time>2012-06-09T06:40:56Z</time>
      </trkpt>
      <trkpt lat="42.97153" lon="0.09641">
        <ele>1205.630615</ele>
        <time>2012-06-09T06:40:58Z</time>
      </trkpt>
      <trkpt lat="42.97146" lon="0.0964">
        <ele>1207.07251</ele>
        <time>2012-06-09T06:41:08Z</time>
      </trkpt>
      <trkpt lat="42.97143" lon="0.09639">
        <ele>1207.553223</ele>
        <time>2012-06-09T06:41:11Z</time>
      </trkpt>
      <trkpt lat="42.97133" lon="0.09631">
        <ele>1209.47583</ele>
        <time>2012-06-09T06:41:24Z</time>
      </trkpt>
      <trkpt lat="42.97126" lon="0.09618">
        <ele>1209.956299</ele>
        <time>2012-06-09T06:41:37Z</time>
      </trkpt>
      <trkpt lat="42.97116" lon="0.09606">
        <ele>1212.359863</ele>
        <time>2012-06-09T06:41:53Z</time>
      </trkpt>
      <trkpt lat="42.97115" lon="0.09604">
        <ele>1212.840576</ele>
        <time>2012-06-09T06:41:55Z</time>
      </trkpt>
      <trkpt lat="42.97114" lon="0.09601">
        <ele>1213.801758</ele>
        <time>2012-06-09T06:41:58Z</time>
      </trkpt>
      <trkpt lat="42.97111" lon="0.09599">
        <ele>1214.763184</ele>
        <time>2012-06-09T06:42:02Z</time>
      </trkpt>
      <trkpt lat="42.97108" lon="0.09592">
        <ele>1215.243896</ele>
        <time>2012-06-09T06:42:08Z</time>
      </trkpt>
      <trkpt lat="42.97099" lon="0.09576">
        <ele>1217.646973</ele>
        <time>2012-06-09T06:42:25Z</time>
      </trkpt>
      <trkpt lat="42.97098" lon="0.09574">
        <ele>1217.166504</ele>
        <time>2012-06-09T06:42:27Z</time>
      </trkpt>
      <trkpt lat="42.97096" lon="0.09569">
        <ele>1217.166504</ele>
        <time>2012-06-09T06:42:32Z</time>
      </trkpt>
      <trkpt lat="42.97094" lon="0.09567">
        <ele>1217.166504</ele>
        <time>2012-06-09T06:42:35Z</time>
      </trkpt>
      <trkpt lat="42.97087" lon="0.09559">
        <ele>1218.127686</ele>
        <time>2012-06-09T06:42:45Z</time>
      </trkpt>
      <trkpt lat="42.97078" lon="0.09538">
        <ele>1221.011719</ele>
        <time>2012-06-09T06:43:04Z</time>
      </trkpt>
      <trkpt lat="42.97076" lon="0.09532">
        <ele>1221.9729</ele>
        <time>2012-06-09T06:43:09Z</time>
      </trkpt>
      <trkpt lat="42.97072" lon="0.09513">
        <ele>1223.895508</ele>
        <time>2012-06-09T06:43:24Z</time>
      </trkpt>
      <trkpt lat="42.97067" lon="0.09495">
        <ele>1227.740723</ele>
        <time>2012-06-09T06:43:41Z</time>
      </trkpt>
      <trkpt lat="42.97064" lon="0.09482">
        <ele>1230.144287</ele>
        <time>2012-06-09T06:43:53Z</time>
      </trkpt>
      <trkpt lat="42.97064" lon="0.09481">
        <ele>1230.625</ele>
        <time>2012-06-09T06:43:54Z</time>
      </trkpt>
      <trkpt lat="42.97059" lon="0.09468">
        <ele>1234.470215</ele>
        <time>2012-06-09T06:44:08Z</time>
      </trkpt>
      <trkpt lat="42.97059" lon="0.09463">
        <ele>1234.950928</ele>
        <time>2012-06-09T06:44:12Z</time>
      </trkpt>
      <trkpt lat="42.97056" lon="0.09454">
        <ele>1236.392822</ele>
        <time>2012-06-09T06:44:20Z</time>
      </trkpt>
      <trkpt lat="42.97054" lon="0.09432">
        <ele>1239.276611</ele>
        <time>2012-06-09T06:44:37Z</time>
      </trkpt>
      <trkpt lat="42.97053" lon="0.09429">
        <ele>1239.757324</ele>
        <time>2012-06-09T06:44:40Z</time>
      </trkpt>
      <trkpt lat="42.97046" lon="0.09417">
        <ele>1241.199219</ele>
        <time>2012-06-09T06:44:57Z</time>
      </trkpt>
      <trkpt lat="42.97044" lon="0.09417">
        <ele>1241.679932</ele>
        <time>2012-06-09T06:45:00Z</time>
      </trkpt>
      <trkpt lat="42.97041" lon="0.09417">
        <ele>1242.160645</ele>
        <time>2012-06-09T06:45:03Z</time>
      </trkpt>
      <trkpt lat="42.97034" lon="0.09415">
        <ele>1242.160645</ele>
        <time>2012-06-09T06:45:20Z</time>
      </trkpt>
      <trkpt lat="42.97034" lon="0.09415">
        <ele>1241.199219</ele>
        <time>2012-06-09T06:47:34Z</time>
      </trkpt>
      <trkpt lat="42.97033" lon="0.09414">
        <ele>1241.199219</ele>
        <time>2012-06-09T06:47:50Z</time>
      </trkpt>
      <trkpt lat="42.97032" lon="0.09412">
        <ele>1241.679932</ele>
        <time>2012-06-09T06:47:52Z</time>
      </trkpt>
      <trkpt lat="42.97018" lon="0.094">
        <ele>1246.486816</ele>
        <time>2012-06-09T06:48:09Z</time>
      </trkpt>
      <trkpt lat="42.97017" lon="0.09399">
        <ele>1246.967285</ele>
        <time>2012-06-09T06:48:11Z</time>
      </trkpt>
      <trkpt lat="42.9701" lon="0.09379">
        <ele>1248.889893</ele>
        <time>2012-06-09T06:48:27Z</time>
      </trkpt>
      <trkpt lat="42.97007" lon="0.09368">
        <ele>1249.851318</ele>
        <time>2012-06-09T06:48:37Z</time>
      </trkpt>
      <trkpt lat="42.97007" lon="0.09364">
        <ele>1250.332031</ele>
        <time>2012-06-09T06:48:40Z</time>
      </trkpt>
      <trkpt lat="42.97007" lon="0.0936">
        <ele>1250.8125</ele>
        <time>2012-06-09T06:48:43Z</time>
      </trkpt>
      <trkpt lat="42.97008" lon="0.0935">
        <ele>1251.293213</ele>
        <time>2012-06-09T06:48:51Z</time>
      </trkpt>
      <trkpt lat="42.97007" lon="0.09344">
        <ele>1251.773926</ele>
        <time>2012-06-09T06:48:56Z</time>
      </trkpt>
      <trkpt lat="42.97005" lon="0.09327">
        <ele>1254.177246</ele>
        <time>2012-06-09T06:49:13Z</time>
      </trkpt>
      <trkpt lat="42.97003" lon="0.09312">
        <ele>1257.541748</ele>
        <time>2012-06-09T06:49:28Z</time>
      </trkpt>
      <trkpt lat="42.97003" lon="0.09308">
        <ele>1258.50293</ele>
        <time>2012-06-09T06:49:32Z</time>
      </trkpt>
      <trkpt lat="42.97001" lon="0.09291">
        <ele>1260.425781</ele>
        <time>2012-06-09T06:49:48Z</time>
      </trkpt>
      <trkpt lat="42.96998" lon="0.09277">
        <ele>1263.309814</ele>
        <time>2012-06-09T06:50:04Z</time>
      </trkpt>
      <trkpt lat="42.96995" lon="0.09266">
        <ele>1267.155029</ele>
        <time>2012-06-09T06:50:16Z</time>
      </trkpt>
      <trkpt lat="42.96994" lon="0.09261">
        <ele>1267.155029</ele>
        <time>2012-06-09T06:50:20Z</time>
      </trkpt>
      <trkpt lat="42.96995" lon="0.09254">
        <ele>1267.635498</ele>
        <time>2012-06-09T06:50:26Z</time>
      </trkpt>
      <trkpt lat="42.96995" lon="0.0925">
        <ele>1268.116211</ele>
        <time>2012-06-09T06:50:29Z</time>
      </trkpt>
      <trkpt lat="42.96995" lon="0.09235">
        <ele>1270.038818</ele>
        <time>2012-06-09T06:50:42Z</time>
      </trkpt>
      <trkpt lat="42.96992" lon="0.09218">
        <ele>1270.519531</ele>
        <time>2012-06-09T06:50:58Z</time>
      </trkpt>
      <trkpt lat="42.96992" lon="0.09216">
        <ele>1271.000244</ele>
        <time>2012-06-09T06:51:00Z</time>
      </trkpt>
      <trkpt lat="42.9699" lon="0.09214">
        <ele>1271.000244</ele>
        <time>2012-06-09T06:51:03Z</time>
      </trkpt>
      <trkpt lat="42.96986" lon="0.09206">
        <ele>1271.961426</ele>
        <time>2012-06-09T06:51:11Z</time>
      </trkpt>
      <trkpt lat="42.96983" lon="0.092">
        <ele>1274.364746</ele>
        <time>2012-06-09T06:51:17Z</time>
      </trkpt>
      <trkpt lat="42.96973" lon="0.09189">
        <ele>1279.6521</ele>
        <time>2012-06-09T06:51:31Z</time>
      </trkpt>
      <trkpt lat="42.9697" lon="0.09182">
        <ele>1281.094238</ele>
        <time>2012-06-09T06:51:40Z</time>
      </trkpt>
      <trkpt lat="42.96969" lon="0.09176">
        <ele>1282.536133</ele>
        <time>2012-06-09T06:51:46Z</time>
      </trkpt>
      <trkpt lat="42.96964" lon="0.09164">
        <ele>1286.861816</ele>
        <time>2012-06-09T06:51:59Z</time>
      </trkpt>
      <trkpt lat="42.96963" lon="0.09153">
        <ele>1289.265137</ele>
        <time>2012-06-09T06:52:08Z</time>
      </trkpt>
      <trkpt lat="42.96958" lon="0.09135">
        <ele>1291.668457</ele>
        <time>2012-06-09T06:52:25Z</time>
      </trkpt>
      <trkpt lat="42.96956" lon="0.09129">
        <ele>1292.149414</ele>
        <time>2012-06-09T06:52:31Z</time>
      </trkpt>
      <trkpt lat="42.9695" lon="0.09112">
        <ele>1294.072021</ele>
        <time>2012-06-09T06:52:47Z</time>
      </trkpt>
      <trkpt lat="42.9695" lon="0.0911">
        <ele>1294.072021</ele>
        <time>2012-06-09T06:52:49Z</time>
      </trkpt>
      <trkpt lat="42.96945" lon="0.09094">
        <ele>1298.878418</ele>
        <time>2012-06-09T06:53:06Z</time>
      </trkpt>
      <trkpt lat="42.96941" lon="0.09078">
        <ele>1301.281738</ele>
        <time>2012-06-09T06:53:20Z</time>
      </trkpt>
      <trkpt lat="42.96939" lon="0.09074">
        <ele>1302.723633</ele>
        <time>2012-06-09T06:53:24Z</time>
      </trkpt>
      <trkpt lat="42.96934" lon="0.09061">
        <ele>1306.088135</ele>
        <time>2012-06-09T06:53:36Z</time>
      </trkpt>
      <trkpt lat="42.96932" lon="0.09051">
        <ele>1308.01123</ele>
        <time>2012-06-09T06:53:46Z</time>
      </trkpt>
      <trkpt lat="42.96928" lon="0.09034">
        <ele>1309.933594</ele>
        <time>2012-06-09T06:54:01Z</time>
      </trkpt>
      <trkpt lat="42.96928" lon="0.09031">
        <ele>1310.414307</ele>
        <time>2012-06-09T06:54:03Z</time>
      </trkpt>
      <trkpt lat="42.96928" lon="0.09009">
        <ele>1312.336914</ele>
        <time>2012-06-09T06:54:20Z</time>
      </trkpt>
      <trkpt lat="42.96927" lon="0.09006">
        <ele>1312.817627</ele>
        <time>2012-06-09T06:54:23Z</time>
      </trkpt>
      <trkpt lat="42.96928" lon="0.09003">
        <ele>1312.817627</ele>
        <time>2012-06-09T06:54:26Z</time>
      </trkpt>
      <trkpt lat="42.96927" lon="0.08998">
        <ele>1313.29834</ele>
        <time>2012-06-09T06:54:29Z</time>
      </trkpt>
      <trkpt lat="42.96928" lon="0.08991">
        <ele>1312.817627</ele>
        <time>2012-06-09T06:54:35Z</time>
      </trkpt>
      <trkpt lat="42.96929" lon="0.08987">
        <ele>1313.29834</ele>
        <time>2012-06-09T06:54:39Z</time>
      </trkpt>
      <trkpt lat="42.96929" lon="0.08971">
        <ele>1316.182129</ele>
        <time>2012-06-09T06:54:54Z</time>
      </trkpt>
      <trkpt lat="42.96929" lon="0.0897">
        <ele>1317.624023</ele>
        <time>2012-06-09T06:54:56Z</time>
      </trkpt>
      <trkpt lat="42.9693" lon="0.08966">
        <ele>1318.585449</ele>
        <time>2012-06-09T06:54:59Z</time>
      </trkpt>
      <trkpt lat="42.9693" lon="0.08947">
        <ele>1321.949951</ele>
        <time>2012-06-09T06:55:16Z</time>
      </trkpt>
      <trkpt lat="42.9693" lon="0.08931">
        <ele>1323.872559</ele>
        <time>2012-06-09T06:55:32Z</time>
      </trkpt>
      <trkpt lat="42.96928" lon="0.08923">
        <ele>1326.276123</ele>
        <time>2012-06-09T06:55:40Z</time>
      </trkpt>
      <trkpt lat="42.96926" lon="0.08904">
        <ele>1329.640625</ele>
        <time>2012-06-09T06:55:56Z</time>
      </trkpt>
      <trkpt lat="42.96925" lon="0.089">
        <ele>1330.121338</ele>
        <time>2012-06-09T06:56:00Z</time>
      </trkpt>
      <trkpt lat="42.96923" lon="0.08886">
        <ele>1333.48584</ele>
        <time>2012-06-09T06:56:15Z</time>
      </trkpt>
      <trkpt lat="42.96921" lon="0.08877">
        <ele>1335.88916</ele>
        <time>2012-06-09T06:56:23Z</time>
      </trkpt>
      <trkpt lat="42.96915" lon="0.08869">
        <ele>1341.657227</ele>
        <time>2012-06-09T06:56:38Z</time>
      </trkpt>
      <trkpt lat="42.96915" lon="0.08869">
        <ele>1342.137939</ele>
        <time>2012-06-09T06:56:39Z</time>
      </trkpt>
      <trkpt lat="42.96914" lon="0.08866">
        <ele>1342.618652</ele>
        <time>2012-06-09T06:56:41Z</time>
      </trkpt>
      <trkpt lat="42.96911" lon="0.08864">
        <ele>1344.541016</ele>
        <time>2012-06-09T06:56:44Z</time>
      </trkpt>
      <trkpt lat="42.96908" lon="0.08848">
        <ele>1346.944336</ele>
        <time>2012-06-09T06:56:58Z</time>
      </trkpt>
      <trkpt lat="42.96902" lon="0.08836">
        <ele>1346.944336</ele>
        <time>2012-06-09T06:57:09Z</time>
      </trkpt>
      <trkpt lat="42.96899" lon="0.08822">
        <ele>1347.425049</ele>
        <time>2012-06-09T06:57:22Z</time>
      </trkpt>
      <trkpt lat="42.96897" lon="0.08817">
        <ele>1346.463867</ele>
        <time>2012-06-09T06:57:27Z</time>
      </trkpt>
      <trkpt lat="42.96897" lon="0.08814">
        <ele>1346.463867</ele>
        <time>2012-06-09T06:57:29Z</time>
      </trkpt>
      <trkpt lat="42.96897" lon="0.08799">
        <ele>1348.866943</ele>
        <time>2012-06-09T06:57:45Z</time>
      </trkpt>
      <trkpt lat="42.96898" lon="0.08796">
        <ele>1349.828369</ele>
        <time>2012-06-09T06:57:48Z</time>
      </trkpt>
      <trkpt lat="42.96901" lon="0.08785">
        <ele>1351.270264</ele>
        <time>2012-06-09T06:58:00Z</time>
      </trkpt>
      <trkpt lat="42.96902" lon="0.0877">
        <ele>1353.673584</ele>
        <time>2012-06-09T06:58:12Z</time>
      </trkpt>
      <trkpt lat="42.969" lon="0.08756">
        <ele>1357.03833</ele>
        <time>2012-06-09T06:58:27Z</time>
      </trkpt>
      <trkpt lat="42.969" lon="0.08741">
        <ele>1360.402832</ele>
        <time>2012-06-09T06:58:39Z</time>
      </trkpt>
      <trkpt lat="42.969" lon="0.08731">
        <ele>1358.480225</ele>
        <time>2012-06-09T06:58:49Z</time>
      </trkpt>
      <trkpt lat="42.969" lon="0.08727">
        <ele>1357.519043</ele>
        <time>2012-06-09T06:58:53Z</time>
      </trkpt>
      <trkpt lat="42.96895" lon="0.08713">
        <ele>1361.844971</ele>
        <time>2012-06-09T06:59:08Z</time>
      </trkpt>
      <trkpt lat="42.96895" lon="0.08713">
        <ele>1362.325439</ele>
        <time>2012-06-09T06:59:09Z</time>
      </trkpt>
      <trkpt lat="42.96887" lon="0.08704">
        <ele>1367.612549</ele>
        <time>2012-06-09T06:59:25Z</time>
      </trkpt>
      <trkpt lat="42.96885" lon="0.08702">
        <ele>1368.093262</ele>
        <time>2012-06-09T06:59:28Z</time>
      </trkpt>
      <trkpt lat="42.96882" lon="0.08689">
        <ele>1369.5354</ele>
        <time>2012-06-09T06:59:40Z</time>
      </trkpt>
      <trkpt lat="42.96882" lon="0.08684">
        <ele>1370.015869</ele>
        <time>2012-06-09T06:59:44Z</time>
      </trkpt>
      <trkpt lat="42.96879" lon="0.08666">
        <ele>1371.938477</ele>
        <time>2012-06-09T07:00:02Z</time>
      </trkpt>
      <trkpt lat="42.96878" lon="0.08663">
        <ele>1372.900146</ele>
        <time>2012-06-09T07:00:04Z</time>
      </trkpt>
      <trkpt lat="42.96876" lon="0.08649">
        <ele>1375.303223</ele>
        <time>2012-06-09T07:00:20Z</time>
      </trkpt>
      <trkpt lat="42.96881" lon="0.08647">
        <ele>1377.706543</ele>
        <time>2012-06-09T07:00:29Z</time>
      </trkpt>
      <trkpt lat="42.96884" lon="0.08648">
        <ele>1379.62915</ele>
        <time>2012-06-09T07:00:34Z</time>
      </trkpt>
      <trkpt lat="42.96891" lon="0.08653">
        <ele>1383.474365</ele>
        <time>2012-06-09T07:00:46Z</time>
      </trkpt>
      <trkpt lat="42.96898" lon="0.08657">
        <ele>1383.955078</ele>
        <time>2012-06-09T07:00:55Z</time>
      </trkpt>
      <trkpt lat="42.969" lon="0.0866">
        <ele>1384.435791</ele>
        <time>2012-06-09T07:00:59Z</time>
      </trkpt>
      <trkpt lat="42.96902" lon="0.08661">
        <ele>1384.916504</ele>
        <time>2012-06-09T07:01:01Z</time>
      </trkpt>
      <trkpt lat="42.96909" lon="0.08668">
        <ele>1386.358398</ele>
        <time>2012-06-09T07:01:11Z</time>
      </trkpt>
      <trkpt lat="42.96913" lon="0.0868">
        <ele>1388.28125</ele>
        <time>2012-06-09T07:01:22Z</time>
      </trkpt>
      <trkpt lat="42.96919" lon="0.08687">
        <ele>1389.723145</ele>
        <time>2012-06-09T07:01:31Z</time>
      </trkpt>
      <trkpt lat="42.96932" lon="0.08706">
        <ele>1394.529541</ele>
        <time>2012-06-09T07:01:51Z</time>
      </trkpt>
      <trkpt lat="42.96936" lon="0.08714">
        <ele>1396.932861</ele>
        <time>2012-06-09T07:01:59Z</time>
      </trkpt>
      <trkpt lat="42.96944" lon="0.08721">
        <ele>1403.662109</ele>
        <time>2012-06-09T07:02:16Z</time>
      </trkpt>
      <trkpt lat="42.96948" lon="0.08726">
        <ele>1405.104248</ele>
        <time>2012-06-09T07:02:22Z</time>
      </trkpt>
      <trkpt lat="42.9695" lon="0.08728">
        <ele>1405.104248</ele>
        <time>2012-06-09T07:02:25Z</time>
      </trkpt>
      <trkpt lat="42.96957" lon="0.08738">
        <ele>1405.584961</ele>
        <time>2012-06-09T07:02:34Z</time>
      </trkpt>
      <trkpt lat="42.9696" lon="0.08744">
        <ele>1405.584961</ele>
        <time>2012-06-09T07:02:40Z</time>
      </trkpt>
      <trkpt lat="42.96967" lon="0.08756">
        <ele>1408.46875</ele>
        <time>2012-06-09T07:02:54Z</time>
      </trkpt>
      <trkpt lat="42.9697" lon="0.08758">
        <ele>1409.430176</ele>
        <time>2012-06-09T07:02:57Z</time>
      </trkpt>
      <trkpt lat="42.96976" lon="0.08767">
        <ele>1410.87207</ele>
        <time>2012-06-09T07:03:08Z</time>
      </trkpt>
      <trkpt lat="42.9698" lon="0.0877">
        <ele>1411.833496</ele>
        <time>2012-06-09T07:03:13Z</time>
      </trkpt>
      <trkpt lat="42.96982" lon="0.08771">
        <ele>1411.833496</ele>
        <time>2012-06-09T07:03:15Z</time>
      </trkpt>
      <trkpt lat="42.96986" lon="0.08776">
        <ele>1412.313965</ele>
        <time>2012-06-09T07:03:20Z</time>
      </trkpt>
      <trkpt lat="42.96996" lon="0.08785">
        <ele>1419.523926</ele>
        <time>2012-06-09T07:03:37Z</time>
      </trkpt>
      <trkpt lat="42.97012" lon="0.08796">
        <ele>1420.485352</ele>
        <time>2012-06-09T07:03:54Z</time>
      </trkpt>
      <trkpt lat="42.97022" lon="0.08802">
        <ele>1423.849854</ele>
        <time>2012-06-09T07:04:10Z</time>
      </trkpt>
      <trkpt lat="42.97031" lon="0.08809">
        <ele>1429.136963</ele>
        <time>2012-06-09T07:04:26Z</time>
      </trkpt>
      <trkpt lat="42.97035" lon="0.0881">
        <ele>1433.462891</ele>
        <time>2012-06-09T07:04:34Z</time>
      </trkpt>
      <trkpt lat="42.97044" lon="0.08821">
        <ele>1442.11499</ele>
        <time>2012-06-09T07:04:52Z</time>
      </trkpt>
      <trkpt lat="42.97048" lon="0.08824">
        <ele>1444.037598</ele>
        <time>2012-06-09T07:04:57Z</time>
      </trkpt>
      <trkpt lat="42.97056" lon="0.08831">
        <ele>1443.076172</ele>
        <time>2012-06-09T07:05:04Z</time>
      </trkpt>
      <trkpt lat="42.97064" lon="0.0884">
        <ele>1442.595703</ele>
        <time>2012-06-09T07:05:15Z</time>
      </trkpt>
      <trkpt lat="42.9707" lon="0.08851">
        <ele>1441.153564</ele>
        <time>2012-06-09T07:05:24Z</time>
      </trkpt>
      <trkpt lat="42.97072" lon="0.08853">
        <ele>1441.153564</ele>
        <time>2012-06-09T07:05:26Z</time>
      </trkpt>
      <trkpt lat="42.97074" lon="0.08858">
        <ele>1441.153564</ele>
        <time>2012-06-09T07:05:30Z</time>
      </trkpt>
      <trkpt lat="42.97079" lon="0.08863">
        <ele>1439.71167</ele>
        <time>2012-06-09T07:05:37Z</time>
      </trkpt>
      <trkpt lat="42.97083" lon="0.0886">
        <ele>1437.30835</ele>
        <time>2012-06-09T07:05:44Z</time>
      </trkpt>
      <trkpt lat="42.97085" lon="0.08849">
        <ele>1436.827637</ele>
        <time>2012-06-09T07:06:00Z</time>
      </trkpt>
      <trkpt lat="42.97083" lon="0.08838">
        <ele>1437.789062</ele>
        <time>2012-06-09T07:06:14Z</time>
      </trkpt>
      <trkpt lat="42.97081" lon="0.08829">
        <ele>1437.789062</ele>
        <time>2012-06-09T07:06:23Z</time>
      </trkpt>
      <trkpt lat="42.97074" lon="0.08819">
        <ele>1442.595703</ele>
        <time>2012-06-09T07:06:39Z</time>
      </trkpt>
      <trkpt lat="42.97074" lon="0.08818">
        <ele>1442.595703</ele>
        <time>2012-06-09T07:06:40Z</time>
      </trkpt>
      <trkpt lat="42.97074" lon="0.08809">
        <ele>1444.037598</ele>
        <time>2012-06-09T07:06:46Z</time>
      </trkpt>
      <trkpt lat="42.97073" lon="0.08805">
        <ele>1444.518066</ele>
        <time>2012-06-09T07:06:48Z</time>
      </trkpt>
      <trkpt lat="42.97072" lon="0.08801">
        <ele>1444.518066</ele>
        <time>2012-06-09T07:06:51Z</time>
      </trkpt>
      <trkpt lat="42.97068" lon="0.08792">
        <ele>1443.076172</ele>
        <time>2012-06-09T07:07:00Z</time>
      </trkpt>
      <trkpt lat="42.97069" lon="0.0879">
        <ele>1443.076172</ele>
        <time>2012-06-09T07:07:02Z</time>
      </trkpt>
      <trkpt lat="42.97066" lon="0.08782">
        <ele>1444.037598</ele>
        <time>2012-06-09T07:07:10Z</time>
      </trkpt>
      <trkpt lat="42.97062" lon="0.08767">
        <ele>1447.4021</ele>
        <time>2012-06-09T07:07:25Z</time>
      </trkpt>
      <trkpt lat="42.9706" lon="0.08743">
        <ele>1448.843994</ele>
        <time>2012-06-09T07:07:43Z</time>
      </trkpt>
      <trkpt lat="42.97061" lon="0.08724">
        <ele>1449.80542</ele>
        <time>2012-06-09T07:07:59Z</time>
      </trkpt>
      <trkpt lat="42.97062" lon="0.08708">
        <ele>1450.766602</ele>
        <time>2012-06-09T07:08:12Z</time>
      </trkpt>
      <trkpt lat="42.97061" lon="0.08705">
        <ele>1450.766602</ele>
        <time>2012-06-09T07:08:14Z</time>
      </trkpt>
      <trkpt lat="42.97063" lon="0.08683">
        <ele>1454.131592</ele>
        <time>2012-06-09T07:08:34Z</time>
      </trkpt>
      <trkpt lat="42.97063" lon="0.08673">
        <ele>1455.092773</ele>
        <time>2012-06-09T07:08:42Z</time>
      </trkpt>
      <trkpt lat="42.97057" lon="0.08665">
        <ele>1458.937988</ele>
        <time>2012-06-09T07:08:54Z</time>
      </trkpt>
      <trkpt lat="42.97052" lon="0.08654">
        <ele>1465.667236</ele>
        <time>2012-06-09T07:09:06Z</time>
      </trkpt>
      <trkpt lat="42.97051" lon="0.08653">
        <ele>1466.628418</ele>
        <time>2012-06-09T07:09:08Z</time>
      </trkpt>
      <trkpt lat="42.97051" lon="0.08648">
        <ele>1467.5896</ele>
        <time>2012-06-09T07:09:11Z</time>
      </trkpt>
      <trkpt lat="42.97051" lon="0.08637">
        <ele>1470.473877</ele>
        <time>2012-06-09T07:09:18Z</time>
      </trkpt>
      <trkpt lat="42.97049" lon="0.08631">
        <ele>1469.993164</ele>
        <time>2012-06-09T07:09:23Z</time>
      </trkpt>
      <trkpt lat="42.97048" lon="0.08615">
        <ele>1469.512695</ele>
        <time>2012-06-09T07:09:35Z</time>
      </trkpt>
      <trkpt lat="42.97042" lon="0.08603">
        <ele>1470.473877</ele>
        <time>2012-06-09T07:09:50Z</time>
      </trkpt>
      <trkpt lat="42.97043" lon="0.0859">
        <ele>1470.95459</ele>
        <time>2012-06-09T07:10:04Z</time>
      </trkpt>
      <trkpt lat="42.97041" lon="0.08576">
        <ele>1470.95459</ele>
        <time>2012-06-09T07:10:21Z</time>
      </trkpt>
      <trkpt lat="42.9704" lon="0.08567">
        <ele>1470.95459</ele>
        <time>2012-06-09T07:10:31Z</time>
      </trkpt>
      <trkpt lat="42.97035" lon="0.0856">
        <ele>1475.280273</ele>
        <time>2012-06-09T07:10:44Z</time>
      </trkpt>
      <trkpt lat="42.97031" lon="0.08549">
        <ele>1479.125488</ele>
        <time>2012-06-09T07:10:59Z</time>
      </trkpt>
      <trkpt lat="42.9703" lon="0.08546">
        <ele>1479.606201</ele>
        <time>2012-06-09T07:11:05Z</time>
      </trkpt>
      <trkpt lat="42.97028" lon="0.08544">
        <ele>1481.04834</ele>
        <time>2012-06-09T07:11:08Z</time>
      </trkpt>
      <trkpt lat="42.97025" lon="0.08525">
        <ele>1483.451416</ele>
        <time>2012-06-09T07:11:27Z</time>
      </trkpt>
      <trkpt lat="42.97025" lon="0.08523">
        <ele>1483.451416</ele>
        <time>2012-06-09T07:11:28Z</time>
      </trkpt>
      <trkpt lat="42.97023" lon="0.08508">
        <ele>1484.893799</ele>
        <time>2012-06-09T07:11:42Z</time>
      </trkpt>
      <trkpt lat="42.97023" lon="0.08507">
        <ele>1484.893799</ele>
        <time>2012-06-09T07:11:43Z</time>
      </trkpt>
      <trkpt lat="42.97023" lon="0.08501">
        <ele>1485.374268</ele>
        <time>2012-06-09T07:11:48Z</time>
      </trkpt>
      <trkpt lat="42.97026" lon="0.08488">
        <ele>1488.258301</ele>
        <time>2012-06-09T07:12:00Z</time>
      </trkpt>
      <trkpt lat="42.97026" lon="0.08485">
        <ele>1488.739014</ele>
        <time>2012-06-09T07:12:03Z</time>
      </trkpt>
      <trkpt lat="42.9703" lon="0.08479">
        <ele>1489.219482</ele>
        <time>2012-06-09T07:12:21Z</time>
      </trkpt>
      <trkpt lat="42.97044" lon="0.08468">
        <ele>1488.258301</ele>
        <time>2012-06-09T07:12:37Z</time>
      </trkpt>
      <trkpt lat="42.97047" lon="0.08466">
        <ele>1488.739014</ele>
        <time>2012-06-09T07:12:41Z</time>
      </trkpt>
      <trkpt lat="42.9705" lon="0.08461">
        <ele>1489.219482</ele>
        <time>2012-06-09T07:12:46Z</time>
      </trkpt>
      <trkpt lat="42.97059" lon="0.08454">
        <ele>1489.219482</ele>
        <time>2012-06-09T07:12:56Z</time>
      </trkpt>
      <trkpt lat="42.97069" lon="0.08453">
        <ele>1490.661377</ele>
        <time>2012-06-09T07:13:06Z</time>
      </trkpt>
      <trkpt lat="42.97085" lon="0.08448">
        <ele>1491.622803</ele>
        <time>2012-06-09T07:13:22Z</time>
      </trkpt>
      <trkpt lat="42.97088" lon="0.08447">
        <ele>1492.584229</ele>
        <time>2012-06-09T07:13:25Z</time>
      </trkpt>
      <trkpt lat="42.97095" lon="0.08442">
        <ele>1494.987305</ele>
        <time>2012-06-09T07:13:32Z</time>
      </trkpt>
      <trkpt lat="42.97099" lon="0.08438">
        <ele>1497.390625</ele>
        <time>2012-06-09T07:13:41Z</time>
      </trkpt>
      <trkpt lat="42.97101" lon="0.08437">
        <ele>1497.390625</ele>
        <time>2012-06-09T07:13:44Z</time>
      </trkpt>
      <trkpt lat="42.97114" lon="0.08431">
        <ele>1498.83252</ele>
        <time>2012-06-09T07:13:58Z</time>
      </trkpt>
      <trkpt lat="42.97126" lon="0.08426">
        <ele>1498.83252</ele>
        <time>2012-06-09T07:14:10Z</time>
      </trkpt>
      <trkpt lat="42.97139" lon="0.08416">
        <ele>1500.755371</ele>
        <time>2012-06-09T07:14:28Z</time>
      </trkpt>
      <trkpt lat="42.97146" lon="0.08414">
        <ele>1502.197266</ele>
        <time>2012-06-09T07:14:36Z</time>
      </trkpt>
      <trkpt lat="42.97154" lon="0.08402">
        <ele>1505.562012</ele>
        <time>2012-06-09T07:14:59Z</time>
      </trkpt>
      <trkpt lat="42.97164" lon="0.08389">
        <ele>1508.926514</ele>
        <time>2012-06-09T07:15:19Z</time>
      </trkpt>
      <trkpt lat="42.97169" lon="0.08376">
        <ele>1508.926514</ele>
        <time>2012-06-09T07:15:34Z</time>
      </trkpt>
      <trkpt lat="42.97173" lon="0.08361">
        <ele>1510.368408</ele>
        <time>2012-06-09T07:15:51Z</time>
      </trkpt>
      <trkpt lat="42.9718" lon="0.08356">
        <ele>1514.213623</ele>
        <time>2012-06-09T07:16:07Z</time>
      </trkpt>
      <trkpt lat="42.97187" lon="0.08349">
        <ele>1515.175049</ele>
        <time>2012-06-09T07:16:24Z</time>
      </trkpt>
      <trkpt lat="42.97189" lon="0.08349">
        <ele>1515.175049</ele>
        <time>2012-06-09T07:16:28Z</time>
      </trkpt>
      <trkpt lat="42.97198" lon="0.08347">
        <ele>1517.0979</ele>
        <time>2012-06-09T07:16:46Z</time>
      </trkpt>
      <trkpt lat="42.97204" lon="0.08345">
        <ele>1520.943115</ele>
        <time>2012-06-09T07:16:59Z</time>
      </trkpt>
      <trkpt lat="42.97207" lon="0.08345">
        <ele>1520.943115</ele>
        <time>2012-06-09T07:17:06Z</time>
      </trkpt>
      <trkpt lat="42.97209" lon="0.08345">
        <ele>1520.943115</ele>
        <time>2012-06-09T07:17:08Z</time>
      </trkpt>
      <trkpt lat="42.97217" lon="0.08336">
        <ele>1526.230225</ele>
        <time>2012-06-09T07:17:29Z</time>
      </trkpt>
      <trkpt lat="42.97223" lon="0.08324">
        <ele>1529.594727</ele>
        <time>2012-06-09T07:17:45Z</time>
      </trkpt>
      <trkpt lat="42.97228" lon="0.08316">
        <ele>1531.998047</ele>
        <time>2012-06-09T07:18:01Z</time>
      </trkpt>
      <trkpt lat="42.97231" lon="0.08301">
        <ele>1535.362793</ele>
        <time>2012-06-09T07:18:18Z</time>
      </trkpt>
      <trkpt lat="42.97236" lon="0.08285">
        <ele>1537.766113</ele>
        <time>2012-06-09T07:18:36Z</time>
      </trkpt>
      <trkpt lat="42.9724" lon="0.08278">
        <ele>1540.649902</ele>
        <time>2012-06-09T07:18:51Z</time>
      </trkpt>
      <trkpt lat="42.97244" lon="0.08265">
        <ele>1541.130615</ele>
        <time>2012-06-09T07:19:09Z</time>
      </trkpt>
      <trkpt lat="42.97246" lon="0.0826">
        <ele>1541.130615</ele>
        <time>2012-06-09T07:19:13Z</time>
      </trkpt>
      <trkpt lat="42.97246" lon="0.08257">
        <ele>1541.130615</ele>
        <time>2012-06-09T07:19:15Z</time>
      </trkpt>
      <trkpt lat="42.97248" lon="0.08254">
        <ele>1541.130615</ele>
        <time>2012-06-09T07:19:18Z</time>
      </trkpt>
      <trkpt lat="42.97256" lon="0.08237">
        <ele>1544.014648</ele>
        <time>2012-06-09T07:19:38Z</time>
      </trkpt>
      <trkpt lat="42.97262" lon="0.08232">
        <ele>1545.937256</ele>
        <time>2012-06-09T07:19:47Z</time>
      </trkpt>
      <trkpt lat="42.97263" lon="0.08229">
        <ele>1545.937256</ele>
        <time>2012-06-09T07:19:50Z</time>
      </trkpt>
      <trkpt lat="42.97266" lon="0.08225">
        <ele>1546.417969</ele>
        <time>2012-06-09T07:19:54Z</time>
      </trkpt>
      <trkpt lat="42.97277" lon="0.08213">
        <ele>1549.782715</ele>
        <time>2012-06-09T07:20:13Z</time>
      </trkpt>
      <trkpt lat="42.97284" lon="0.08196">
        <ele>1551.705322</ele>
        <time>2012-06-09T07:20:31Z</time>
      </trkpt>
      <trkpt lat="42.97286" lon="0.08181">
        <ele>1555.069824</ele>
        <time>2012-06-09T07:20:47Z</time>
      </trkpt>
      <trkpt lat="42.97287" lon="0.08167">
        <ele>1557.953857</ele>
        <time>2012-06-09T07:21:03Z</time>
      </trkpt>
      <trkpt lat="42.97287" lon="0.08162">
        <ele>1558.915039</ele>
        <time>2012-06-09T07:21:29Z</time>
      </trkpt>
      <trkpt lat="42.97287" lon="0.08162">
        <ele>1558.915039</ele>
        <time>2012-06-09T07:21:38Z</time>
      </trkpt>
      <trkpt lat="42.97289" lon="0.08149">
        <ele>1560.356934</ele>
        <time>2012-06-09T07:21:52Z</time>
      </trkpt>
      <trkpt lat="42.97292" lon="0.08139">
        <ele>1562.279541</ele>
        <time>2012-06-09T07:22:02Z</time>
      </trkpt>
      <trkpt lat="42.97295" lon="0.08134">
        <ele>1563.240967</ele>
        <time>2012-06-09T07:22:09Z</time>
      </trkpt>
      <trkpt lat="42.97296" lon="0.08129">
        <ele>1564.202393</ele>
        <time>2012-06-09T07:22:13Z</time>
      </trkpt>
      <trkpt lat="42.973" lon="0.08114">
        <ele>1565.163818</ele>
        <time>2012-06-09T07:22:29Z</time>
      </trkpt>
      <trkpt lat="42.97303" lon="0.08106">
        <ele>1567.086426</ele>
        <time>2012-06-09T07:22:37Z</time>
      </trkpt>
      <trkpt lat="42.97303" lon="0.08099">
        <ele>1568.047607</ele>
        <time>2012-06-09T07:22:54Z</time>
      </trkpt>
      <trkpt lat="42.97302" lon="0.08081">
        <ele>1567.086426</ele>
        <time>2012-06-09T07:23:09Z</time>
      </trkpt>
      <trkpt lat="42.97301" lon="0.08072">
        <ele>1568.047607</ele>
        <time>2012-06-09T07:23:18Z</time>
      </trkpt>
      <trkpt lat="42.97294" lon="0.08058">
        <ele>1570.450928</ele>
        <time>2012-06-09T07:23:35Z</time>
      </trkpt>
      <trkpt lat="42.97292" lon="0.08052">
        <ele>1571.412109</ele>
        <time>2012-06-09T07:23:47Z</time>
      </trkpt>
      <trkpt lat="42.97289" lon="0.08045">
        <ele>1572.854248</ele>
        <time>2012-06-09T07:23:57Z</time>
      </trkpt>
      <trkpt lat="42.97287" lon="0.08033">
        <ele>1575.738037</ele>
        <time>2012-06-09T07:24:14Z</time>
      </trkpt>
      <trkpt lat="42.97287" lon="0.08032">
        <ele>1576.21875</ele>
        <time>2012-06-09T07:24:15Z</time>
      </trkpt>
      <trkpt lat="42.97286" lon="0.08027">
        <ele>1576.21875</ele>
        <time>2012-06-09T07:24:20Z</time>
      </trkpt>
      <trkpt lat="42.97285" lon="0.08021">
        <ele>1577.660645</ele>
        <time>2012-06-09T07:24:27Z</time>
      </trkpt>
      <trkpt lat="42.97282" lon="0.0801">
        <ele>1579.583252</ele>
        <time>2012-06-09T07:24:43Z</time>
      </trkpt>
      <trkpt lat="42.9728" lon="0.08004">
        <ele>1578.141357</ele>
        <time>2012-06-09T07:25:00Z</time>
      </trkpt>
      <trkpt lat="42.97278" lon="0.07997">
        <ele>1575.738037</ele>
        <time>2012-06-09T07:25:17Z</time>
      </trkpt>
      <trkpt lat="42.97272" lon="0.07997">
        <ele>1575.738037</ele>
        <time>2012-06-09T07:25:33Z</time>
      </trkpt>
      <trkpt lat="42.97271" lon="0.07998">
        <ele>1576.699463</ele>
        <time>2012-06-09T07:25:47Z</time>
      </trkpt>
      <trkpt lat="42.97268" lon="0.07999">
        <ele>1577.660645</ele>
        <time>2012-06-09T07:26:02Z</time>
      </trkpt>
      <trkpt lat="42.97267" lon="0.07998">
        <ele>1578.141357</ele>
        <time>2012-06-09T07:26:14Z</time>
      </trkpt>
      <trkpt lat="42.97267" lon="0.07991">
        <ele>1581.025635</ele>
        <time>2012-06-09T07:26:29Z</time>
      </trkpt>
      <trkpt lat="42.97265" lon="0.07983">
        <ele>1584.87085</ele>
        <time>2012-06-09T07:26:45Z</time>
      </trkpt>
      <trkpt lat="42.97263" lon="0.07977">
        <ele>1586.793213</ele>
        <time>2012-06-09T07:26:56Z</time>
      </trkpt>
      <trkpt lat="42.97258" lon="0.07967">
        <ele>1589.196533</ele>
        <time>2012-06-09T07:27:09Z</time>
      </trkpt>
      <trkpt lat="42.97257" lon="0.07966">
        <ele>1590.638428</ele>
        <time>2012-06-09T07:27:14Z</time>
      </trkpt>
      <trkpt lat="42.97255" lon="0.07953">
        <ele>1594.003174</ele>
        <time>2012-06-09T07:27:32Z</time>
      </trkpt>
      <trkpt lat="42.97255" lon="0.07944">
        <ele>1595.445068</ele>
        <time>2012-06-09T07:27:46Z</time>
      </trkpt>
      <trkpt lat="42.97252" lon="0.07936">
        <ele>1596.887207</ele>
        <time>2012-06-09T07:28:01Z</time>
      </trkpt>
      <trkpt lat="42.97251" lon="0.07934">
        <ele>1597.36792</ele>
        <time>2012-06-09T07:28:10Z</time>
      </trkpt>
      <trkpt lat="42.97249" lon="0.07921">
        <ele>1600.732422</ele>
        <time>2012-06-09T07:28:24Z</time>
      </trkpt>
      <trkpt lat="42.97249" lon="0.07911">
        <ele>1601.213135</ele>
        <time>2012-06-09T07:28:54Z</time>
      </trkpt>
      <trkpt lat="42.9725" lon="0.07899">
        <ele>1602.174316</ele>
        <time>2012-06-09T07:29:05Z</time>
      </trkpt>
      <trkpt lat="42.97248" lon="0.07893">
        <ele>1602.655029</ele>
        <time>2012-06-09T07:29:10Z</time>
      </trkpt>
      <trkpt lat="42.97247" lon="0.07886">
        <ele>1603.135742</ele>
        <time>2012-06-09T07:29:18Z</time>
      </trkpt>
      <trkpt lat="42.97244" lon="0.07883">
        <ele>1602.655029</ele>
        <time>2012-06-09T07:29:22Z</time>
      </trkpt>
      <trkpt lat="42.97241" lon="0.07879">
        <ele>1602.655029</ele>
        <time>2012-06-09T07:29:26Z</time>
      </trkpt>
      <trkpt lat="42.97235" lon="0.07867">
        <ele>1605.05835</ele>
        <time>2012-06-09T07:29:46Z</time>
      </trkpt>
      <trkpt lat="42.97233" lon="0.07863">
        <ele>1606.019531</ele>
        <time>2012-06-09T07:29:52Z</time>
      </trkpt>
      <trkpt lat="42.97232" lon="0.07859">
        <ele>1606.980957</ele>
        <time>2012-06-09T07:29:58Z</time>
      </trkpt>
      <trkpt lat="42.9723" lon="0.07857">
        <ele>1607.46167</ele>
        <time>2012-06-09T07:30:14Z</time>
      </trkpt>
      <trkpt lat="42.97231" lon="0.07847">
        <ele>1608.422852</ele>
        <time>2012-06-09T07:30:23Z</time>
      </trkpt>
      <trkpt lat="42.97236" lon="0.07846">
        <ele>1610.345459</ele>
        <time>2012-06-09T07:30:30Z</time>
      </trkpt>
      <trkpt lat="42.97247" lon="0.07854">
        <ele>1613.710205</ele>
        <time>2012-06-09T07:30:48Z</time>
      </trkpt>
      <trkpt lat="42.97257" lon="0.07862">
        <ele>1617.074951</ele>
        <time>2012-06-09T07:31:06Z</time>
      </trkpt>
      <trkpt lat="42.97259" lon="0.07863">
        <ele>1618.997559</ele>
        <time>2012-06-09T07:31:13Z</time>
      </trkpt>
      <trkpt lat="42.9727" lon="0.07867">
        <ele>1620.439453</ele>
        <time>2012-06-09T07:31:30Z</time>
      </trkpt>
      <trkpt lat="42.97279" lon="0.07867">
        <ele>1623.323486</ele>
        <time>2012-06-09T07:31:46Z</time>
      </trkpt>
      <trkpt lat="42.97285" lon="0.07869">
        <ele>1626.207275</ele>
        <time>2012-06-09T07:32:03Z</time>
      </trkpt>
      <trkpt lat="42.97289" lon="0.07867">
        <ele>1629.091309</ele>
        <time>2012-06-09T07:32:21Z</time>
      </trkpt>
      <trkpt lat="42.97296" lon="0.07866">
        <ele>1631.01416</ele>
        <time>2012-06-09T07:32:51Z</time>
      </trkpt>
      <trkpt lat="42.97296" lon="0.07866">
        <ele>1631.01416</ele>
        <time>2012-06-09T07:32:58Z</time>
      </trkpt>
      <trkpt lat="42.97303" lon="0.07856">
        <ele>1632.936523</ele>
        <time>2012-06-09T07:33:15Z</time>
      </trkpt>
      <trkpt lat="42.97311" lon="0.07851">
        <ele>1635.820557</ele>
        <time>2012-06-09T07:33:32Z</time>
      </trkpt>
      <trkpt lat="42.97312" lon="0.07851">
        <ele>1636.30127</ele>
        <time>2012-06-09T07:33:34Z</time>
      </trkpt>
      <trkpt lat="42.97318" lon="0.0785">
        <ele>1637.262451</ele>
        <time>2012-06-09T07:33:42Z</time>
      </trkpt>
      <trkpt lat="42.97322" lon="0.07841">
        <ele>1641.588379</ele>
        <time>2012-06-09T07:33:55Z</time>
      </trkpt>
      <trkpt lat="42.97319" lon="0.07828">
        <ele>1644.953125</ele>
        <time>2012-06-09T07:34:10Z</time>
      </trkpt>
      <trkpt lat="42.97319" lon="0.07827">
        <ele>1645.433838</ele>
        <time>2012-06-09T07:34:13Z</time>
      </trkpt>
      <trkpt lat="42.97319" lon="0.07817">
        <ele>1648.317627</ele>
        <time>2012-06-09T07:34:33Z</time>
      </trkpt>
      <trkpt lat="42.97319" lon="0.07812">
        <ele>1650.240479</ele>
        <time>2012-06-09T07:34:50Z</time>
      </trkpt>
      <trkpt lat="42.9732" lon="0.07811">
        <ele>1650.720947</ele>
        <time>2012-06-09T07:34:54Z</time>
      </trkpt>
      <trkpt lat="42.97326" lon="0.0781">
        <ele>1652.643555</ele>
        <time>2012-06-09T07:35:11Z</time>
      </trkpt>
      <trkpt lat="42.9733" lon="0.07807">
        <ele>1655.046875</ele>
        <time>2012-06-09T07:35:29Z</time>
      </trkpt>
      <trkpt lat="42.97335" lon="0.07802">
        <ele>1659.853271</ele>
        <time>2012-06-09T07:35:48Z</time>
      </trkpt>
      <trkpt lat="42.97336" lon="0.07796">
        <ele>1660.814941</ele>
        <time>2012-06-09T07:36:01Z</time>
      </trkpt>
      <trkpt lat="42.97342" lon="0.07791">
        <ele>1663.69873</ele>
        <time>2012-06-09T07:36:18Z</time>
      </trkpt>
      <trkpt lat="42.97345" lon="0.07785">
        <ele>1666.582764</ele>
        <time>2012-06-09T07:36:38Z</time>
      </trkpt>
      <trkpt lat="42.97345" lon="0.07781">
        <ele>1668.986084</ele>
        <time>2012-06-09T07:37:01Z</time>
      </trkpt>
      <trkpt lat="42.97347" lon="0.07779">
        <ele>1669.947266</ele>
        <time>2012-06-09T07:37:20Z</time>
      </trkpt>
      <trkpt lat="42.97356" lon="0.07776">
        <ele>1674.273193</ele>
        <time>2012-06-09T07:37:50Z</time>
      </trkpt>
      <trkpt lat="42.97365" lon="0.07774">
        <ele>1677.157471</ele>
        <time>2012-06-09T07:38:05Z</time>
      </trkpt>
      <trkpt lat="42.97374" lon="0.07775">
        <ele>1680.521973</ele>
        <time>2012-06-09T07:38:21Z</time>
      </trkpt>
      <trkpt lat="42.97384" lon="0.07779">
        <ele>1683.405762</ele>
        <time>2012-06-09T07:38:38Z</time>
      </trkpt>
      <trkpt lat="42.97388" lon="0.07781">
        <ele>1684.367188</ele>
        <time>2012-06-09T07:38:56Z</time>
      </trkpt>
      <trkpt lat="42.97393" lon="0.07781">
        <ele>1686.770264</ele>
        <time>2012-06-09T07:39:21Z</time>
      </trkpt>
      <trkpt lat="42.97398" lon="0.07781">
        <ele>1687.250977</ele>
        <time>2012-06-09T07:39:30Z</time>
      </trkpt>
      <trkpt lat="42.974" lon="0.0778">
        <ele>1687.731689</ele>
        <time>2012-06-09T07:39:33Z</time>
      </trkpt>
      <trkpt lat="42.9741" lon="0.07784">
        <ele>1690.13501</ele>
        <time>2012-06-09T07:39:50Z</time>
      </trkpt>
      <trkpt lat="42.97413" lon="0.07787">
        <ele>1690.615479</ele>
        <time>2012-06-09T07:40:09Z</time>
      </trkpt>
      <trkpt lat="42.97415" lon="0.07787">
        <ele>1692.057861</ele>
        <time>2012-06-09T07:40:28Z</time>
      </trkpt>
      <trkpt lat="42.97414" lon="0.07785">
        <ele>1693.019043</ele>
        <time>2012-06-09T07:40:33Z</time>
      </trkpt>
      <trkpt lat="42.97412" lon="0.07777">
        <ele>1694.94165</ele>
        <time>2012-06-09T07:40:48Z</time>
      </trkpt>
      <trkpt lat="42.97415" lon="0.07773">
        <ele>1697.344971</ele>
        <time>2012-06-09T07:41:07Z</time>
      </trkpt>
      <trkpt lat="42.97417" lon="0.0777">
        <ele>1700.229004</ele>
        <time>2012-06-09T07:41:28Z</time>
      </trkpt>
      <trkpt lat="42.97421" lon="0.0777">
        <ele>1703.112793</ele>
        <time>2012-06-09T07:41:50Z</time>
      </trkpt>
      <trkpt lat="42.97426" lon="0.0777">
        <ele>1705.516113</ele>
        <time>2012-06-09T07:42:07Z</time>
      </trkpt>
      <trkpt lat="42.97429" lon="0.07767">
        <ele>1707.919434</ele>
        <time>2012-06-09T07:42:27Z</time>
      </trkpt>
      <trkpt lat="42.97431" lon="0.07764">
        <ele>1709.842041</ele>
        <time>2012-06-09T07:42:47Z</time>
      </trkpt>
      <trkpt lat="42.97432" lon="0.07762">
        <ele>1710.803467</ele>
        <time>2012-06-09T07:43:04Z</time>
      </trkpt>
      <trkpt lat="42.97438" lon="0.07763">
        <ele>1713.687256</ele>
        <time>2012-06-09T07:43:25Z</time>
      </trkpt>
      <trkpt lat="42.97443" lon="0.07762">
        <ele>1718.013184</ele>
        <time>2012-06-09T07:43:45Z</time>
      </trkpt>
      <trkpt lat="42.97445" lon="0.07756">
        <ele>1719.455322</ele>
        <time>2012-06-09T07:44:00Z</time>
      </trkpt>
      <trkpt lat="42.97445" lon="0.07751">
        <ele>1722.339111</ele>
        <time>2012-06-09T07:44:14Z</time>
      </trkpt>
      <trkpt lat="42.97446" lon="0.07749">
        <ele>1723.300537</ele>
        <time>2012-06-09T07:44:22Z</time>
      </trkpt>
      <trkpt lat="42.97456" lon="0.07751">
        <ele>1726.665283</ele>
        <time>2012-06-09T07:44:41Z</time>
      </trkpt>
      <trkpt lat="42.97463" lon="0.07751">
        <ele>1729.549072</ele>
        <time>2012-06-09T07:44:52Z</time>
      </trkpt>
      <trkpt lat="42.97465" lon="0.07745">
        <ele>1733.875</ele>
        <time>2012-06-09T07:45:08Z</time>
      </trkpt>
      <trkpt lat="42.97466" lon="0.07738">
        <ele>1735.797607</ele>
        <time>2012-06-09T07:45:28Z</time>
      </trkpt>
      <trkpt lat="42.97466" lon="0.07731">
        <ele>1737.720215</ele>
        <time>2012-06-09T07:45:43Z</time>
      </trkpt>
      <trkpt lat="42.97467" lon="0.07727">
        <ele>1741.084961</ele>
        <time>2012-06-09T07:46:02Z</time>
      </trkpt>
      <trkpt lat="42.9747" lon="0.07722">
        <ele>1742.5271</ele>
        <time>2012-06-09T07:46:18Z</time>
      </trkpt>
      <trkpt lat="42.97471" lon="0.07721">
        <ele>1743.968994</ele>
        <time>2012-06-09T07:46:56Z</time>
      </trkpt>
      <trkpt lat="42.97478" lon="0.07717">
        <ele>1746.852783</ele>
        <time>2012-06-09T07:47:13Z</time>
      </trkpt>
      <trkpt lat="42.9748" lon="0.07714">
        <ele>1748.775391</ele>
        <time>2012-06-09T07:47:27Z</time>
      </trkpt>
      <trkpt lat="42.97482" lon="0.07709">
        <ele>1751.659424</ele>
        <time>2012-06-09T07:47:42Z</time>
      </trkpt>
      <trkpt lat="42.97485" lon="0.07709">
        <ele>1753.101318</ele>
        <time>2012-06-09T07:48:09Z</time>
      </trkpt>
      <trkpt lat="42.97486" lon="0.07711">
        <ele>1753.582031</ele>
        <time>2012-06-09T07:48:29Z</time>
      </trkpt>
      <trkpt lat="42.97491" lon="0.07712">
        <ele>1757.908203</ele>
        <time>2012-06-09T07:48:44Z</time>
      </trkpt>
      <trkpt lat="42.97496" lon="0.07702">
        <ele>1759.830566</ele>
        <time>2012-06-09T07:49:03Z</time>
      </trkpt>
      <trkpt lat="42.97498" lon="0.07702">
        <ele>1760.791992</ele>
        <time>2012-06-09T07:49:19Z</time>
      </trkpt>
      <trkpt lat="42.97505" lon="0.07707">
        <ele>1765.11792</ele>
        <time>2012-06-09T07:49:46Z</time>
      </trkpt>
      <trkpt lat="42.97513" lon="0.07712">
        <ele>1768.963135</ele>
        <time>2012-06-09T07:50:04Z</time>
      </trkpt>
      <trkpt lat="42.97519" lon="0.0771">
        <ele>1772.327881</ele>
        <time>2012-06-09T07:50:20Z</time>
      </trkpt>
      <trkpt lat="42.9752" lon="0.0771">
        <ele>1772.808594</ele>
        <time>2012-06-09T07:50:23Z</time>
      </trkpt>
      <trkpt lat="42.97523" lon="0.07707">
        <ele>1774.250488</ele>
        <time>2012-06-09T07:50:44Z</time>
      </trkpt>
      <trkpt lat="42.97523" lon="0.077">
        <ele>1777.134521</ele>
        <time>2012-06-09T07:51:02Z</time>
      </trkpt>
      <trkpt lat="42.97523" lon="0.07696">
        <ele>1778.095703</ele>
        <time>2012-06-09T07:51:06Z</time>
      </trkpt>
      <trkpt lat="42.97526" lon="0.07687">
        <ele>1779.537598</ele>
        <time>2012-06-09T07:51:23Z</time>
      </trkpt>
      <trkpt lat="42.9753" lon="0.07681">
        <ele>1782.421631</ele>
        <time>2012-06-09T07:51:38Z</time>
      </trkpt>
      <trkpt lat="42.97535" lon="0.07679">
        <ele>1785.30542</ele>
        <time>2012-06-09T07:51:52Z</time>
      </trkpt>
      <trkpt lat="42.97538" lon="0.07674">
        <ele>1786.266846</ele>
        <time>2012-06-09T07:52:08Z</time>
      </trkpt>
      <trkpt lat="42.97541" lon="0.07667">
        <ele>1788.67041</ele>
        <time>2012-06-09T07:52:26Z</time>
      </trkpt>
      <trkpt lat="42.97542" lon="0.07661">
        <ele>1791.073486</ele>
        <time>2012-06-09T07:52:45Z</time>
      </trkpt>
      <trkpt lat="42.97547" lon="0.07653">
        <ele>1793.95752</ele>
        <time>2012-06-09T07:53:01Z</time>
      </trkpt>
      <trkpt lat="42.97552" lon="0.0764">
        <ele>1795.880127</ele>
        <time>2012-06-09T07:53:17Z</time>
      </trkpt>
      <trkpt lat="42.97557" lon="0.07634">
        <ele>1799.244629</ele>
        <time>2012-06-09T07:53:33Z</time>
      </trkpt>
      <trkpt lat="42.9756" lon="0.07633">
        <ele>1800.686523</ele>
        <time>2012-06-09T07:53:42Z</time>
      </trkpt>
      <trkpt lat="42.97566" lon="0.07624">
        <ele>1801.167236</ele>
        <time>2012-06-09T07:53:56Z</time>
      </trkpt>
      <trkpt lat="42.97568" lon="0.07615">
        <ele>1803.570557</ele>
        <time>2012-06-09T07:54:12Z</time>
      </trkpt>
      <trkpt lat="42.97567" lon="0.07612">
        <ele>1804.051514</ele>
        <time>2012-06-09T07:54:30Z</time>
      </trkpt>
      <trkpt lat="42.97568" lon="0.0761">
        <ele>1805.012695</ele>
        <time>2012-06-09T07:55:26Z</time>
      </trkpt>
      <trkpt lat="42.97568" lon="0.07609">
        <ele>1805.012695</ele>
        <time>2012-06-09T07:55:50Z</time>
      </trkpt>
      <trkpt lat="42.97574" lon="0.07601">
        <ele>1806.935303</ele>
        <time>2012-06-09T07:55:58Z</time>
      </trkpt>
      <trkpt lat="42.97575" lon="0.0759">
        <ele>1810.780518</ele>
        <time>2012-06-09T07:56:13Z</time>
      </trkpt>
      <trkpt lat="42.97578" lon="0.0758">
        <ele>1812.703125</ele>
        <time>2012-06-09T07:56:24Z</time>
      </trkpt>
      <trkpt lat="42.97581" lon="0.07571">
        <ele>1812.703125</ele>
        <time>2012-06-09T07:56:42Z</time>
      </trkpt>
      <trkpt lat="42.97587" lon="0.07564">
        <ele>1815.587158</ele>
        <time>2012-06-09T07:56:58Z</time>
      </trkpt>
      <trkpt lat="42.97589" lon="0.07562">
        <ele>1817.509521</ele>
        <time>2012-06-09T07:57:03Z</time>
      </trkpt>
      <trkpt lat="42.97594" lon="0.07553">
        <ele>1820.874512</ele>
        <time>2012-06-09T07:57:16Z</time>
      </trkpt>
      <trkpt lat="42.97596" lon="0.07546">
        <ele>1817.509521</ele>
        <time>2012-06-09T07:57:28Z</time>
      </trkpt>
      <trkpt lat="42.976" lon="0.07539">
        <ele>1817.990234</ele>
        <time>2012-06-09T07:57:45Z</time>
      </trkpt>
      <trkpt lat="42.97601" lon="0.07536">
        <ele>1819.432373</ele>
        <time>2012-06-09T07:57:55Z</time>
      </trkpt>
      <trkpt lat="42.97606" lon="0.07531">
        <ele>1820.874512</ele>
        <time>2012-06-09T07:58:10Z</time>
      </trkpt>
      <trkpt lat="42.97608" lon="0.07528">
        <ele>1823.277832</ele>
        <time>2012-06-09T07:58:19Z</time>
      </trkpt>
      <trkpt lat="42.97611" lon="0.07525">
        <ele>1823.758301</ele>
        <time>2012-06-09T07:58:23Z</time>
      </trkpt>
      <trkpt lat="42.97615" lon="0.07524">
        <ele>1824.719727</ele>
        <time>2012-06-09T07:58:31Z</time>
      </trkpt>
      <trkpt lat="42.97621" lon="0.07523">
        <ele>1826.161621</ele>
        <time>2012-06-09T07:58:40Z</time>
      </trkpt>
      <trkpt lat="42.97627" lon="0.07515">
        <ele>1826.642334</ele>
        <time>2012-06-09T07:58:50Z</time>
      </trkpt>
      <trkpt lat="42.97632" lon="0.07509">
        <ele>1828.084229</ele>
        <time>2012-06-09T07:58:59Z</time>
      </trkpt>
      <trkpt lat="42.97634" lon="0.07506">
        <ele>1828.084229</ele>
        <time>2012-06-09T07:59:28Z</time>
      </trkpt>
      <trkpt lat="42.9764" lon="0.07495">
        <ele>1828.564941</ele>
        <time>2012-06-09T08:00:13Z</time>
      </trkpt>
      <trkpt lat="42.97647" lon="0.07475">
        <ele>1828.564941</ele>
        <time>2012-06-09T08:00:30Z</time>
      </trkpt>
      <trkpt lat="42.97654" lon="0.07459">
        <ele>1829.04541</ele>
        <time>2012-06-09T08:00:48Z</time>
      </trkpt>
      <trkpt lat="42.97657" lon="0.07447">
        <ele>1830.006836</ele>
        <time>2012-06-09T08:01:04Z</time>
      </trkpt>
      <trkpt lat="42.97658" lon="0.07447">
        <ele>1830.006836</ele>
        <time>2012-06-09T08:01:09Z</time>
      </trkpt>
      <trkpt lat="42.97665" lon="0.07441">
        <ele>1831.44873</ele>
        <time>2012-06-09T08:01:22Z</time>
      </trkpt>
      <trkpt lat="42.9767" lon="0.07438">
        <ele>1831.44873</ele>
        <time>2012-06-09T08:01:29Z</time>
      </trkpt>
      <trkpt lat="42.97683" lon="0.0743">
        <ele>1832.890625</ele>
        <time>2012-06-09T08:01:49Z</time>
      </trkpt>
      <trkpt lat="42.97685" lon="0.07429">
        <ele>1832.890625</ele>
        <time>2012-06-09T08:01:51Z</time>
      </trkpt>
      <trkpt lat="42.97687" lon="0.07428">
        <ele>1832.890625</ele>
        <time>2012-06-09T08:01:53Z</time>
      </trkpt>
      <trkpt lat="42.97689" lon="0.07427">
        <ele>1833.371338</ele>
        <time>2012-06-09T08:01:55Z</time>
      </trkpt>
      <trkpt lat="42.9769" lon="0.07426">
        <ele>1833.371338</ele>
        <time>2012-06-09T08:01:57Z</time>
      </trkpt>
      <trkpt lat="42.97703" lon="0.0742">
        <ele>1835.774658</ele>
        <time>2012-06-09T08:02:16Z</time>
      </trkpt>
      <trkpt lat="42.97712" lon="0.07413">
        <ele>1838.658936</ele>
        <time>2012-06-09T08:02:33Z</time>
      </trkpt>
      <trkpt lat="42.97721" lon="0.07402">
        <ele>1840.581299</ele>
        <time>2012-06-09T08:02:52Z</time>
      </trkpt>
      <trkpt lat="42.97728" lon="0.07396">
        <ele>1842.984619</ele>
        <time>2012-06-09T08:03:08Z</time>
      </trkpt>
      <trkpt lat="42.97735" lon="0.07392">
        <ele>1844.907227</ele>
        <time>2012-06-09T08:03:25Z</time>
      </trkpt>
      <trkpt lat="42.97742" lon="0.07387">
        <ele>1847.310547</ele>
        <time>2012-06-09T08:03:42Z</time>
      </trkpt>
      <trkpt lat="42.97745" lon="0.07389">
        <ele>1848.271729</ele>
        <time>2012-06-09T08:03:47Z</time>
      </trkpt>
      <trkpt lat="42.97752" lon="0.0739">
        <ele>1851.155762</ele>
        <time>2012-06-09T08:04:02Z</time>
      </trkpt>
      <trkpt lat="42.97752" lon="0.07387">
        <ele>1851.155762</ele>
        <time>2012-06-09T08:04:06Z</time>
      </trkpt>
      <trkpt lat="42.97754" lon="0.07378">
        <ele>1853.078613</ele>
        <time>2012-06-09T08:04:22Z</time>
      </trkpt>
      <trkpt lat="42.97755" lon="0.07373">
        <ele>1856.443115</ele>
        <time>2012-06-09T08:04:37Z</time>
      </trkpt>
      <trkpt lat="42.97756" lon="0.0737">
        <ele>1856.923828</ele>
        <time>2012-06-09T08:04:48Z</time>
      </trkpt>
      <trkpt lat="42.97763" lon="0.0737">
        <ele>1859.327148</ele>
        <time>2012-06-09T08:05:06Z</time>
      </trkpt>
      <trkpt lat="42.97763" lon="0.07364">
        <ele>1861.730469</ele>
        <time>2012-06-09T08:05:21Z</time>
      </trkpt>
      <trkpt lat="42.97766" lon="0.07361">
        <ele>1863.652832</ele>
        <time>2012-06-09T08:05:41Z</time>
      </trkpt>
      <trkpt lat="42.97768" lon="0.07354">
        <ele>1865.575684</ele>
        <time>2012-06-09T08:06:00Z</time>
      </trkpt>
      <trkpt lat="42.97773" lon="0.07349">
        <ele>1869.901611</ele>
        <time>2012-06-09T08:06:15Z</time>
      </trkpt>
      <trkpt lat="42.97774" lon="0.07349">
        <ele>1870.863037</ele>
        <time>2012-06-09T08:06:23Z</time>
      </trkpt>
      <trkpt lat="42.97782" lon="0.07351">
        <ele>1875.188721</ele>
        <time>2012-06-09T08:06:37Z</time>
      </trkpt>
      <trkpt lat="42.97783" lon="0.07349">
        <ele>1876.150146</ele>
        <time>2012-06-09T08:07:03Z</time>
      </trkpt>
      <trkpt lat="42.97786" lon="0.07347">
        <ele>1879.514648</ele>
        <time>2012-06-09T08:07:20Z</time>
      </trkpt>
      <trkpt lat="42.97792" lon="0.07349">
        <ele>1883.359863</ele>
        <time>2012-06-09T08:07:37Z</time>
      </trkpt>
      <trkpt lat="42.97796" lon="0.07348">
        <ele>1885.763428</ele>
        <time>2012-06-09T08:07:56Z</time>
      </trkpt>
      <trkpt lat="42.97802" lon="0.07348">
        <ele>1888.166748</ele>
        <time>2012-06-09T08:08:12Z</time>
      </trkpt>
      <trkpt lat="42.97805" lon="0.07345">
        <ele>1891.050537</ele>
        <time>2012-06-09T08:08:28Z</time>
      </trkpt>
      <trkpt lat="42.97808" lon="0.07346">
        <ele>1892.492676</ele>
        <time>2012-06-09T08:08:45Z</time>
      </trkpt>
      <trkpt lat="42.97811" lon="0.07347">
        <ele>1894.895752</ele>
        <time>2012-06-09T08:09:01Z</time>
      </trkpt>
      <trkpt lat="42.97815" lon="0.07348">
        <ele>1898.260254</ele>
        <time>2012-06-09T08:09:19Z</time>
      </trkpt>
      <trkpt lat="42.97817" lon="0.07348">
        <ele>1900.18335</ele>
        <time>2012-06-09T08:09:35Z</time>
      </trkpt>
      <trkpt lat="42.9782" lon="0.07348">
        <ele>1903.067139</ele>
        <time>2012-06-09T08:09:55Z</time>
      </trkpt>
      <trkpt lat="42.97821" lon="0.07347">
        <ele>1903.547852</ele>
        <time>2012-06-09T08:10:04Z</time>
      </trkpt>
      <trkpt lat="42.97824" lon="0.07348">
        <ele>1905.470459</ele>
        <time>2012-06-09T08:10:20Z</time>
      </trkpt>
      <trkpt lat="42.97823" lon="0.0735">
        <ele>1906.912354</ele>
        <time>2012-06-09T08:10:39Z</time>
      </trkpt>
      <trkpt lat="42.97826" lon="0.07358">
        <ele>1911.718994</ele>
        <time>2012-06-09T08:11:01Z</time>
      </trkpt>
      <trkpt lat="42.97829" lon="0.07359">
        <ele>1913.641357</ele>
        <time>2012-06-09T08:11:16Z</time>
      </trkpt>
      <trkpt lat="42.97831" lon="0.07358">
        <ele>1916.044922</ele>
        <time>2012-06-09T08:13:20Z</time>
      </trkpt>
      <trkpt lat="42.97832" lon="0.07359">
        <ele>1917.006348</ele>
        <time>2012-06-09T08:14:24Z</time>
      </trkpt>
      <trkpt lat="42.97832" lon="0.07359">
        <ele>1917.006348</ele>
        <time>2012-06-09T08:14:34Z</time>
      </trkpt>
      <trkpt lat="42.97836" lon="0.07359">
        <ele>1918.928955</ele>
        <time>2012-06-09T08:14:52Z</time>
      </trkpt>
      <trkpt lat="42.97836" lon="0.07359">
        <ele>1918.928955</ele>
        <time>2012-06-09T08:15:30Z</time>
      </trkpt>
      <trkpt lat="42.97835" lon="0.0736">
        <ele>1920.37085</ele>
        <time>2012-06-09T08:17:01Z</time>
      </trkpt>
      <trkpt lat="42.97838" lon="0.07359">
        <ele>1921.332031</ele>
        <time>2012-06-09T08:17:32Z</time>
      </trkpt>
      <trkpt lat="42.97839" lon="0.07362">
        <ele>1922.77417</ele>
        <time>2012-06-09T08:17:51Z</time>
      </trkpt>
      <trkpt lat="42.97843" lon="0.07367">
        <ele>1925.657959</ele>
        <time>2012-06-09T08:18:09Z</time>
      </trkpt>
      <trkpt lat="42.97847" lon="0.07368">
        <ele>1929.983887</ele>
        <time>2012-06-09T08:18:25Z</time>
      </trkpt>
      <trkpt lat="42.97851" lon="0.07368">
        <ele>1932.387451</ele>
        <time>2012-06-09T08:18:45Z</time>
      </trkpt>
      <trkpt lat="42.97854" lon="0.07371">
        <ele>1932.387451</ele>
        <time>2012-06-09T08:19:04Z</time>
      </trkpt>
      <trkpt lat="42.97861" lon="0.07372">
        <ele>1935.751953</ele>
        <time>2012-06-09T08:19:20Z</time>
      </trkpt>
      <trkpt lat="42.97864" lon="0.07369">
        <ele>1937.674561</ele>
        <time>2012-06-09T08:19:34Z</time>
      </trkpt>
      <trkpt lat="42.97865" lon="0.07367">
        <ele>1938.155273</ele>
        <time>2012-06-09T08:19:39Z</time>
      </trkpt>
      <trkpt lat="42.97871" lon="0.07365">
        <ele>1942.96167</ele>
        <time>2012-06-09T08:19:55Z</time>
      </trkpt>
      <trkpt lat="42.97873" lon="0.07365">
        <ele>1943.923096</ele>
        <time>2012-06-09T08:20:09Z</time>
      </trkpt>
      <trkpt lat="42.97875" lon="0.07361">
        <ele>1945.845703</ele>
        <time>2012-06-09T08:20:27Z</time>
      </trkpt>
      <trkpt lat="42.97883" lon="0.07361">
        <ele>1949.210449</ele>
        <time>2012-06-09T08:20:48Z</time>
      </trkpt>
      <trkpt lat="42.97885" lon="0.0736">
        <ele>1953.055664</ele>
        <time>2012-06-09T08:21:04Z</time>
      </trkpt>
      <trkpt lat="42.97887" lon="0.07352">
        <ele>1955.939453</ele>
        <time>2012-06-09T08:21:23Z</time>
      </trkpt>
      <trkpt lat="42.97888" lon="0.07352">
        <ele>1956.900879</ele>
        <time>2012-06-09T08:21:35Z</time>
      </trkpt>
      <trkpt lat="42.97891" lon="0.07354">
        <ele>1958.342773</ele>
        <time>2012-06-09T08:21:52Z</time>
      </trkpt>
      <trkpt lat="42.97893" lon="0.07355">
        <ele>1959.784668</ele>
        <time>2012-06-09T08:21:59Z</time>
      </trkpt>
      <trkpt lat="42.97898" lon="0.07363">
        <ele>1963.629883</ele>
        <time>2012-06-09T08:22:16Z</time>
      </trkpt>
      <trkpt lat="42.97903" lon="0.07366">
        <ele>1966.994873</ele>
        <time>2012-06-09T08:22:33Z</time>
      </trkpt>
      <trkpt lat="42.97906" lon="0.07362">
        <ele>1967.956055</ele>
        <time>2012-06-09T08:22:47Z</time>
      </trkpt>
      <trkpt lat="42.97909" lon="0.07359">
        <ele>1970.840088</ele>
        <time>2012-06-09T08:23:06Z</time>
      </trkpt>
      <trkpt lat="42.9791" lon="0.07358">
        <ele>1970.840088</ele>
        <time>2012-06-09T08:23:07Z</time>
      </trkpt>
      <trkpt lat="42.97916" lon="0.07352">
        <ele>1973.723877</ele>
        <time>2012-06-09T08:23:25Z</time>
      </trkpt>
      <trkpt lat="42.9792" lon="0.07346">
        <ele>1976.127197</ele>
        <time>2012-06-09T08:23:39Z</time>
      </trkpt>
      <trkpt lat="42.97922" lon="0.07341">
        <ele>1980.934082</ele>
        <time>2012-06-09T08:23:56Z</time>
      </trkpt>
      <trkpt lat="42.97925" lon="0.07339">
        <ele>1984.298584</ele>
        <time>2012-06-09T08:24:12Z</time>
      </trkpt>
      <trkpt lat="42.97928" lon="0.07338">
        <ele>1985.259766</ele>
        <time>2012-06-09T08:24:27Z</time>
      </trkpt>
      <trkpt lat="42.97929" lon="0.0734">
        <ele>1988.143799</ele>
        <time>2012-06-09T08:24:45Z</time>
      </trkpt>
      <trkpt lat="42.97934" lon="0.07336">
        <ele>1990.066406</ele>
        <time>2012-06-09T08:25:00Z</time>
      </trkpt>
      <trkpt lat="42.97938" lon="0.07337">
        <ele>1993.430908</ele>
        <time>2012-06-09T08:25:15Z</time>
      </trkpt>
      <trkpt lat="42.97939" lon="0.07335">
        <ele>1995.353516</ele>
        <time>2012-06-09T08:25:26Z</time>
      </trkpt>
      <trkpt lat="42.97944" lon="0.07334">
        <ele>1998.237549</ele>
        <time>2012-06-09T08:25:41Z</time>
      </trkpt>
      <trkpt lat="42.97945" lon="0.0733">
        <ele>1999.679688</ele>
        <time>2012-06-09T08:25:58Z</time>
      </trkpt>
      <trkpt lat="42.97947" lon="0.07326">
        <ele>2001.121582</ele>
        <time>2012-06-09T08:26:15Z</time>
      </trkpt>
      <trkpt lat="42.97949" lon="0.07319">
        <ele>2003.524902</ele>
        <time>2012-06-09T08:26:31Z</time>
      </trkpt>
      <trkpt lat="42.9795" lon="0.07312">
        <ele>2004.005615</ele>
        <time>2012-06-09T08:26:48Z</time>
      </trkpt>
      <trkpt lat="42.9795" lon="0.07311">
        <ele>2004.005615</ele>
        <time>2012-06-09T08:27:45Z</time>
      </trkpt>
      <trkpt lat="42.97951" lon="0.07307">
        <ele>2004.486084</ele>
        <time>2012-06-09T08:28:22Z</time>
      </trkpt>
      <trkpt lat="42.97953" lon="0.07299">
        <ele>2005.927979</ele>
        <time>2012-06-09T08:28:37Z</time>
      </trkpt>
      <trkpt lat="42.97954" lon="0.07298">
        <ele>2006.408691</ele>
        <time>2012-06-09T08:28:39Z</time>
      </trkpt>
      <trkpt lat="42.97962" lon="0.07292">
        <ele>2010.734619</ele>
        <time>2012-06-09T08:28:54Z</time>
      </trkpt>
      <trkpt lat="42.97966" lon="0.07292">
        <ele>2012.657471</ele>
        <time>2012-06-09T08:29:17Z</time>
      </trkpt>
      <trkpt lat="42.97973" lon="0.07285">
        <ele>2016.021973</ele>
        <time>2012-06-09T08:29:33Z</time>
      </trkpt>
      <trkpt lat="42.97978" lon="0.07291">
        <ele>2018.906006</ele>
        <time>2012-06-09T08:29:49Z</time>
      </trkpt>
      <trkpt lat="42.97984" lon="0.0729">
        <ele>2022.751221</ele>
        <time>2012-06-09T08:30:05Z</time>
      </trkpt>
      <trkpt lat="42.97989" lon="0.07291">
        <ele>2024.193115</ele>
        <time>2012-06-09T08:30:20Z</time>
      </trkpt>
      <trkpt lat="42.97994" lon="0.07296">
        <ele>2025.63501</ele>
        <time>2012-06-09T08:30:36Z</time>
      </trkpt>
      <trkpt lat="42.97998" lon="0.07298">
        <ele>2028.519287</ele>
        <time>2012-06-09T08:30:50Z</time>
      </trkpt>
      <trkpt lat="42.98005" lon="0.07295">
        <ele>2030.441895</ele>
        <time>2012-06-09T08:31:08Z</time>
      </trkpt>
      <trkpt lat="42.98011" lon="0.07289">
        <ele>2034.767822</ele>
        <time>2012-06-09T08:31:26Z</time>
      </trkpt>
      <trkpt lat="42.98015" lon="0.07288">
        <ele>2037.170898</ele>
        <time>2012-06-09T08:31:45Z</time>
      </trkpt>
      <trkpt lat="42.98016" lon="0.07291">
        <ele>2038.132324</ele>
        <time>2012-06-09T08:31:52Z</time>
      </trkpt>
      <trkpt lat="42.98021" lon="0.07299">
        <ele>2040.054932</ele>
        <time>2012-06-09T08:32:08Z</time>
      </trkpt>
      <trkpt lat="42.98026" lon="0.07302">
        <ele>2041.977539</ele>
        <time>2012-06-09T08:32:25Z</time>
      </trkpt>
      <trkpt lat="42.98027" lon="0.07296">
        <ele>2041.977539</ele>
        <time>2012-06-09T08:32:32Z</time>
      </trkpt>
      <trkpt lat="42.98031" lon="0.07284">
        <ele>2045.822998</ele>
        <time>2012-06-09T08:32:49Z</time>
      </trkpt>
      <trkpt lat="42.98034" lon="0.07272">
        <ele>2046.78418</ele>
        <time>2012-06-09T08:33:05Z</time>
      </trkpt>
      <trkpt lat="42.98038" lon="0.07263">
        <ele>2048.706787</ele>
        <time>2012-06-09T08:33:19Z</time>
      </trkpt>
      <trkpt lat="42.98044" lon="0.07256">
        <ele>2050.629395</ele>
        <time>2012-06-09T08:33:36Z</time>
      </trkpt>
      <trkpt lat="42.98049" lon="0.07251">
        <ele>2053.513428</ele>
        <time>2012-06-09T08:33:51Z</time>
      </trkpt>
      <trkpt lat="42.98051" lon="0.07243">
        <ele>2055.916504</ele>
        <time>2012-06-09T08:34:08Z</time>
      </trkpt>
      <trkpt lat="42.98052" lon="0.07224">
        <ele>2058.800537</ele>
        <time>2012-06-09T08:34:27Z</time>
      </trkpt>
      <trkpt lat="42.98053" lon="0.07222">
        <ele>2059.28125</ele>
        <time>2012-06-09T08:34:30Z</time>
      </trkpt>
      <trkpt lat="42.98058" lon="0.07206">
        <ele>2062.645996</ele>
        <time>2012-06-09T08:34:48Z</time>
      </trkpt>
      <trkpt lat="42.98062" lon="0.07198">
        <ele>2065.049316</ele>
        <time>2012-06-09T08:35:05Z</time>
      </trkpt>
      <trkpt lat="42.98065" lon="0.07192">
        <ele>2068.413818</ele>
        <time>2012-06-09T08:35:21Z</time>
      </trkpt>
      <trkpt lat="42.9807" lon="0.07189">
        <ele>2070.817139</ele>
        <time>2012-06-09T08:35:42Z</time>
      </trkpt>
      <trkpt lat="42.98074" lon="0.07191">
        <ele>2075.142822</ele>
        <time>2012-06-09T08:36:02Z</time>
      </trkpt>
      <trkpt lat="42.98081" lon="0.07192">
        <ele>2078.0271</ele>
        <time>2012-06-09T08:36:25Z</time>
      </trkpt>
      <trkpt lat="42.98084" lon="0.072">
        <ele>2081.391602</ele>
        <time>2012-06-09T08:36:43Z</time>
      </trkpt>
      <trkpt lat="42.98084" lon="0.07209">
        <ele>2086.198242</ele>
        <time>2012-06-09T08:37:03Z</time>
      </trkpt>
      <trkpt lat="42.98091" lon="0.07206">
        <ele>2090.043457</ele>
        <time>2012-06-09T08:37:34Z</time>
      </trkpt>
      <trkpt lat="42.98096" lon="0.07212">
        <ele>2091.485352</ele>
        <time>2012-06-09T08:37:50Z</time>
      </trkpt>
      <trkpt lat="42.98095" lon="0.0722">
        <ele>2093.888916</ele>
        <time>2012-06-09T08:38:07Z</time>
      </trkpt>
      <trkpt lat="42.98094" lon="0.07223">
        <ele>2094.369385</ele>
        <time>2012-06-09T08:38:12Z</time>
      </trkpt>
      <trkpt lat="42.98097" lon="0.07235">
        <ele>2098.2146</ele>
        <time>2012-06-09T08:38:30Z</time>
      </trkpt>
      <trkpt lat="42.98102" lon="0.07244">
        <ele>2101.098633</ele>
        <time>2012-06-09T08:38:48Z</time>
      </trkpt>
      <trkpt lat="42.98107" lon="0.07241">
        <ele>2103.02124</ele>
        <time>2012-06-09T08:39:03Z</time>
      </trkpt>
      <trkpt lat="42.98111" lon="0.07247">
        <ele>2105.905029</ele>
        <time>2012-06-09T08:39:19Z</time>
      </trkpt>
      <trkpt lat="42.98115" lon="0.07249">
        <ele>2108.308594</ele>
        <time>2012-06-09T08:39:42Z</time>
      </trkpt>
      <trkpt lat="42.98119" lon="0.07251">
        <ele>2110.711914</ele>
        <time>2012-06-09T08:39:58Z</time>
      </trkpt>
      <trkpt lat="42.9812" lon="0.07251">
        <ele>2112.153809</ele>
        <time>2012-06-09T08:40:03Z</time>
      </trkpt>
      <trkpt lat="42.98126" lon="0.07247">
        <ele>2113.115234</ele>
        <time>2012-06-09T08:40:19Z</time>
      </trkpt>
      <trkpt lat="42.98129" lon="0.07241">
        <ele>2116.479736</ele>
        <time>2012-06-09T08:40:35Z</time>
      </trkpt>
      <trkpt lat="42.98134" lon="0.07235">
        <ele>2117.921631</ele>
        <time>2012-06-09T08:40:50Z</time>
      </trkpt>
      <trkpt lat="42.98138" lon="0.07233">
        <ele>2119.36377</ele>
        <time>2012-06-09T08:41:10Z</time>
      </trkpt>
      <trkpt lat="42.98143" lon="0.07229">
        <ele>2122.728271</ele>
        <time>2012-06-09T08:41:27Z</time>
      </trkpt>
      <trkpt lat="42.98146" lon="0.07232">
        <ele>2127.054443</ele>
        <time>2012-06-09T08:41:42Z</time>
      </trkpt>
      <trkpt lat="42.98146" lon="0.07237">
        <ele>2128.496338</ele>
        <time>2012-06-09T08:41:48Z</time>
      </trkpt>
      <trkpt lat="42.98149" lon="0.07241">
        <ele>2129.938232</ele>
        <time>2012-06-09T08:42:09Z</time>
      </trkpt>
      <trkpt lat="42.98153" lon="0.0724">
        <ele>2130.899658</ele>
        <time>2012-06-09T08:43:04Z</time>
      </trkpt>
      <trkpt lat="42.98157" lon="0.07238">
        <ele>2132.822021</ele>
        <time>2012-06-09T08:43:23Z</time>
      </trkpt>
      <trkpt lat="42.98157" lon="0.07238">
        <ele>2132.822021</ele>
        <time>2012-06-09T08:43:24Z</time>
      </trkpt>
      <trkpt lat="42.98157" lon="0.07238">
        <ele>2133.302734</ele>
        <time>2012-06-09T08:43:28Z</time>
      </trkpt>
      <trkpt lat="42.98163" lon="0.07238">
        <ele>2136.186768</ele>
        <time>2012-06-09T08:43:44Z</time>
      </trkpt>
      <trkpt lat="42.98165" lon="0.07238">
        <ele>2137.147949</ele>
        <time>2012-06-09T08:44:10Z</time>
      </trkpt>
      <trkpt lat="42.98165" lon="0.07238">
        <ele>2137.628662</ele>
        <time>2012-06-09T08:45:26Z</time>
      </trkpt>
      <trkpt lat="42.98172" lon="0.0723">
        <ele>2140.512695</ele>
        <time>2012-06-09T08:45:51Z</time>
      </trkpt>
      <trkpt lat="42.9817" lon="0.07224">
        <ele>2142.435547</ele>
        <time>2012-06-09T08:46:04Z</time>
      </trkpt>
      <trkpt lat="42.98175" lon="0.07212">
        <ele>2143.396729</ele>
        <time>2012-06-09T08:46:23Z</time>
      </trkpt>
      <trkpt lat="42.9818" lon="0.07206">
        <ele>2143.877441</ele>
        <time>2012-06-09T08:46:34Z</time>
      </trkpt>
      <trkpt lat="42.98186" lon="0.07197">
        <ele>2147.722656</ele>
        <time>2012-06-09T08:46:51Z</time>
      </trkpt>
      <trkpt lat="42.98188" lon="0.07194">
        <ele>2148.203125</ele>
        <time>2012-06-09T08:47:05Z</time>
      </trkpt>
      <trkpt lat="42.9819" lon="0.0719">
        <ele>2152.04834</ele>
        <time>2012-06-09T08:47:19Z</time>
      </trkpt>
      <trkpt lat="42.98195" lon="0.07185">
        <ele>2153.971191</ele>
        <time>2012-06-09T08:47:39Z</time>
      </trkpt>
      <trkpt lat="42.98198" lon="0.07181">
        <ele>2154.45166</ele>
        <time>2012-06-09T08:48:02Z</time>
      </trkpt>
      <trkpt lat="42.98203" lon="0.07177">
        <ele>2155.413086</ele>
        <time>2012-06-09T08:48:19Z</time>
      </trkpt>
      <trkpt lat="42.98207" lon="0.07172">
        <ele>2155.893555</ele>
        <time>2012-06-09T08:48:37Z</time>
      </trkpt>
      <trkpt lat="42.98208" lon="0.07168">
        <ele>2155.893555</ele>
        <time>2012-06-09T08:48:53Z</time>
      </trkpt>
      <trkpt lat="42.98209" lon="0.07165">
        <ele>2155.893555</ele>
        <time>2012-06-09T08:49:11Z</time>
      </trkpt>
      <trkpt lat="42.9821" lon="0.07161">
        <ele>2156.374512</ele>
        <time>2012-06-09T08:49:29Z</time>
      </trkpt>
      <trkpt lat="42.9821" lon="0.07161">
        <ele>2156.855225</ele>
        <time>2012-06-09T08:49:36Z</time>
      </trkpt>
      <trkpt lat="42.98209" lon="0.07162">
        <ele>2158.777832</ele>
        <time>2012-06-09T08:49:58Z</time>
      </trkpt>
      <trkpt lat="42.98205" lon="0.07163">
        <ele>2159.739014</ele>
        <time>2012-06-09T08:50:19Z</time>
      </trkpt>
      <trkpt lat="42.98205" lon="0.07159">
        <ele>2162.623047</ele>
        <time>2012-06-09T08:50:34Z</time>
      </trkpt>
      <trkpt lat="42.98203" lon="0.07156">
        <ele>2164.545654</ele>
        <time>2012-06-09T08:50:52Z</time>
      </trkpt>
      <trkpt lat="42.98203" lon="0.07153">
        <ele>2167.429443</ele>
        <time>2012-06-09T08:51:08Z</time>
      </trkpt>
      <trkpt lat="42.98203" lon="0.0715">
        <ele>2171.755371</ele>
        <time>2012-06-09T08:51:28Z</time>
      </trkpt>
      <trkpt lat="42.98202" lon="0.07147">
        <ele>2174.158936</ele>
        <time>2012-06-09T08:51:47Z</time>
      </trkpt>
      <trkpt lat="42.982" lon="0.07147">
        <ele>2175.60083</ele>
        <time>2012-06-09T08:52:09Z</time>
      </trkpt>
      <trkpt lat="42.98193" lon="0.07148">
        <ele>2178.484863</ele>
        <time>2012-06-09T08:52:30Z</time>
      </trkpt>
      <trkpt lat="42.98188" lon="0.0715">
        <ele>2179.926758</ele>
        <time>2012-06-09T08:52:42Z</time>
      </trkpt>
      <trkpt lat="42.98185" lon="0.07148">
        <ele>2180.407471</ele>
        <time>2012-06-09T08:52:56Z</time>
      </trkpt>
      <trkpt lat="42.98186" lon="0.07146">
        <ele>2181.368652</ele>
        <time>2012-06-09T08:53:18Z</time>
      </trkpt>
      <trkpt lat="42.98186" lon="0.07144">
        <ele>2182.810547</ele>
        <time>2012-06-09T08:53:42Z</time>
      </trkpt>
      <trkpt lat="42.98187" lon="0.07139">
        <ele>2183.771973</ele>
        <time>2012-06-09T08:54:09Z</time>
      </trkpt>
      <trkpt lat="42.98191" lon="0.07133">
        <ele>2186.175293</ele>
        <time>2012-06-09T08:54:23Z</time>
      </trkpt>
      <trkpt lat="42.98195" lon="0.07121">
        <ele>2189.059326</ele>
        <time>2012-06-09T08:54:39Z</time>
      </trkpt>
      <trkpt lat="42.98197" lon="0.07117">
        <ele>2192.904541</ele>
        <time>2012-06-09T08:54:54Z</time>
      </trkpt>
      <trkpt lat="42.98198" lon="0.07115">
        <ele>2193.385254</ele>
        <time>2012-06-09T08:54:56Z</time>
      </trkpt>
      <trkpt lat="42.98199" lon="0.07109">
        <ele>2195.307861</ele>
        <time>2012-06-09T08:55:08Z</time>
      </trkpt>
      <trkpt lat="42.98197" lon="0.07102">
        <ele>2196.269287</ele>
        <time>2012-06-09T08:55:25Z</time>
      </trkpt>
      <trkpt lat="42.98197" lon="0.07102">
        <ele>2196.269287</ele>
        <time>2012-06-09T08:56:16Z</time>
      </trkpt>
      <trkpt lat="42.98197" lon="0.07102">
        <ele>2195.788574</ele>
        <time>2012-06-09T08:56:59Z</time>
      </trkpt>
      <trkpt lat="42.98198" lon="0.07103">
        <ele>2195.788574</ele>
        <time>2012-06-09T08:57:19Z</time>
      </trkpt>
      <trkpt lat="42.98198" lon="0.07103">
        <ele>2196.269287</ele>
        <time>2012-06-09T08:57:39Z</time>
      </trkpt>
      <trkpt lat="42.98198" lon="0.07102">
        <ele>2196.269287</ele>
        <time>2012-06-09T08:57:58Z</time>
      </trkpt>
      <trkpt lat="42.98197" lon="0.07096">
        <ele>2196.749756</ele>
        <time>2012-06-09T08:58:14Z</time>
      </trkpt>
      <trkpt lat="42.98197" lon="0.07091">
        <ele>2197.230469</ele>
        <time>2012-06-09T08:58:32Z</time>
      </trkpt>
      <trkpt lat="42.98198" lon="0.07089">
        <ele>2197.711182</ele>
        <time>2012-06-09T08:58:47Z</time>
      </trkpt>
      <trkpt lat="42.98199" lon="0.0709">
        <ele>2198.672363</ele>
        <time>2012-06-09T08:59:01Z</time>
      </trkpt>
      <trkpt lat="42.982" lon="0.07092">
        <ele>2200.594971</ele>
        <time>2012-06-09T08:59:24Z</time>
      </trkpt>
      <trkpt lat="42.98202" lon="0.07088">
        <ele>2202.517578</ele>
        <time>2012-06-09T08:59:40Z</time>
      </trkpt>
      <trkpt lat="42.98203" lon="0.07087">
        <ele>2203.479004</ele>
        <time>2012-06-09T09:00:35Z</time>
      </trkpt>
      <trkpt lat="42.98205" lon="0.07086">
        <ele>2205.882324</ele>
        <time>2012-06-09T09:00:59Z</time>
      </trkpt>
      <trkpt lat="42.98208" lon="0.07086">
        <ele>2208.285645</ele>
        <time>2012-06-09T09:01:15Z</time>
      </trkpt>
      <trkpt lat="42.98209" lon="0.07087">
        <ele>2209.727539</ele>
        <time>2012-06-09T09:01:36Z</time>
      </trkpt>
      <trkpt lat="42.98211" lon="0.07086">
        <ele>2212.130859</ele>
        <time>2012-06-09T09:01:56Z</time>
      </trkpt>
      <trkpt lat="42.98212" lon="0.07081">
        <ele>2213.092285</ele>
        <time>2012-06-09T09:02:15Z</time>
      </trkpt>
      <trkpt lat="42.98213" lon="0.07079">
        <ele>2213.572754</ele>
        <time>2012-06-09T09:02:32Z</time>
      </trkpt>
      <trkpt lat="42.98215" lon="0.07074">
        <ele>2214.53418</ele>
        <time>2012-06-09T09:02:54Z</time>
      </trkpt>
      <trkpt lat="42.98215" lon="0.07072">
        <ele>2215.014893</ele>
        <time>2012-06-09T09:03:23Z</time>
      </trkpt>
      <trkpt lat="42.98217" lon="0.07069">
        <ele>2216.9375</ele>
        <time>2012-06-09T09:03:40Z</time>
      </trkpt>
      <trkpt lat="42.98219" lon="0.07069">
        <ele>2219.821289</ele>
        <time>2012-06-09T09:04:02Z</time>
      </trkpt>
      <trkpt lat="42.98218" lon="0.07073">
        <ele>2220.782959</ele>
        <time>2012-06-09T09:05:49Z</time>
      </trkpt>
      <trkpt lat="42.98219" lon="0.07073">
        <ele>2221.263428</ele>
        <time>2012-06-09T09:06:10Z</time>
      </trkpt>
      <trkpt lat="42.9822" lon="0.07073">
        <ele>2222.705566</ele>
        <time>2012-06-09T09:06:38Z</time>
      </trkpt>
      <trkpt lat="42.98221" lon="0.07073">
        <ele>2223.186279</ele>
        <time>2012-06-09T09:07:01Z</time>
      </trkpt>
      <trkpt lat="42.98221" lon="0.07072">
        <ele>2223.666748</ele>
        <time>2012-06-09T09:07:24Z</time>
      </trkpt>
      <trkpt lat="42.98222" lon="0.07071">
        <ele>2226.070068</ele>
        <time>2012-06-09T09:07:52Z</time>
      </trkpt>
      <trkpt lat="42.98223" lon="0.0707">
        <ele>2227.511963</ele>
        <time>2012-06-09T09:08:15Z</time>
      </trkpt>
      <trkpt lat="42.98223" lon="0.07068">
        <ele>2228.473389</ele>
        <time>2012-06-09T09:08:50Z</time>
      </trkpt>
      <trkpt lat="42.98223" lon="0.07069">
        <ele>2228.473389</ele>
        <time>2012-06-09T09:09:20Z</time>
      </trkpt>
      <trkpt lat="42.98224" lon="0.07066">
        <ele>2229.915283</ele>
        <time>2012-06-09T09:09:37Z</time>
      </trkpt>
      <trkpt lat="42.98224" lon="0.07065">
        <ele>2230.395996</ele>
        <time>2012-06-09T09:10:01Z</time>
      </trkpt>
      <trkpt lat="42.98225" lon="0.07063">
        <ele>2231.357178</ele>
        <time>2012-06-09T09:10:17Z</time>
      </trkpt>
      <trkpt lat="42.98225" lon="0.07062">
        <ele>2232.318604</ele>
        <time>2012-06-09T09:11:04Z</time>
      </trkpt>
      <trkpt lat="42.98226" lon="0.07062">
        <ele>2232.799072</ele>
        <time>2012-06-09T09:11:48Z</time>
      </trkpt>
      <trkpt lat="42.98227" lon="0.07058">
        <ele>2234.721924</ele>
        <time>2012-06-09T09:12:20Z</time>
      </trkpt>
      <trkpt lat="42.98228" lon="0.07058">
        <ele>2235.683105</ele>
        <time>2012-06-09T09:12:42Z</time>
      </trkpt>
      <trkpt lat="42.98229" lon="0.07053">
        <ele>2240.009277</ele>
        <time>2012-06-09T09:13:01Z</time>
      </trkpt>
      <trkpt lat="42.9823" lon="0.07052">
        <ele>2241.451172</ele>
        <time>2012-06-09T09:13:24Z</time>
      </trkpt>
      <trkpt lat="42.9823" lon="0.07052">
        <ele>2241.931885</ele>
        <time>2012-06-09T09:13:59Z</time>
      </trkpt>
      <trkpt lat="42.9823" lon="0.07048">
        <ele>2243.373779</ele>
        <time>2012-06-09T09:14:23Z</time>
      </trkpt>
      <trkpt lat="42.98232" lon="0.07044">
        <ele>2245.296387</ele>
        <time>2012-06-09T09:14:39Z</time>
      </trkpt>
      <trkpt lat="42.98234" lon="0.07043">
        <ele>2245.7771</ele>
        <time>2012-06-09T09:15:10Z</time>
      </trkpt>
      <trkpt lat="42.98234" lon="0.07043">
        <ele>2245.7771</ele>
        <time>2012-06-09T09:15:11Z</time>
      </trkpt>
      <trkpt lat="42.98236" lon="0.07038">
        <ele>2248.180176</ele>
        <time>2012-06-09T09:15:32Z</time>
      </trkpt>
      <trkpt lat="42.98237" lon="0.07032">
        <ele>2251.064209</ele>
        <time>2012-06-09T09:15:46Z</time>
      </trkpt>
      <trkpt lat="42.98237" lon="0.0703">
        <ele>2252.025635</ele>
        <time>2012-06-09T09:16:03Z</time>
      </trkpt>
      <trkpt lat="42.98238" lon="0.07027">
        <ele>2254.428955</ele>
        <time>2012-06-09T09:16:25Z</time>
      </trkpt>
      <trkpt lat="42.98238" lon="0.07025">
        <ele>2255.87085</ele>
        <time>2012-06-09T09:16:53Z</time>
      </trkpt>
      <trkpt lat="42.98238" lon="0.07024">
        <ele>2256.351562</ele>
        <time>2012-06-09T09:17:20Z</time>
      </trkpt>
      <trkpt lat="42.98239" lon="0.07024">
        <ele>2256.832275</ele>
        <time>2012-06-09T09:17:56Z</time>
      </trkpt>
      <trkpt lat="42.98239" lon="0.07019">
        <ele>2257.793701</ele>
        <time>2012-06-09T09:18:21Z</time>
      </trkpt>
      <trkpt lat="42.98239" lon="0.07017">
        <ele>2258.27417</ele>
        <time>2012-06-09T09:18:46Z</time>
      </trkpt>
      <trkpt lat="42.98239" lon="0.07014">
        <ele>2257.793701</ele>
        <time>2012-06-09T09:19:03Z</time>
      </trkpt>
      <trkpt lat="42.98237" lon="0.07008">
        <ele>2258.754883</ele>
        <time>2012-06-09T09:19:19Z</time>
      </trkpt>
      <trkpt lat="42.98236" lon="0.07004">
        <ele>2257.793701</ele>
        <time>2012-06-09T09:19:34Z</time>
      </trkpt>
      <trkpt lat="42.98237" lon="0.07002">
        <ele>2257.793701</ele>
        <time>2012-06-09T09:19:53Z</time>
      </trkpt>
      <trkpt lat="42.98241" lon="0.06999">
        <ele>2260.196777</ele>
        <time>2012-06-09T09:20:09Z</time>
      </trkpt>
      <trkpt lat="42.98246" lon="0.06995">
        <ele>2262.119385</ele>
        <time>2012-06-09T09:20:25Z</time>
      </trkpt>
      <trkpt lat="42.9825" lon="0.06986">
        <ele>2263.561279</ele>
        <time>2012-06-09T09:20:45Z</time>
      </trkpt>
      <trkpt lat="42.98254" lon="0.0698">
        <ele>2265.484131</ele>
        <time>2012-06-09T09:21:02Z</time>
      </trkpt>
      <trkpt lat="42.98256" lon="0.06975">
        <ele>2269.810059</ele>
        <time>2012-06-09T09:21:17Z</time>
      </trkpt>
      <trkpt lat="42.98258" lon="0.06975">
        <ele>2270.771484</ele>
        <time>2012-06-09T09:21:42Z</time>
      </trkpt>
      <trkpt lat="42.98259" lon="0.06973">
        <ele>2272.213379</ele>
        <time>2012-06-09T09:22:36Z</time>
      </trkpt>
      <trkpt lat="42.9826" lon="0.06971">
        <ele>2273.655273</ele>
        <time>2012-06-09T09:22:59Z</time>
      </trkpt>
      <trkpt lat="42.98262" lon="0.06971">
        <ele>2275.097168</ele>
        <time>2012-06-09T09:23:16Z</time>
      </trkpt>
      <trkpt lat="42.98264" lon="0.06969">
        <ele>2276.539307</ele>
        <time>2012-06-09T09:23:37Z</time>
      </trkpt>
      <trkpt lat="42.98266" lon="0.06964">
        <ele>2277.981201</ele>
        <time>2012-06-09T09:23:53Z</time>
      </trkpt>
      <trkpt lat="42.98268" lon="0.06957">
        <ele>2279.903809</ele>
        <time>2012-06-09T09:24:14Z</time>
      </trkpt>
      <trkpt lat="42.9827" lon="0.06956">
        <ele>2280.865234</ele>
        <time>2012-06-09T09:24:30Z</time>
      </trkpt>
      <trkpt lat="42.98271" lon="0.06955">
        <ele>2280.865234</ele>
        <time>2012-06-09T09:24:55Z</time>
      </trkpt>
      <trkpt lat="42.98275" lon="0.06945">
        <ele>2284.710693</ele>
        <time>2012-06-09T09:25:13Z</time>
      </trkpt>
      <trkpt lat="42.98279" lon="0.06942">
        <ele>2288.075195</ele>
        <time>2012-06-09T09:25:29Z</time>
      </trkpt>
      <trkpt lat="42.98282" lon="0.06939">
        <ele>2290.478271</ele>
        <time>2012-06-09T09:25:46Z</time>
      </trkpt>
      <trkpt lat="42.98285" lon="0.06937">
        <ele>2291.439697</ele>
        <time>2012-06-09T09:26:06Z</time>
      </trkpt>
      <trkpt lat="42.98287" lon="0.06936">
        <ele>2293.362305</ele>
        <time>2012-06-09T09:26:14Z</time>
      </trkpt>
      <trkpt lat="42.98291" lon="0.06926">
        <ele>2293.362305</ele>
        <time>2012-06-09T09:26:30Z</time>
      </trkpt>
      <trkpt lat="42.98294" lon="0.06922">
        <ele>2294.323486</ele>
        <time>2012-06-09T09:26:45Z</time>
      </trkpt>
      <trkpt lat="42.98295" lon="0.06921">
        <ele>2295.765625</ele>
        <time>2012-06-09T09:27:08Z</time>
      </trkpt>
      <trkpt lat="42.98298" lon="0.06919">
        <ele>2300.572266</ele>
        <time>2012-06-09T09:27:24Z</time>
      </trkpt>
      <trkpt lat="42.983" lon="0.06919">
        <ele>2301.533691</ele>
        <time>2012-06-09T09:27:46Z</time>
      </trkpt>
      <trkpt lat="42.98304" lon="0.06913">
        <ele>2303.456299</ele>
        <time>2012-06-09T09:28:05Z</time>
      </trkpt>
      <trkpt lat="42.98309" lon="0.06907">
        <ele>2304.898193</ele>
        <time>2012-06-09T09:28:20Z</time>
      </trkpt>
      <trkpt lat="42.9831" lon="0.06904">
        <ele>2305.378906</ele>
        <time>2012-06-09T09:28:39Z</time>
      </trkpt>
      <trkpt lat="42.98313" lon="0.06903">
        <ele>2306.820801</ele>
        <time>2012-06-09T09:28:55Z</time>
      </trkpt>
      <trkpt lat="42.98313" lon="0.069">
        <ele>2308.743408</ele>
        <time>2012-06-09T09:29:17Z</time>
      </trkpt>
      <trkpt lat="42.98314" lon="0.06896">
        <ele>2311.627441</ele>
        <time>2012-06-09T09:29:40Z</time>
      </trkpt>
      <trkpt lat="42.98314" lon="0.06896">
        <ele>2311.627441</ele>
        <time>2012-06-09T09:29:46Z</time>
      </trkpt>
      <trkpt lat="42.98315" lon="0.06893">
        <ele>2312.588623</ele>
        <time>2012-06-09T09:30:09Z</time>
      </trkpt>
      <trkpt lat="42.98315" lon="0.0689">
        <ele>2317.395264</ele>
        <time>2012-06-09T09:30:25Z</time>
      </trkpt>
      <trkpt lat="42.98318" lon="0.06885">
        <ele>2319.798584</ele>
        <time>2012-06-09T09:30:41Z</time>
      </trkpt>
      <trkpt lat="42.9832" lon="0.06883">
        <ele>2321.240479</ele>
        <time>2012-06-09T09:31:00Z</time>
      </trkpt>
      <trkpt lat="42.98323" lon="0.06882">
        <ele>2322.682617</ele>
        <time>2012-06-09T09:31:19Z</time>
      </trkpt>
      <trkpt lat="42.98327" lon="0.06879">
        <ele>2325.566406</ele>
        <time>2012-06-09T09:31:35Z</time>
      </trkpt>
      <trkpt lat="42.98329" lon="0.06877">
        <ele>2327.489014</ele>
        <time>2012-06-09T09:31:47Z</time>
      </trkpt>
      <trkpt lat="42.98332" lon="0.06875">
        <ele>2329.892334</ele>
        <time>2012-06-09T09:31:59Z</time>
      </trkpt>
      <trkpt lat="42.98336" lon="0.06877">
        <ele>2332.295898</ele>
        <time>2012-06-09T09:32:06Z</time>
      </trkpt>
      <trkpt lat="42.98339" lon="0.06875">
        <ele>2336.141113</ele>
        <time>2012-06-09T09:32:21Z</time>
      </trkpt>
      <trkpt lat="42.9834" lon="0.06875">
        <ele>2336.141113</ele>
        <time>2012-06-09T09:32:38Z</time>
      </trkpt>
      <trkpt lat="42.98346" lon="0.06873">
        <ele>2334.699219</ele>
        <time>2012-06-09T09:32:55Z</time>
      </trkpt>
      <trkpt lat="42.98354" lon="0.06874">
        <ele>2333.737793</ele>
        <time>2012-06-09T09:33:12Z</time>
      </trkpt>
      <trkpt lat="42.98366" lon="0.06878">
        <ele>2334.699219</ele>
        <time>2012-06-09T09:33:31Z</time>
      </trkpt>
      <trkpt lat="42.98369" lon="0.06881">
        <ele>2336.621582</ele>
        <time>2012-06-09T09:33:47Z</time>
      </trkpt>
      <trkpt lat="42.9837" lon="0.06885">
        <ele>2338.544434</ele>
        <time>2012-06-09T09:34:05Z</time>
      </trkpt>
      <trkpt lat="42.9837" lon="0.06888">
        <ele>2338.063721</ele>
        <time>2012-06-09T09:34:31Z</time>
      </trkpt>
      <trkpt lat="42.9837" lon="0.06892">
        <ele>2337.102295</ele>
        <time>2012-06-09T09:35:01Z</time>
      </trkpt>
      <trkpt lat="42.9837" lon="0.06892">
        <ele>2336.621582</ele>
        <time>2012-06-09T09:35:32Z</time>
      </trkpt>
      <trkpt lat="42.98371" lon="0.06891">
        <ele>2336.621582</ele>
        <time>2012-06-09T09:35:57Z</time>
      </trkpt>
      <trkpt lat="42.98371" lon="0.06886">
        <ele>2338.063721</ele>
        <time>2012-06-09T09:36:18Z</time>
      </trkpt>
      <trkpt lat="42.9837" lon="0.06886">
        <ele>2338.063721</ele>
        <time>2012-06-09T09:36:43Z</time>
      </trkpt>
      <trkpt lat="42.9837" lon="0.06885">
        <ele>2336.621582</ele>
        <time>2012-06-09T09:37:03Z</time>
      </trkpt>
      <trkpt lat="42.98369" lon="0.06886">
        <ele>2336.621582</ele>
        <time>2012-06-09T09:37:30Z</time>
      </trkpt>
      <trkpt lat="42.98368" lon="0.06885">
        <ele>2336.621582</ele>
        <time>2012-06-09T09:38:03Z</time>
      </trkpt>
      <trkpt lat="42.98368" lon="0.06886">
        <ele>2336.621582</ele>
        <time>2012-06-09T09:38:17Z</time>
      </trkpt>
      <trkpt lat="42.98368" lon="0.06886">
        <ele>2337.102295</ele>
        <time>2012-06-09T09:39:07Z</time>
      </trkpt>
      <trkpt lat="42.98367" lon="0.06886">
        <ele>2336.621582</ele>
        <time>2012-06-09T09:39:38Z</time>
      </trkpt>
      <trkpt lat="42.98367" lon="0.06886">
        <ele>2336.621582</ele>
        <time>2012-06-09T09:40:21Z</time>
      </trkpt>
      <trkpt lat="42.98367" lon="0.06886">
        <ele>2336.621582</ele>
        <time>2012-06-09T09:40:54Z</time>
      </trkpt>
      <trkpt lat="42.98367" lon="0.06886">
        <ele>2336.621582</ele>
        <time>2012-06-09T09:41:33Z</time>
      </trkpt>
      <trkpt lat="42.98367" lon="0.06886">
        <ele>2336.621582</ele>
        <time>2012-06-09T09:42:38Z</time>
      </trkpt>
      <trkpt lat="42.98367" lon="0.06886">
        <ele>2336.621582</ele>
        <time>2012-06-09T09:43:33Z</time>
      </trkpt>
      <trkpt lat="42.98367" lon="0.06887">
        <ele>2336.141113</ele>
        <time>2012-06-09T09:44:54Z</time>
      </trkpt>
      <trkpt lat="42.98367" lon="0.06887">
        <ele>2336.141113</ele>
        <time>2012-06-09T09:45:52Z</time>
      </trkpt>
      <trkpt lat="42.98367" lon="0.06887">
        <ele>2336.141113</ele>
        <time>2012-06-09T09:46:46Z</time>
      </trkpt>
      <trkpt lat="42.98367" lon="0.06887">
        <ele>2336.141113</ele>
        <time>2012-06-09T09:47:36Z</time>
      </trkpt>
      <trkpt lat="42.98367" lon="0.06887">
        <ele>2336.621582</ele>
        <time>2012-06-09T09:48:35Z</time>
      </trkpt>
      <trkpt lat="42.98367" lon="0.06886">
        <ele>2336.621582</ele>
        <time>2012-06-09T09:49:31Z</time>
      </trkpt>
      <trkpt lat="42.98368" lon="0.06886">
        <ele>2337.102295</ele>
        <time>2012-06-09T09:50:26Z</time>
      </trkpt>
      <trkpt lat="42.98367" lon="0.06886">
        <ele>2337.583008</ele>
        <time>2012-06-09T09:51:51Z</time>
      </trkpt>
      <trkpt lat="42.98367" lon="0.06886">
        <ele>2337.583008</ele>
        <time>2012-06-09T09:52:57Z</time>
      </trkpt>
      <trkpt lat="42.98367" lon="0.06887">
        <ele>2338.063721</ele>
        <time>2012-06-09T09:54:22Z</time>
      </trkpt>
      <trkpt lat="42.98367" lon="0.06887">
        <ele>2338.063721</ele>
        <time>2012-06-09T09:55:20Z</time>
      </trkpt>
      <trkpt lat="42.98367" lon="0.06887">
        <ele>2338.063721</ele>
        <time>2012-06-09T09:57:40Z</time>
      </trkpt>
      <trkpt lat="42.98368" lon="0.06887">
        <ele>2338.063721</ele>
        <time>2012-06-09T09:59:15Z</time>
      </trkpt>
      <trkpt lat="42.98365" lon="0.06891">
        <ele>2334.699219</ele>
        <time>2012-06-09T10:11:34Z</time>
      </trkpt>
      <trkpt lat="42.98365" lon="0.06891">
        <ele>2334.218506</ele>
        <time>2012-06-09T10:11:58Z</time>
      </trkpt>
      <trkpt lat="42.98364" lon="0.06891">
        <ele>2334.218506</ele>
        <time>2012-06-09T10:12:04Z</time>
      </trkpt>
      <trkpt lat="42.98363" lon="0.06892">
        <ele>2334.218506</ele>
        <time>2012-06-09T10:12:26Z</time>
      </trkpt>
      <trkpt lat="42.98365" lon="0.06893">
        <ele>2333.25708</ele>
        <time>2012-06-09T10:13:06Z</time>
      </trkpt>
      <trkpt lat="42.98365" lon="0.06892">
        <ele>2332.776367</ele>
        <time>2012-06-09T10:13:45Z</time>
      </trkpt>
      <trkpt lat="42.98364" lon="0.06889">
        <ele>2330.373047</ele>
        <time>2012-06-09T10:14:01Z</time>
      </trkpt>
      <trkpt lat="42.98364" lon="0.06882">
        <ele>2329.411621</ele>
        <time>2012-06-09T10:14:10Z</time>
      </trkpt>
      <trkpt lat="42.9836" lon="0.06879">
        <ele>2327.008545</ele>
        <time>2012-06-09T10:14:14Z</time>
      </trkpt>
      <trkpt lat="42.98358" lon="0.06877">
        <ele>2325.566406</ele>
        <time>2012-06-09T10:14:22Z</time>
      </trkpt>
      <trkpt lat="42.98355" lon="0.06877">
        <ele>2325.566406</ele>
        <time>2012-06-09T10:14:25Z</time>
      </trkpt>
      <trkpt lat="42.98346" lon="0.06868">
        <ele>2322.682617</ele>
        <time>2012-06-09T10:14:40Z</time>
      </trkpt>
      <trkpt lat="42.98338" lon="0.06869">
        <ele>2322.682617</ele>
        <time>2012-06-09T10:14:54Z</time>
      </trkpt>
      <trkpt lat="42.9833" lon="0.06867">
        <ele>2325.085693</ele>
        <time>2012-06-09T10:15:10Z</time>
      </trkpt>
      <trkpt lat="42.98323" lon="0.06862">
        <ele>2327.008545</ele>
        <time>2012-06-09T10:15:41Z</time>
      </trkpt>
      <trkpt lat="42.98318" lon="0.06863">
        <ele>2327.489014</ele>
        <time>2012-06-09T10:16:05Z</time>
      </trkpt>
      <trkpt lat="42.98308" lon="0.06854">
        <ele>2328.450439</ele>
        <time>2012-06-09T10:16:32Z</time>
      </trkpt>
      <trkpt lat="42.98303" lon="0.06849">
        <ele>2328.930908</ele>
        <time>2012-06-09T10:16:44Z</time>
      </trkpt>
      <trkpt lat="42.98294" lon="0.06837">
        <ele>2330.85376</ele>
        <time>2012-06-09T10:17:01Z</time>
      </trkpt>
      <trkpt lat="42.98288" lon="0.0683">
        <ele>2333.25708</ele>
        <time>2012-06-09T10:17:35Z</time>
      </trkpt>
      <trkpt lat="42.98278" lon="0.06816">
        <ele>2332.776367</ele>
        <time>2012-06-09T10:20:04Z</time>
      </trkpt>
      <trkpt lat="42.98273" lon="0.06806">
        <ele>2332.776367</ele>
        <time>2012-06-09T10:20:22Z</time>
      </trkpt>
      <trkpt lat="42.98269" lon="0.06804">
        <ele>2332.295898</ele>
        <time>2012-06-09T10:21:55Z</time>
      </trkpt>
      <trkpt lat="42.98262" lon="0.06796">
        <ele>2332.776367</ele>
        <time>2012-06-09T10:22:09Z</time>
      </trkpt>
      <trkpt lat="42.98254" lon="0.06787">
        <ele>2331.334229</ele>
        <time>2012-06-09T10:23:06Z</time>
      </trkpt>
      <trkpt lat="42.98247" lon="0.06779">
        <ele>2333.25708</ele>
        <time>2012-06-09T10:23:35Z</time>
      </trkpt>
      <trkpt lat="42.98235" lon="0.06772">
        <ele>2331.334229</ele>
        <time>2012-06-09T10:25:06Z</time>
      </trkpt>
      <trkpt lat="42.98233" lon="0.06773">
        <ele>2330.85376</ele>
        <time>2012-06-09T10:25:56Z</time>
      </trkpt>
      <trkpt lat="42.98222" lon="0.0677">
        <ele>2324.605225</ele>
        <time>2012-06-09T10:28:09Z</time>
      </trkpt>
      <trkpt lat="42.98211" lon="0.06771">
        <ele>2323.16333</ele>
        <time>2012-06-09T10:28:33Z</time>
      </trkpt>
      <trkpt lat="42.98191" lon="0.06764">
        <ele>2315.472656</ele>
        <time>2012-06-09T10:30:48Z</time>
      </trkpt>
      <trkpt lat="42.98186" lon="0.06759">
        <ele>2312.588623</ele>
        <time>2012-06-09T10:30:59Z</time>
      </trkpt>
      <trkpt lat="42.98183" lon="0.06756">
        <ele>2311.146729</ele>
        <time>2012-06-09T10:31:02Z</time>
      </trkpt>
      <trkpt lat="42.98181" lon="0.06753">
        <ele>2310.185303</ele>
        <time>2012-06-09T10:31:05Z</time>
      </trkpt>
      <trkpt lat="42.98175" lon="0.06735">
        <ele>2305.859375</ele>
        <time>2012-06-09T10:31:23Z</time>
      </trkpt>
      <trkpt lat="42.98168" lon="0.06726">
        <ele>2302.975586</ele>
        <time>2012-06-09T10:31:44Z</time>
      </trkpt>
      <trkpt lat="42.98158" lon="0.06713">
        <ele>2299.130127</ele>
        <time>2012-06-09T10:31:59Z</time>
      </trkpt>
      <trkpt lat="42.98153" lon="0.06706">
        <ele>2294.804199</ele>
        <time>2012-06-09T10:32:15Z</time>
      </trkpt>
      <trkpt lat="42.98143" lon="0.067">
        <ele>2290.478271</ele>
        <time>2012-06-09T10:33:10Z</time>
      </trkpt>
      <trkpt lat="42.9813" lon="0.06689">
        <ele>2284.22998</ele>
        <time>2012-06-09T10:33:59Z</time>
      </trkpt>
      <trkpt lat="42.9813" lon="0.06681">
        <ele>2280.384521</ele>
        <time>2012-06-09T10:34:23Z</time>
      </trkpt>
      <trkpt lat="42.9812" lon="0.06674">
        <ele>2275.577881</ele>
        <time>2012-06-09T10:34:53Z</time>
      </trkpt>
      <trkpt lat="42.98105" lon="0.06657">
        <ele>2267.406494</ele>
        <time>2012-06-09T10:35:44Z</time>
      </trkpt>
      <trkpt lat="42.98099" lon="0.06646">
        <ele>2263.561279</ele>
        <time>2012-06-09T10:35:59Z</time>
      </trkpt>
      <trkpt lat="42.98096" lon="0.06644">
        <ele>2263.080811</ele>
        <time>2012-06-09T10:36:43Z</time>
      </trkpt>
      <trkpt lat="42.98092" lon="0.06642">
        <ele>2262.600098</ele>
        <time>2012-06-09T10:37:04Z</time>
      </trkpt>
      <trkpt lat="42.98079" lon="0.06637">
        <ele>2257.312988</ele>
        <time>2012-06-09T10:39:34Z</time>
      </trkpt>
      <trkpt lat="42.98067" lon="0.06637">
        <ele>2251.064209</ele>
        <time>2012-06-09T10:40:48Z</time>
      </trkpt>
      <trkpt lat="42.98067" lon="0.06637">
        <ele>2251.064209</ele>
        <time>2012-06-09T10:40:50Z</time>
      </trkpt>
      <trkpt lat="42.98065" lon="0.06637">
        <ele>2247.218994</ele>
        <time>2012-06-09T10:41:16Z</time>
      </trkpt>
      <trkpt lat="42.98063" lon="0.06635">
        <ele>2241.451172</ele>
        <time>2012-06-09T10:41:32Z</time>
      </trkpt>
      <trkpt lat="42.98058" lon="0.06627">
        <ele>2236.644531</ele>
        <time>2012-06-09T10:41:38Z</time>
      </trkpt>
      <trkpt lat="42.98055" lon="0.06625">
        <ele>2233.279785</ele>
        <time>2012-06-09T10:41:52Z</time>
      </trkpt>
      <trkpt lat="42.98046" lon="0.06621">
        <ele>2229.915283</ele>
        <time>2012-06-09T10:42:08Z</time>
      </trkpt>
      <trkpt lat="42.98034" lon="0.06609">
        <ele>2226.070068</ele>
        <time>2012-06-09T10:42:25Z</time>
      </trkpt>
      <trkpt lat="42.98027" lon="0.06604">
        <ele>2220.302246</ele>
        <time>2012-06-09T10:42:39Z</time>
      </trkpt>
      <trkpt lat="42.98025" lon="0.06603">
        <ele>2219.821289</ele>
        <time>2012-06-09T10:42:46Z</time>
      </trkpt>
      <trkpt lat="42.9802" lon="0.066">
        <ele>2216.9375</ele>
        <time>2012-06-09T10:42:59Z</time>
      </trkpt>
      <trkpt lat="42.9801" lon="0.06592">
        <ele>2212.611572</ele>
        <time>2012-06-09T10:43:14Z</time>
      </trkpt>
      <trkpt lat="42.98005" lon="0.06589">
        <ele>2209.727539</ele>
        <time>2012-06-09T10:43:30Z</time>
      </trkpt>
      <trkpt lat="42.98002" lon="0.06591">
        <ele>2209.727539</ele>
        <time>2012-06-09T10:43:39Z</time>
      </trkpt>
      <trkpt lat="42.97993" lon="0.0659">
        <ele>2206.363037</ele>
        <time>2012-06-09T10:43:54Z</time>
      </trkpt>
      <trkpt lat="42.97989" lon="0.06589">
        <ele>2203.959717</ele>
        <time>2012-06-09T10:44:09Z</time>
      </trkpt>
      <trkpt lat="42.97985" lon="0.06585">
        <ele>2202.998291</ele>
        <time>2012-06-09T10:44:27Z</time>
      </trkpt>
      <trkpt lat="42.97982" lon="0.06583">
        <ele>2202.036865</ele>
        <time>2012-06-09T10:44:30Z</time>
      </trkpt>
      <trkpt lat="42.97968" lon="0.06568">
        <ele>2199.153076</ele>
        <time>2012-06-09T10:44:46Z</time>
      </trkpt>
      <trkpt lat="42.9796" lon="0.0656">
        <ele>2195.788574</ele>
        <time>2012-06-09T10:44:59Z</time>
      </trkpt>
      <trkpt lat="42.97951" lon="0.06551">
        <ele>2194.827148</ele>
        <time>2012-06-09T10:45:13Z</time>
      </trkpt>
      <trkpt lat="42.97945" lon="0.06545">
        <ele>2191.943359</ele>
        <time>2012-06-09T10:45:27Z</time>
      </trkpt>
      <trkpt lat="42.97939" lon="0.06537">
        <ele>2191.462646</ele>
        <time>2012-06-09T10:45:33Z</time>
      </trkpt>
      <trkpt lat="42.97936" lon="0.06532">
        <ele>2190.501221</ele>
        <time>2012-06-09T10:45:39Z</time>
      </trkpt>
      <trkpt lat="42.97935" lon="0.06531">
        <ele>2190.981934</ele>
        <time>2012-06-09T10:45:41Z</time>
      </trkpt>
      <trkpt lat="42.97929" lon="0.06526">
        <ele>2187.617188</ele>
        <time>2012-06-09T10:45:57Z</time>
      </trkpt>
      <trkpt lat="42.97928" lon="0.06521">
        <ele>2187.136475</ele>
        <time>2012-06-09T10:46:04Z</time>
      </trkpt>
      <trkpt lat="42.97922" lon="0.06514">
        <ele>2181.368652</ele>
        <time>2012-06-09T10:46:18Z</time>
      </trkpt>
      <trkpt lat="42.97909" lon="0.06512">
        <ele>2176.081543</ele>
        <time>2012-06-09T10:46:34Z</time>
      </trkpt>
      <trkpt lat="42.9791" lon="0.06522">
        <ele>2174.158936</ele>
        <time>2012-06-09T10:46:42Z</time>
      </trkpt>
      <trkpt lat="42.97901" lon="0.06529">
        <ele>2169.832764</ele>
        <time>2012-06-09T10:47:01Z</time>
      </trkpt>
      <trkpt lat="42.97898" lon="0.06536">
        <ele>2166.468262</ele>
        <time>2012-06-09T10:47:17Z</time>
      </trkpt>
      <trkpt lat="42.97899" lon="0.06537">
        <ele>2165.987549</ele>
        <time>2012-06-09T10:47:19Z</time>
      </trkpt>
      <trkpt lat="42.97898" lon="0.06545">
        <ele>2162.142334</ele>
        <time>2012-06-09T10:47:31Z</time>
      </trkpt>
      <trkpt lat="42.97901" lon="0.06556">
        <ele>2155.413086</ele>
        <time>2012-06-09T10:47:47Z</time>
      </trkpt>
      <trkpt lat="42.97901" lon="0.06564">
        <ele>2152.529053</ele>
        <time>2012-06-09T10:48:02Z</time>
      </trkpt>
      <trkpt lat="42.979" lon="0.06565">
        <ele>2153.971191</ele>
        <time>2012-06-09T10:48:21Z</time>
      </trkpt>
      <trkpt lat="42.97899" lon="0.06565">
        <ele>2154.45166</ele>
        <time>2012-06-09T10:49:27Z</time>
      </trkpt>
      <trkpt lat="42.97895" lon="0.06566">
        <ele>2152.529053</ele>
        <time>2012-06-09T10:49:42Z</time>
      </trkpt>
      <trkpt lat="42.97895" lon="0.06571">
        <ele>2149.164551</ele>
        <time>2012-06-09T10:49:47Z</time>
      </trkpt>
      <trkpt lat="42.97899" lon="0.06585">
        <ele>2142.435547</ele>
        <time>2012-06-09T10:50:03Z</time>
      </trkpt>
      <trkpt lat="42.97897" lon="0.06595">
        <ele>2139.55127</ele>
        <time>2012-06-09T10:50:16Z</time>
      </trkpt>
      <trkpt lat="42.97895" lon="0.06607">
        <ele>2134.26416</ele>
        <time>2012-06-09T10:50:27Z</time>
      </trkpt>
      <trkpt lat="42.97894" lon="0.06615">
        <ele>2130.418945</ele>
        <time>2012-06-09T10:50:33Z</time>
      </trkpt>
      <trkpt lat="42.97892" lon="0.06619">
        <ele>2128.976807</ele>
        <time>2012-06-09T10:50:38Z</time>
      </trkpt>
      <trkpt lat="42.97892" lon="0.06623">
        <ele>2129.45752</ele>
        <time>2012-06-09T10:50:41Z</time>
      </trkpt>
      <trkpt lat="42.97894" lon="0.06626">
        <ele>2128.976807</ele>
        <time>2012-06-09T10:50:44Z</time>
      </trkpt>
      <trkpt lat="42.97899" lon="0.06641">
        <ele>2125.131592</ele>
        <time>2012-06-09T10:50:55Z</time>
      </trkpt>
      <trkpt lat="42.97899" lon="0.0665">
        <ele>2120.805664</ele>
        <time>2012-06-09T10:51:02Z</time>
      </trkpt>
      <trkpt lat="42.9789" lon="0.06655">
        <ele>2119.844238</ele>
        <time>2012-06-09T10:51:16Z</time>
      </trkpt>
      <trkpt lat="42.97882" lon="0.06657">
        <ele>2118.402344</ele>
        <time>2012-06-09T10:51:31Z</time>
      </trkpt>
      <trkpt lat="42.97875" lon="0.06662">
        <ele>2110.711914</ele>
        <time>2012-06-09T10:51:47Z</time>
      </trkpt>
      <trkpt lat="42.97872" lon="0.06662">
        <ele>2109.27002</ele>
        <time>2012-06-09T10:51:50Z</time>
      </trkpt>
      <trkpt lat="42.97864" lon="0.06656">
        <ele>2107.827881</ele>
        <time>2012-06-09T10:52:02Z</time>
      </trkpt>
      <trkpt lat="42.97864" lon="0.06657">
        <ele>2107.347168</ele>
        <time>2012-06-09T10:52:04Z</time>
      </trkpt>
      <trkpt lat="42.97864" lon="0.06662">
        <ele>2106.866455</ele>
        <time>2012-06-09T10:52:08Z</time>
      </trkpt>
      <trkpt lat="42.97858" lon="0.06666">
        <ele>2106.866455</ele>
        <time>2012-06-09T10:52:14Z</time>
      </trkpt>
      <trkpt lat="42.97856" lon="0.06663">
        <ele>2106.385742</ele>
        <time>2012-06-09T10:52:16Z</time>
      </trkpt>
      <trkpt lat="42.97854" lon="0.0666">
        <ele>2108.308594</ele>
        <time>2012-06-09T10:52:23Z</time>
      </trkpt>
      <trkpt lat="42.97849" lon="0.0666">
        <ele>2108.308594</ele>
        <time>2012-06-09T10:52:37Z</time>
      </trkpt>
      <trkpt lat="42.97846" lon="0.06659">
        <ele>2106.385742</ele>
        <time>2012-06-09T10:52:53Z</time>
      </trkpt>
      <trkpt lat="42.97844" lon="0.06661">
        <ele>2104.943848</ele>
        <time>2012-06-09T10:53:06Z</time>
      </trkpt>
      <trkpt lat="42.97843" lon="0.06661">
        <ele>2103.982666</ele>
        <time>2012-06-09T10:53:10Z</time>
      </trkpt>
      <trkpt lat="42.97841" lon="0.06665">
        <ele>2102.059814</ele>
        <time>2012-06-09T10:53:24Z</time>
      </trkpt>
      <trkpt lat="42.97837" lon="0.06672">
        <ele>2097.734131</ele>
        <time>2012-06-09T10:53:39Z</time>
      </trkpt>
      <trkpt lat="42.97837" lon="0.06677">
        <ele>2094.850098</ele>
        <time>2012-06-09T10:53:53Z</time>
      </trkpt>
      <trkpt lat="42.97835" lon="0.06675">
        <ele>2094.369385</ele>
        <time>2012-06-09T10:53:58Z</time>
      </trkpt>
      <trkpt lat="42.97831" lon="0.06677">
        <ele>2092.92749</ele>
        <time>2012-06-09T10:54:12Z</time>
      </trkpt>
      <trkpt lat="42.97828" lon="0.06681">
        <ele>2091.004639</ele>
        <time>2012-06-09T10:54:27Z</time>
      </trkpt>
      <trkpt lat="42.97828" lon="0.06687">
        <ele>2088.601562</ele>
        <time>2012-06-09T10:54:42Z</time>
      </trkpt>
      <trkpt lat="42.97826" lon="0.06694">
        <ele>2086.198242</ele>
        <time>2012-06-09T10:54:53Z</time>
      </trkpt>
      <trkpt lat="42.97826" lon="0.06703">
        <ele>2082.833496</ele>
        <time>2012-06-09T10:55:02Z</time>
      </trkpt>
      <trkpt lat="42.97824" lon="0.06707">
        <ele>2081.391602</ele>
        <time>2012-06-09T10:55:05Z</time>
      </trkpt>
      <trkpt lat="42.9782" lon="0.06717">
        <ele>2077.065918</ele>
        <time>2012-06-09T10:55:11Z</time>
      </trkpt>
      <trkpt lat="42.97813" lon="0.06733">
        <ele>2069.375244</ele>
        <time>2012-06-09T10:55:28Z</time>
      </trkpt>
      <trkpt lat="42.97811" lon="0.06733">
        <ele>2069.375244</ele>
        <time>2012-06-09T10:55:42Z</time>
      </trkpt>
      <trkpt lat="42.97812" lon="0.06735">
        <ele>2067.452393</ele>
        <time>2012-06-09T10:56:08Z</time>
      </trkpt>
      <trkpt lat="42.97806" lon="0.06738">
        <ele>2067.933105</ele>
        <time>2012-06-09T10:56:22Z</time>
      </trkpt>
      <trkpt lat="42.97805" lon="0.06741">
        <ele>2064.087891</ele>
        <time>2012-06-09T10:56:36Z</time>
      </trkpt>
      <trkpt lat="42.97805" lon="0.06745">
        <ele>2062.165283</ele>
        <time>2012-06-09T10:56:42Z</time>
      </trkpt>
      <trkpt lat="42.97804" lon="0.0676">
        <ele>2056.87793</ele>
        <time>2012-06-09T10:56:56Z</time>
      </trkpt>
      <trkpt lat="42.97803" lon="0.06761">
        <ele>2055.436035</ele>
        <time>2012-06-09T10:57:00Z</time>
      </trkpt>
      <trkpt lat="42.97799" lon="0.06771">
        <ele>2051.110107</ele>
        <time>2012-06-09T10:57:14Z</time>
      </trkpt>
      <trkpt lat="42.97791" lon="0.06777">
        <ele>2044.861572</ele>
        <time>2012-06-09T10:57:30Z</time>
      </trkpt>
      <trkpt lat="42.97787" lon="0.06784">
        <ele>2041.496826</ele>
        <time>2012-06-09T10:57:44Z</time>
      </trkpt>
      <trkpt lat="42.97788" lon="0.06797">
        <ele>2038.613037</ele>
        <time>2012-06-09T10:58:04Z</time>
      </trkpt>
      <trkpt lat="42.97787" lon="0.06805">
        <ele>2038.613037</ele>
        <time>2012-06-09T10:58:16Z</time>
      </trkpt>
      <trkpt lat="42.97786" lon="0.06808">
        <ele>2039.093506</ele>
        <time>2012-06-09T10:58:18Z</time>
      </trkpt>
      <trkpt lat="42.97778" lon="0.06816">
        <ele>2039.574219</ele>
        <time>2012-06-09T10:58:30Z</time>
      </trkpt>
      <trkpt lat="42.97776" lon="0.06819">
        <ele>2039.574219</ele>
        <time>2012-06-09T10:58:33Z</time>
      </trkpt>
      <trkpt lat="42.97774" lon="0.0683">
        <ele>2040.054932</ele>
        <time>2012-06-09T10:58:43Z</time>
      </trkpt>
      <trkpt lat="42.97771" lon="0.06834">
        <ele>2039.574219</ele>
        <time>2012-06-09T10:59:03Z</time>
      </trkpt>
      <trkpt lat="42.97769" lon="0.06839">
        <ele>2037.651611</ele>
        <time>2012-06-09T10:59:17Z</time>
      </trkpt>
      <trkpt lat="42.97766" lon="0.06847">
        <ele>2032.364502</ele>
        <time>2012-06-09T10:59:37Z</time>
      </trkpt>
      <trkpt lat="42.97765" lon="0.06854">
        <ele>2026.596436</ele>
        <time>2012-06-09T10:59:52Z</time>
      </trkpt>
      <trkpt lat="42.97764" lon="0.06857">
        <ele>2025.154297</ele>
        <time>2012-06-09T10:59:56Z</time>
      </trkpt>
      <trkpt lat="42.97765" lon="0.0686">
        <ele>2022.751221</ele>
        <time>2012-06-09T11:00:17Z</time>
      </trkpt>
      <trkpt lat="42.97761" lon="0.06868">
        <ele>2017.463867</ele>
        <time>2012-06-09T11:00:32Z</time>
      </trkpt>
      <trkpt lat="42.97759" lon="0.06871">
        <ele>2016.021973</ele>
        <time>2012-06-09T11:00:35Z</time>
      </trkpt>
      <trkpt lat="42.97753" lon="0.0688">
        <ele>2016.021973</ele>
        <time>2012-06-09T11:00:48Z</time>
      </trkpt>
      <trkpt lat="42.97752" lon="0.06887">
        <ele>2013.618652</ele>
        <time>2012-06-09T11:01:04Z</time>
      </trkpt>
      <trkpt lat="42.97751" lon="0.06886">
        <ele>2011.696045</ele>
        <time>2012-06-09T11:01:16Z</time>
      </trkpt>
      <trkpt lat="42.97747" lon="0.06884">
        <ele>2009.292725</ele>
        <time>2012-06-09T11:01:27Z</time>
      </trkpt>
      <trkpt lat="42.97741" lon="0.06882">
        <ele>2005.44751</ele>
        <time>2012-06-09T11:01:40Z</time>
      </trkpt>
      <trkpt lat="42.97737" lon="0.06883">
        <ele>2004.005615</ele>
        <time>2012-06-09T11:01:49Z</time>
      </trkpt>
      <trkpt lat="42.97734" lon="0.06882">
        <ele>2003.044189</ele>
        <time>2012-06-09T11:01:55Z</time>
      </trkpt>
      <trkpt lat="42.97724" lon="0.06886">
        <ele>2001.602295</ele>
        <time>2012-06-09T11:02:05Z</time>
      </trkpt>
      <trkpt lat="42.97713" lon="0.06884">
        <ele>1999.679688</ele>
        <time>2012-06-09T11:02:20Z</time>
      </trkpt>
      <trkpt lat="42.97707" lon="0.06887">
        <ele>1997.75708</ele>
        <time>2012-06-09T11:02:38Z</time>
      </trkpt>
      <trkpt lat="42.97706" lon="0.06893">
        <ele>1995.353516</ele>
        <time>2012-06-09T11:02:45Z</time>
      </trkpt>
      <trkpt lat="42.97701" lon="0.06897">
        <ele>1994.39209</ele>
        <time>2012-06-09T11:02:51Z</time>
      </trkpt>
      <trkpt lat="42.97698" lon="0.06898">
        <ele>1994.872803</ele>
        <time>2012-06-09T11:02:54Z</time>
      </trkpt>
      <trkpt lat="42.97688" lon="0.06914">
        <ele>1991.989014</ele>
        <time>2012-06-09T11:03:10Z</time>
      </trkpt>
      <trkpt lat="42.97688" lon="0.06923">
        <ele>1991.508301</ele>
        <time>2012-06-09T11:03:21Z</time>
      </trkpt>
      <trkpt lat="42.97686" lon="0.06929">
        <ele>1991.508301</ele>
        <time>2012-06-09T11:03:27Z</time>
      </trkpt>
      <trkpt lat="42.97687" lon="0.06937">
        <ele>1987.663086</ele>
        <time>2012-06-09T11:03:43Z</time>
      </trkpt>
      <trkpt lat="42.97684" lon="0.06942">
        <ele>1983.817871</ele>
        <time>2012-06-09T11:04:00Z</time>
      </trkpt>
      <trkpt lat="42.97682" lon="0.06951">
        <ele>1979.010986</ele>
        <time>2012-06-09T11:04:16Z</time>
      </trkpt>
      <trkpt lat="42.97681" lon="0.06953">
        <ele>1979.491699</ele>
        <time>2012-06-09T11:04:19Z</time>
      </trkpt>
      <trkpt lat="42.97677" lon="0.06959">
        <ele>1979.491699</ele>
        <time>2012-06-09T11:04:33Z</time>
      </trkpt>
      <trkpt lat="42.97679" lon="0.06963">
        <ele>1977.088623</ele>
        <time>2012-06-09T11:04:46Z</time>
      </trkpt>
      <trkpt lat="42.9768" lon="0.06968">
        <ele>1974.685303</ele>
        <time>2012-06-09T11:04:50Z</time>
      </trkpt>
      <trkpt lat="42.9768" lon="0.06972">
        <ele>1972.281982</ele>
        <time>2012-06-09T11:04:53Z</time>
      </trkpt>
      <trkpt lat="42.97684" lon="0.06981">
        <ele>1968.91748</ele>
        <time>2012-06-09T11:05:03Z</time>
      </trkpt>
      <trkpt lat="42.97685" lon="0.06985">
        <ele>1968.436768</ele>
        <time>2012-06-09T11:05:07Z</time>
      </trkpt>
      <trkpt lat="42.97687" lon="0.06992">
        <ele>1966.033447</ele>
        <time>2012-06-09T11:05:24Z</time>
      </trkpt>
      <trkpt lat="42.97687" lon="0.06992">
        <ele>1966.033447</ele>
        <time>2012-06-09T11:05:27Z</time>
      </trkpt>
      <trkpt lat="42.97687" lon="0.06993">
        <ele>1965.552979</ele>
        <time>2012-06-09T11:05:30Z</time>
      </trkpt>
      <trkpt lat="42.97688" lon="0.06999">
        <ele>1963.629883</ele>
        <time>2012-06-09T11:05:34Z</time>
      </trkpt>
      <trkpt lat="42.97688" lon="0.07004">
        <ele>1963.629883</ele>
        <time>2012-06-09T11:05:38Z</time>
      </trkpt>
      <trkpt lat="42.97685" lon="0.07011">
        <ele>1962.187988</ele>
        <time>2012-06-09T11:05:44Z</time>
      </trkpt>
      <trkpt lat="42.97684" lon="0.07015">
        <ele>1961.70752</ele>
        <time>2012-06-09T11:05:48Z</time>
      </trkpt>
      <trkpt lat="42.97685" lon="0.07018">
        <ele>1963.149414</ele>
        <time>2012-06-09T11:06:12Z</time>
      </trkpt>
      <trkpt lat="42.97686" lon="0.07022">
        <ele>1963.629883</ele>
        <time>2012-06-09T11:06:34Z</time>
      </trkpt>
      <trkpt lat="42.97685" lon="0.07028">
        <ele>1964.591553</ele>
        <time>2012-06-09T11:06:40Z</time>
      </trkpt>
      <trkpt lat="42.97686" lon="0.0703">
        <ele>1964.591553</ele>
        <time>2012-06-09T11:06:42Z</time>
      </trkpt>
      <trkpt lat="42.97688" lon="0.07038">
        <ele>1960.265381</ele>
        <time>2012-06-09T11:06:49Z</time>
      </trkpt>
      <trkpt lat="42.97688" lon="0.07052">
        <ele>1955.939453</ele>
        <time>2012-06-09T11:07:05Z</time>
      </trkpt>
      <trkpt lat="42.97687" lon="0.0706">
        <ele>1955.458984</ele>
        <time>2012-06-09T11:07:11Z</time>
      </trkpt>
      <trkpt lat="42.97686" lon="0.07066">
        <ele>1955.458984</ele>
        <time>2012-06-09T11:07:15Z</time>
      </trkpt>
      <trkpt lat="42.97686" lon="0.07079">
        <ele>1955.939453</ele>
        <time>2012-06-09T11:07:24Z</time>
      </trkpt>
      <trkpt lat="42.97684" lon="0.07083">
        <ele>1955.939453</ele>
        <time>2012-06-09T11:07:27Z</time>
      </trkpt>
      <trkpt lat="42.97685" lon="0.07096">
        <ele>1955.939453</ele>
        <time>2012-06-09T11:07:37Z</time>
      </trkpt>
      <trkpt lat="42.97686" lon="0.07098">
        <ele>1955.939453</ele>
        <time>2012-06-09T11:07:39Z</time>
      </trkpt>
      <trkpt lat="42.97689" lon="0.07111">
        <ele>1951.133057</ele>
        <time>2012-06-09T11:07:55Z</time>
      </trkpt>
      <trkpt lat="42.9769" lon="0.07112">
        <ele>1950.171875</ele>
        <time>2012-06-09T11:07:57Z</time>
      </trkpt>
      <trkpt lat="42.9769" lon="0.07119">
        <ele>1948.249023</ele>
        <time>2012-06-09T11:08:06Z</time>
      </trkpt>
      <trkpt lat="42.97687" lon="0.07124">
        <ele>1944.884277</ele>
        <time>2012-06-09T11:08:14Z</time>
      </trkpt>
      <trkpt lat="42.97689" lon="0.07135">
        <ele>1940.077881</ele>
        <time>2012-06-09T11:08:29Z</time>
      </trkpt>
      <trkpt lat="42.97688" lon="0.07136">
        <ele>1939.116455</ele>
        <time>2012-06-09T11:08:31Z</time>
      </trkpt>
      <trkpt lat="42.97689" lon="0.07141">
        <ele>1936.713135</ele>
        <time>2012-06-09T11:08:36Z</time>
      </trkpt>
      <trkpt lat="42.97689" lon="0.07144">
        <ele>1934.790771</ele>
        <time>2012-06-09T11:08:40Z</time>
      </trkpt>
      <trkpt lat="42.97686" lon="0.07147">
        <ele>1932.86792</ele>
        <time>2012-06-09T11:08:57Z</time>
      </trkpt>
      <trkpt lat="42.97683" lon="0.07156">
        <ele>1928.541992</ele>
        <time>2012-06-09T11:09:13Z</time>
      </trkpt>
      <trkpt lat="42.97681" lon="0.07162">
        <ele>1927.100098</ele>
        <time>2012-06-09T11:09:30Z</time>
      </trkpt>
      <trkpt lat="42.97681" lon="0.07162">
        <ele>1927.100098</ele>
        <time>2012-06-09T11:10:40Z</time>
      </trkpt>
      <trkpt lat="42.97681" lon="0.07162">
        <ele>1927.100098</ele>
        <time>2012-06-09T11:11:13Z</time>
      </trkpt>
      <trkpt lat="42.97679" lon="0.07174">
        <ele>1921.812744</ele>
        <time>2012-06-09T11:11:30Z</time>
      </trkpt>
      <trkpt lat="42.97672" lon="0.07181">
        <ele>1917.006348</ele>
        <time>2012-06-09T11:11:47Z</time>
      </trkpt>
      <trkpt lat="42.97669" lon="0.07193">
        <ele>1912.199463</ele>
        <time>2012-06-09T11:12:06Z</time>
      </trkpt>
      <trkpt lat="42.97663" lon="0.07199">
        <ele>1911.718994</ele>
        <time>2012-06-09T11:12:24Z</time>
      </trkpt>
      <trkpt lat="42.97657" lon="0.07206">
        <ele>1907.393066</ele>
        <time>2012-06-09T11:12:53Z</time>
      </trkpt>
      <trkpt lat="42.97653" lon="0.07211">
        <ele>1904.028564</ele>
        <time>2012-06-09T11:13:10Z</time>
      </trkpt>
      <trkpt lat="42.97646" lon="0.07215">
        <ele>1901.625244</ele>
        <time>2012-06-09T11:13:24Z</time>
      </trkpt>
      <trkpt lat="42.97646" lon="0.07219">
        <ele>1901.144531</ele>
        <time>2012-06-09T11:13:37Z</time>
      </trkpt>
      <trkpt lat="42.97643" lon="0.07226">
        <ele>1898.740967</ele>
        <time>2012-06-09T11:13:52Z</time>
      </trkpt>
      <trkpt lat="42.97639" lon="0.07232">
        <ele>1893.93457</ele>
        <time>2012-06-09T11:14:01Z</time>
      </trkpt>
      <trkpt lat="42.97633" lon="0.07242">
        <ele>1892.011963</ele>
        <time>2012-06-09T11:14:12Z</time>
      </trkpt>
      <trkpt lat="42.97629" lon="0.07249">
        <ele>1891.050537</ele>
        <time>2012-06-09T11:14:30Z</time>
      </trkpt>
      <trkpt lat="42.97625" lon="0.07257">
        <ele>1891.050537</ele>
        <time>2012-06-09T11:14:44Z</time>
      </trkpt>
      <trkpt lat="42.97618" lon="0.0727">
        <ele>1889.608643</ele>
        <time>2012-06-09T11:14:56Z</time>
      </trkpt>
      <trkpt lat="42.97609" lon="0.07284">
        <ele>1892.011963</ele>
        <time>2012-06-09T11:15:12Z</time>
      </trkpt>
      <trkpt lat="42.97606" lon="0.07291">
        <ele>1891.53125</ele>
        <time>2012-06-09T11:15:19Z</time>
      </trkpt>
      <trkpt lat="42.97604" lon="0.07294">
        <ele>1891.53125</ele>
        <time>2012-06-09T11:15:22Z</time>
      </trkpt>
      <trkpt lat="42.97602" lon="0.07297">
        <ele>1891.53125</ele>
        <time>2012-06-09T11:15:25Z</time>
      </trkpt>
      <trkpt lat="42.97594" lon="0.07306">
        <ele>1888.647461</ele>
        <time>2012-06-09T11:15:36Z</time>
      </trkpt>
      <trkpt lat="42.97586" lon="0.07322">
        <ele>1886.244141</ele>
        <time>2012-06-09T11:15:50Z</time>
      </trkpt>
      <trkpt lat="42.97584" lon="0.07326">
        <ele>1885.282715</ele>
        <time>2012-06-09T11:15:54Z</time>
      </trkpt>
      <trkpt lat="42.97578" lon="0.07331">
        <ele>1883.840576</ele>
        <time>2012-06-09T11:16:02Z</time>
      </trkpt>
      <trkpt lat="42.97575" lon="0.07337">
        <ele>1882.398682</ele>
        <time>2012-06-09T11:16:18Z</time>
      </trkpt>
      <trkpt lat="42.97571" lon="0.07351">
        <ele>1880.956787</ele>
        <time>2012-06-09T11:16:35Z</time>
      </trkpt>
      <trkpt lat="42.97568" lon="0.07356">
        <ele>1879.514648</ele>
        <time>2012-06-09T11:16:43Z</time>
      </trkpt>
      <trkpt lat="42.97564" lon="0.07368">
        <ele>1873.746826</ele>
        <time>2012-06-09T11:16:59Z</time>
      </trkpt>
      <trkpt lat="42.97558" lon="0.0738">
        <ele>1868.94043</ele>
        <time>2012-06-09T11:17:15Z</time>
      </trkpt>
      <trkpt lat="42.97553" lon="0.0739">
        <ele>1866.536865</ele>
        <time>2012-06-09T11:17:31Z</time>
      </trkpt>
      <trkpt lat="42.97552" lon="0.07398">
        <ele>1865.094971</ele>
        <time>2012-06-09T11:17:39Z</time>
      </trkpt>
      <trkpt lat="42.97553" lon="0.07407">
        <ele>1865.094971</ele>
        <time>2012-06-09T11:17:54Z</time>
      </trkpt>
      <trkpt lat="42.97552" lon="0.07411">
        <ele>1863.652832</ele>
        <time>2012-06-09T11:18:00Z</time>
      </trkpt>
      <trkpt lat="42.97551" lon="0.07413">
        <ele>1863.172363</ele>
        <time>2012-06-09T11:18:07Z</time>
      </trkpt>
      <trkpt lat="42.97544" lon="0.07423">
        <ele>1861.730469</ele>
        <time>2012-06-09T11:18:23Z</time>
      </trkpt>
      <trkpt lat="42.97544" lon="0.0743">
        <ele>1859.327148</ele>
        <time>2012-06-09T11:18:38Z</time>
      </trkpt>
      <trkpt lat="42.97543" lon="0.07435">
        <ele>1858.365723</ele>
        <time>2012-06-09T11:18:46Z</time>
      </trkpt>
      <trkpt lat="42.97544" lon="0.07448">
        <ele>1857.885254</ele>
        <time>2012-06-09T11:19:03Z</time>
      </trkpt>
      <trkpt lat="42.97543" lon="0.07456">
        <ele>1856.923828</ele>
        <time>2012-06-09T11:19:20Z</time>
      </trkpt>
      <trkpt lat="42.9754" lon="0.07464">
        <ele>1854.040039</ele>
        <time>2012-06-09T11:19:35Z</time>
      </trkpt>
      <trkpt lat="42.97538" lon="0.07467">
        <ele>1853.559326</ele>
        <time>2012-06-09T11:19:40Z</time>
      </trkpt>
      <trkpt lat="42.97536" lon="0.07474">
        <ele>1851.636475</ele>
        <time>2012-06-09T11:19:48Z</time>
      </trkpt>
      <trkpt lat="42.9753" lon="0.07481">
        <ele>1851.636475</ele>
        <time>2012-06-09T11:19:57Z</time>
      </trkpt>
      <trkpt lat="42.97524" lon="0.0749">
        <ele>1853.078613</ele>
        <time>2012-06-09T11:20:15Z</time>
      </trkpt>
      <trkpt lat="42.9752" lon="0.07499">
        <ele>1851.636475</ele>
        <time>2012-06-09T11:20:30Z</time>
      </trkpt>
      <trkpt lat="42.97525" lon="0.07507">
        <ele>1845.868652</ele>
        <time>2012-06-09T11:20:45Z</time>
      </trkpt>
      <trkpt lat="42.97528" lon="0.07517">
        <ele>1841.062012</ele>
        <time>2012-06-09T11:21:01Z</time>
      </trkpt>
      <trkpt lat="42.97532" lon="0.07527">
        <ele>1836.255615</ele>
        <time>2012-06-09T11:21:17Z</time>
      </trkpt>
      <trkpt lat="42.97531" lon="0.07536">
        <ele>1832.410156</ele>
        <time>2012-06-09T11:21:29Z</time>
      </trkpt>
      <trkpt lat="42.9754" lon="0.07548">
        <ele>1830.006836</ele>
        <time>2012-06-09T11:21:48Z</time>
      </trkpt>
      <trkpt lat="42.97544" lon="0.07553">
        <ele>1828.564941</ele>
        <time>2012-06-09T11:22:35Z</time>
      </trkpt>
      <trkpt lat="42.97556" lon="0.07558">
        <ele>1827.123047</ele>
        <time>2012-06-09T11:22:52Z</time>
      </trkpt>
      <trkpt lat="42.97565" lon="0.07556">
        <ele>1826.161621</ele>
        <time>2012-06-09T11:23:09Z</time>
      </trkpt>
      <trkpt lat="42.97567" lon="0.0756">
        <ele>1823.277832</ele>
        <time>2012-06-09T11:23:25Z</time>
      </trkpt>
      <trkpt lat="42.97567" lon="0.0756">
        <ele>1823.277832</ele>
        <time>2012-06-09T11:23:30Z</time>
      </trkpt>
      <trkpt lat="42.97563" lon="0.07574">
        <ele>1819.432373</ele>
        <time>2012-06-09T11:23:40Z</time>
      </trkpt>
      <trkpt lat="42.9756" lon="0.07579">
        <ele>1818.95166</ele>
        <time>2012-06-09T11:23:58Z</time>
      </trkpt>
      <trkpt lat="42.97551" lon="0.07589">
        <ele>1817.029053</ele>
        <time>2012-06-09T11:24:16Z</time>
      </trkpt>
      <trkpt lat="42.97544" lon="0.07596">
        <ele>1817.509521</ele>
        <time>2012-06-09T11:24:29Z</time>
      </trkpt>
      <trkpt lat="42.97543" lon="0.07598">
        <ele>1816.54834</ele>
        <time>2012-06-09T11:24:32Z</time>
      </trkpt>
      <trkpt lat="42.97542" lon="0.07596">
        <ele>1816.54834</ele>
        <time>2012-06-09T11:24:34Z</time>
      </trkpt>
      <trkpt lat="42.97539" lon="0.07596">
        <ele>1813.183838</ele>
        <time>2012-06-09T11:24:44Z</time>
      </trkpt>
      <trkpt lat="42.9753" lon="0.07608">
        <ele>1808.85791</ele>
        <time>2012-06-09T11:25:03Z</time>
      </trkpt>
      <trkpt lat="42.9753" lon="0.07608">
        <ele>1808.85791</ele>
        <time>2012-06-09T11:25:04Z</time>
      </trkpt>
      <trkpt lat="42.97531" lon="0.07618">
        <ele>1806.45459</ele>
        <time>2012-06-09T11:25:23Z</time>
      </trkpt>
      <trkpt lat="42.97529" lon="0.0763">
        <ele>1803.089844</ele>
        <time>2012-06-09T11:25:50Z</time>
      </trkpt>
      <trkpt lat="42.97529" lon="0.07641">
        <ele>1798.283203</ele>
        <time>2012-06-09T11:26:06Z</time>
      </trkpt>
      <trkpt lat="42.97525" lon="0.07645">
        <ele>1795.399414</ele>
        <time>2012-06-09T11:26:27Z</time>
      </trkpt>
      <trkpt lat="42.97521" lon="0.0765">
        <ele>1792.515625</ele>
        <time>2012-06-09T11:26:41Z</time>
      </trkpt>
      <trkpt lat="42.97518" lon="0.07657">
        <ele>1790.112305</ele>
        <time>2012-06-09T11:27:03Z</time>
      </trkpt>
      <trkpt lat="42.9751" lon="0.07658">
        <ele>1786.747314</ele>
        <time>2012-06-09T11:27:18Z</time>
      </trkpt>
      <trkpt lat="42.97503" lon="0.07662">
        <ele>1782.421631</ele>
        <time>2012-06-09T11:27:34Z</time>
      </trkpt>
      <trkpt lat="42.97497" lon="0.07668">
        <ele>1778.095703</ele>
        <time>2012-06-09T11:27:50Z</time>
      </trkpt>
      <trkpt lat="42.97491" lon="0.07672">
        <ele>1773.289307</ele>
        <time>2012-06-09T11:28:07Z</time>
      </trkpt>
      <trkpt lat="42.97485" lon="0.07675">
        <ele>1768.482422</ele>
        <time>2012-06-09T11:28:26Z</time>
      </trkpt>
      <trkpt lat="42.9748" lon="0.0769">
        <ele>1761.753418</ele>
        <time>2012-06-09T11:28:45Z</time>
      </trkpt>
      <trkpt lat="42.97472" lon="0.07691">
        <ele>1757.908203</ele>
        <time>2012-06-09T11:28:59Z</time>
      </trkpt>
      <trkpt lat="42.97468" lon="0.077">
        <ele>1754.543213</ele>
        <time>2012-06-09T11:29:16Z</time>
      </trkpt>
      <trkpt lat="42.97462" lon="0.07703">
        <ele>1752.139893</ele>
        <time>2012-06-09T11:29:32Z</time>
      </trkpt>
      <trkpt lat="42.9746" lon="0.07703">
        <ele>1751.178711</ele>
        <time>2012-06-09T11:29:52Z</time>
      </trkpt>
      <trkpt lat="42.97457" lon="0.07707">
        <ele>1747.814209</ele>
        <time>2012-06-09T11:30:08Z</time>
      </trkpt>
      <trkpt lat="42.9745" lon="0.07711">
        <ele>1744.449463</ele>
        <time>2012-06-09T11:30:25Z</time>
      </trkpt>
      <trkpt lat="42.97445" lon="0.07718">
        <ele>1741.084961</ele>
        <time>2012-06-09T11:30:42Z</time>
      </trkpt>
      <trkpt lat="42.97443" lon="0.07719">
        <ele>1739.642822</ele>
        <time>2012-06-09T11:30:50Z</time>
      </trkpt>
      <trkpt lat="42.97441" lon="0.07721">
        <ele>1738.200928</ele>
        <time>2012-06-09T11:31:06Z</time>
      </trkpt>
      <trkpt lat="42.97442" lon="0.07723">
        <ele>1737.720215</ele>
        <time>2012-06-09T11:31:27Z</time>
      </trkpt>
      <trkpt lat="42.97447" lon="0.07725">
        <ele>1737.239502</ele>
        <time>2012-06-09T11:31:47Z</time>
      </trkpt>
      <trkpt lat="42.97448" lon="0.07725">
        <ele>1736.27832</ele>
        <time>2012-06-09T11:31:50Z</time>
      </trkpt>
      <trkpt lat="42.9745" lon="0.07726">
        <ele>1735.316895</ele>
        <time>2012-06-09T11:31:52Z</time>
      </trkpt>
      <trkpt lat="42.97452" lon="0.07729">
        <ele>1734.355713</ele>
        <time>2012-06-09T11:31:55Z</time>
      </trkpt>
      <trkpt lat="42.97463" lon="0.07739">
        <ele>1734.355713</ele>
        <time>2012-06-09T11:32:11Z</time>
      </trkpt>
      <trkpt lat="42.97474" lon="0.07748">
        <ele>1734.836426</ele>
        <time>2012-06-09T11:32:28Z</time>
      </trkpt>
      <trkpt lat="42.97476" lon="0.07754">
        <ele>1734.355713</ele>
        <time>2012-06-09T11:32:40Z</time>
      </trkpt>
      <trkpt lat="42.97479" lon="0.0776">
        <ele>1733.394287</ele>
        <time>2012-06-09T11:32:45Z</time>
      </trkpt>
      <trkpt lat="42.9748" lon="0.07761">
        <ele>1732.913574</ele>
        <time>2012-06-09T11:32:55Z</time>
      </trkpt>
      <trkpt lat="42.97486" lon="0.07773">
        <ele>1734.355713</ele>
        <time>2012-06-09T11:33:10Z</time>
      </trkpt>
      <trkpt lat="42.97485" lon="0.07784">
        <ele>1735.316895</ele>
        <time>2012-06-09T11:33:27Z</time>
      </trkpt>
      <trkpt lat="42.97485" lon="0.07787">
        <ele>1734.836426</ele>
        <time>2012-06-09T11:33:30Z</time>
      </trkpt>
      <trkpt lat="42.97484" lon="0.07795">
        <ele>1732.433105</ele>
        <time>2012-06-09T11:33:42Z</time>
      </trkpt>
      <trkpt lat="42.97486" lon="0.078">
        <ele>1731.47168</ele>
        <time>2012-06-09T11:33:59Z</time>
      </trkpt>
      <trkpt lat="42.97484" lon="0.07806">
        <ele>1729.549072</ele>
        <time>2012-06-09T11:34:13Z</time>
      </trkpt>
      <trkpt lat="42.97482" lon="0.0781">
        <ele>1728.107178</ele>
        <time>2012-06-09T11:34:25Z</time>
      </trkpt>
      <trkpt lat="42.97477" lon="0.07826">
        <ele>1725.703857</ele>
        <time>2012-06-09T11:34:41Z</time>
      </trkpt>
      <trkpt lat="42.97469" lon="0.07834">
        <ele>1720.416504</ele>
        <time>2012-06-09T11:35:00Z</time>
      </trkpt>
      <trkpt lat="42.97463" lon="0.07844">
        <ele>1718.013184</ele>
        <time>2012-06-09T11:35:17Z</time>
      </trkpt>
      <trkpt lat="42.97455" lon="0.07855">
        <ele>1718.013184</ele>
        <time>2012-06-09T11:35:27Z</time>
      </trkpt>
      <trkpt lat="42.97452" lon="0.07857">
        <ele>1718.013184</ele>
        <time>2012-06-09T11:35:31Z</time>
      </trkpt>
      <trkpt lat="42.9745" lon="0.07867">
        <ele>1715.610107</ele>
        <time>2012-06-09T11:35:44Z</time>
      </trkpt>
      <trkpt lat="42.97459" lon="0.07879">
        <ele>1717.532471</ele>
        <time>2012-06-09T11:36:01Z</time>
      </trkpt>
      <trkpt lat="42.97461" lon="0.07885">
        <ele>1715.610107</ele>
        <time>2012-06-09T11:36:07Z</time>
      </trkpt>
      <trkpt lat="42.97465" lon="0.07894">
        <ele>1714.648682</ele>
        <time>2012-06-09T11:36:14Z</time>
      </trkpt>
      <trkpt lat="42.97465" lon="0.07903">
        <ele>1715.129395</ele>
        <time>2012-06-09T11:36:29Z</time>
      </trkpt>
      <trkpt lat="42.97466" lon="0.07903">
        <ele>1715.129395</ele>
        <time>2012-06-09T11:36:33Z</time>
      </trkpt>
      <trkpt lat="42.9747" lon="0.07903">
        <ele>1716.090576</ele>
        <time>2012-06-09T11:36:53Z</time>
      </trkpt>
      <trkpt lat="42.97479" lon="0.07907">
        <ele>1718.013184</ele>
        <time>2012-06-09T11:37:09Z</time>
      </trkpt>
      <trkpt lat="42.97481" lon="0.07912">
        <ele>1715.610107</ele>
        <time>2012-06-09T11:37:24Z</time>
      </trkpt>
      <trkpt lat="42.97482" lon="0.07926">
        <ele>1712.726074</ele>
        <time>2012-06-09T11:37:40Z</time>
      </trkpt>
      <trkpt lat="42.97482" lon="0.07931">
        <ele>1711.28418</ele>
        <time>2012-06-09T11:37:47Z</time>
      </trkpt>
      <trkpt lat="42.97483" lon="0.0794">
        <ele>1709.842041</ele>
        <time>2012-06-09T11:38:06Z</time>
      </trkpt>
      <trkpt lat="42.97483" lon="0.07941">
        <ele>1709.842041</ele>
        <time>2012-06-09T11:38:22Z</time>
      </trkpt>
      <trkpt lat="42.97476" lon="0.07943">
        <ele>1706.958008</ele>
        <time>2012-06-09T11:38:37Z</time>
      </trkpt>
      <trkpt lat="42.97472" lon="0.07947">
        <ele>1704.074219</ele>
        <time>2012-06-09T11:38:46Z</time>
      </trkpt>
      <trkpt lat="42.9746" lon="0.07948">
        <ele>1697.344971</ele>
        <time>2012-06-09T11:39:06Z</time>
      </trkpt>
      <trkpt lat="42.97453" lon="0.0795">
        <ele>1693.019043</ele>
        <time>2012-06-09T11:39:22Z</time>
      </trkpt>
      <trkpt lat="42.9745" lon="0.0795">
        <ele>1691.096191</ele>
        <time>2012-06-09T11:39:40Z</time>
      </trkpt>
      <trkpt lat="42.97446" lon="0.07951">
        <ele>1689.173584</ele>
        <time>2012-06-09T11:40:03Z</time>
      </trkpt>
      <trkpt lat="42.97446" lon="0.07951">
        <ele>1689.173584</ele>
        <time>2012-06-09T11:40:06Z</time>
      </trkpt>
      <trkpt lat="42.9744" lon="0.07951">
        <ele>1685.809082</ele>
        <time>2012-06-09T11:40:22Z</time>
      </trkpt>
      <trkpt lat="42.97435" lon="0.07954">
        <ele>1681.963867</ele>
        <time>2012-06-09T11:40:38Z</time>
      </trkpt>
      <trkpt lat="42.97429" lon="0.07958">
        <ele>1678.599365</ele>
        <time>2012-06-09T11:40:51Z</time>
      </trkpt>
      <trkpt lat="42.97429" lon="0.07956">
        <ele>1678.599365</ele>
        <time>2012-06-09T11:40:53Z</time>
      </trkpt>
      <trkpt lat="42.97426" lon="0.07954">
        <ele>1676.676758</ele>
        <time>2012-06-09T11:41:12Z</time>
      </trkpt>
      <trkpt lat="42.97423" lon="0.07951">
        <ele>1675.234375</ele>
        <time>2012-06-09T11:41:21Z</time>
      </trkpt>
      <trkpt lat="42.97418" lon="0.0795">
        <ele>1671.869873</ele>
        <time>2012-06-09T11:41:36Z</time>
      </trkpt>
      <trkpt lat="42.97415" lon="0.07953">
        <ele>1670.908691</ele>
        <time>2012-06-09T11:41:56Z</time>
      </trkpt>
      <trkpt lat="42.97412" lon="0.07963">
        <ele>1668.986084</ele>
        <time>2012-06-09T11:42:14Z</time>
      </trkpt>
      <trkpt lat="42.97406" lon="0.07962">
        <ele>1664.179443</ele>
        <time>2012-06-09T11:42:28Z</time>
      </trkpt>
      <trkpt lat="42.97404" lon="0.07963">
        <ele>1662.737549</ele>
        <time>2012-06-09T11:42:42Z</time>
      </trkpt>
      <trkpt lat="42.97401" lon="0.07966">
        <ele>1661.295654</ele>
        <time>2012-06-09T11:43:01Z</time>
      </trkpt>
      <trkpt lat="42.97395" lon="0.07963">
        <ele>1658.89209</ele>
        <time>2012-06-09T11:43:16Z</time>
      </trkpt>
      <trkpt lat="42.9739" lon="0.07958">
        <ele>1654.566162</ele>
        <time>2012-06-09T11:43:33Z</time>
      </trkpt>
      <trkpt lat="42.97384" lon="0.07958">
        <ele>1650.240479</ele>
        <time>2012-06-09T11:43:46Z</time>
      </trkpt>
      <trkpt lat="42.97381" lon="0.07953">
        <ele>1648.317627</ele>
        <time>2012-06-09T11:44:01Z</time>
      </trkpt>
      <trkpt lat="42.97373" lon="0.07958">
        <ele>1643.510986</ele>
        <time>2012-06-09T11:44:17Z</time>
      </trkpt>
      <trkpt lat="42.97363" lon="0.07956">
        <ele>1639.185059</ele>
        <time>2012-06-09T11:44:34Z</time>
      </trkpt>
      <trkpt lat="42.97356" lon="0.07958">
        <ele>1635.820557</ele>
        <time>2012-06-09T11:44:46Z</time>
      </trkpt>
      <trkpt lat="42.97351" lon="0.07954">
        <ele>1633.417236</ele>
        <time>2012-06-09T11:44:56Z</time>
      </trkpt>
      <trkpt lat="42.97346" lon="0.07956">
        <ele>1630.052734</ele>
        <time>2012-06-09T11:45:12Z</time>
      </trkpt>
      <trkpt lat="42.97341" lon="0.07966">
        <ele>1627.168701</ele>
        <time>2012-06-09T11:45:27Z</time>
      </trkpt>
      <trkpt lat="42.97333" lon="0.07973">
        <ele>1622.362061</ele>
        <time>2012-06-09T11:45:45Z</time>
      </trkpt>
      <trkpt lat="42.97326" lon="0.07972">
        <ele>1618.036133</ele>
        <time>2012-06-09T11:46:01Z</time>
      </trkpt>
      <trkpt lat="42.9732" lon="0.07969">
        <ele>1612.749023</ele>
        <time>2012-06-09T11:46:17Z</time>
      </trkpt>
      <trkpt lat="42.97315" lon="0.07964">
        <ele>1609.384277</ele>
        <time>2012-06-09T11:46:34Z</time>
      </trkpt>
      <trkpt lat="42.97309" lon="0.07968">
        <ele>1606.980957</ele>
        <time>2012-06-09T11:46:49Z</time>
      </trkpt>
      <trkpt lat="42.973" lon="0.07974">
        <ele>1603.616455</ele>
        <time>2012-06-09T11:47:06Z</time>
      </trkpt>
      <trkpt lat="42.97301" lon="0.07978">
        <ele>1601.693848</ele>
        <time>2012-06-09T11:48:10Z</time>
      </trkpt>
      <trkpt lat="42.97301" lon="0.07982">
        <ele>1600.251953</ele>
        <time>2012-06-09T11:48:26Z</time>
      </trkpt>
      <trkpt lat="42.973" lon="0.07986">
        <ele>1598.329102</ele>
        <time>2012-06-09T11:48:42Z</time>
      </trkpt>
      <trkpt lat="42.97306" lon="0.07998">
        <ele>1595.445068</ele>
        <time>2012-06-09T11:49:02Z</time>
      </trkpt>
      <trkpt lat="42.97304" lon="0.08007">
        <ele>1592.561279</ele>
        <time>2012-06-09T11:49:19Z</time>
      </trkpt>
      <trkpt lat="42.97298" lon="0.08023">
        <ele>1585.351318</ele>
        <time>2012-06-09T11:49:39Z</time>
      </trkpt>
      <trkpt lat="42.97299" lon="0.08032">
        <ele>1582.467529</ele>
        <time>2012-06-09T11:49:48Z</time>
      </trkpt>
      <trkpt lat="42.97293" lon="0.08041">
        <ele>1576.699463</ele>
        <time>2012-06-09T11:50:04Z</time>
      </trkpt>
      <trkpt lat="42.97291" lon="0.08047">
        <ele>1575.738037</ele>
        <time>2012-06-09T11:50:19Z</time>
      </trkpt>
      <trkpt lat="42.97289" lon="0.08051">
        <ele>1574.296143</ele>
        <time>2012-06-09T11:50:36Z</time>
      </trkpt>
      <trkpt lat="42.9729" lon="0.08051">
        <ele>1574.296143</ele>
        <time>2012-06-09T11:51:16Z</time>
      </trkpt>
      <trkpt lat="42.97289" lon="0.08051">
        <ele>1573.334961</ele>
        <time>2012-06-09T11:52:52Z</time>
      </trkpt>
      <trkpt lat="42.97291" lon="0.08054">
        <ele>1573.81543</ele>
        <time>2012-06-09T11:53:18Z</time>
      </trkpt>
      <trkpt lat="42.97296" lon="0.08065">
        <ele>1572.854248</ele>
        <time>2012-06-09T11:53:31Z</time>
      </trkpt>
      <trkpt lat="42.97298" lon="0.08068">
        <ele>1573.334961</ele>
        <time>2012-06-09T11:53:34Z</time>
      </trkpt>
      <trkpt lat="42.97298" lon="0.08072">
        <ele>1572.854248</ele>
        <time>2012-06-09T11:53:37Z</time>
      </trkpt>
      <trkpt lat="42.97299" lon="0.08078">
        <ele>1571.892822</ele>
        <time>2012-06-09T11:53:44Z</time>
      </trkpt>
      <trkpt lat="42.97301" lon="0.08084">
        <ele>1571.892822</ele>
        <time>2012-06-09T11:53:51Z</time>
      </trkpt>
      <trkpt lat="42.97302" lon="0.08097">
        <ele>1571.412109</ele>
        <time>2012-06-09T11:54:02Z</time>
      </trkpt>
      <trkpt lat="42.973" lon="0.08112">
        <ele>1569.489746</ele>
        <time>2012-06-09T11:54:18Z</time>
      </trkpt>
      <trkpt lat="42.97296" lon="0.08125">
        <ele>1569.009033</ele>
        <time>2012-06-09T11:54:31Z</time>
      </trkpt>
      <trkpt lat="42.97297" lon="0.08128">
        <ele>1569.009033</ele>
        <time>2012-06-09T11:54:34Z</time>
      </trkpt>
      <trkpt lat="42.97295" lon="0.0813">
        <ele>1569.009033</ele>
        <time>2012-06-09T11:54:36Z</time>
      </trkpt>
      <trkpt lat="42.97295" lon="0.08134">
        <ele>1568.52832</ele>
        <time>2012-06-09T11:54:39Z</time>
      </trkpt>
      <trkpt lat="42.97292" lon="0.08143">
        <ele>1565.644531</ele>
        <time>2012-06-09T11:54:47Z</time>
      </trkpt>
      <trkpt lat="42.9729" lon="0.08147">
        <ele>1564.202393</ele>
        <time>2012-06-09T11:54:50Z</time>
      </trkpt>
      <trkpt lat="42.97289" lon="0.08153">
        <ele>1562.760254</ele>
        <time>2012-06-09T11:54:54Z</time>
      </trkpt>
      <trkpt lat="42.97288" lon="0.08157">
        <ele>1561.799072</ele>
        <time>2012-06-09T11:54:57Z</time>
      </trkpt>
      <trkpt lat="42.97288" lon="0.08164">
        <ele>1560.837646</ele>
        <time>2012-06-09T11:55:02Z</time>
      </trkpt>
      <trkpt lat="42.97289" lon="0.08168">
        <ele>1559.876221</ele>
        <time>2012-06-09T11:55:05Z</time>
      </trkpt>
      <trkpt lat="42.97287" lon="0.08172">
        <ele>1559.395752</ele>
        <time>2012-06-09T11:55:08Z</time>
      </trkpt>
      <trkpt lat="42.97287" lon="0.08178">
        <ele>1557.953857</ele>
        <time>2012-06-09T11:55:12Z</time>
      </trkpt>
      <trkpt lat="42.97287" lon="0.08185">
        <ele>1556.031006</ele>
        <time>2012-06-09T11:55:18Z</time>
      </trkpt>
      <trkpt lat="42.97285" lon="0.08193">
        <ele>1556.031006</ele>
        <time>2012-06-09T11:55:28Z</time>
      </trkpt>
      <trkpt lat="42.97276" lon="0.08215">
        <ele>1550.743896</ele>
        <time>2012-06-09T11:55:45Z</time>
      </trkpt>
      <trkpt lat="42.97275" lon="0.08216">
        <ele>1550.743896</ele>
        <time>2012-06-09T11:55:47Z</time>
      </trkpt>
      <trkpt lat="42.97263" lon="0.08231">
        <ele>1550.743896</ele>
        <time>2012-06-09T11:56:00Z</time>
      </trkpt>
      <trkpt lat="42.97258" lon="0.08234">
        <ele>1549.302002</ele>
        <time>2012-06-09T11:56:06Z</time>
      </trkpt>
      <trkpt lat="42.97256" lon="0.0824">
        <ele>1548.340576</ele>
        <time>2012-06-09T11:56:11Z</time>
      </trkpt>
      <trkpt lat="42.97253" lon="0.08246">
        <ele>1546.417969</ele>
        <time>2012-06-09T11:56:30Z</time>
      </trkpt>
      <trkpt lat="42.97252" lon="0.08248">
        <ele>1545.456543</ele>
        <time>2012-06-09T11:56:33Z</time>
      </trkpt>
      <trkpt lat="42.97248" lon="0.08252">
        <ele>1544.97583</ele>
        <time>2012-06-09T11:56:45Z</time>
      </trkpt>
      <trkpt lat="42.9724" lon="0.08276">
        <ele>1544.97583</ele>
        <time>2012-06-09T11:57:00Z</time>
      </trkpt>
      <trkpt lat="42.97237" lon="0.08283">
        <ele>1544.97583</ele>
        <time>2012-06-09T11:57:06Z</time>
      </trkpt>
      <trkpt lat="42.97235" lon="0.08283">
        <ele>1544.014648</ele>
        <time>2012-06-09T11:57:08Z</time>
      </trkpt>
      <trkpt lat="42.97232" lon="0.08291">
        <ele>1542.572754</ele>
        <time>2012-06-09T11:57:13Z</time>
      </trkpt>
      <trkpt lat="42.97233" lon="0.08296">
        <ele>1541.611328</ele>
        <time>2012-06-09T11:57:18Z</time>
      </trkpt>
      <trkpt lat="42.9723" lon="0.08306">
        <ele>1540.169434</ele>
        <time>2012-06-09T11:57:25Z</time>
      </trkpt>
      <trkpt lat="42.97229" lon="0.08309">
        <ele>1538.727539</ele>
        <time>2012-06-09T11:57:28Z</time>
      </trkpt>
      <trkpt lat="42.97228" lon="0.08313">
        <ele>1537.2854</ele>
        <time>2012-06-09T11:57:31Z</time>
      </trkpt>
      <trkpt lat="42.97225" lon="0.08319">
        <ele>1534.882324</ele>
        <time>2012-06-09T11:57:38Z</time>
      </trkpt>
      <trkpt lat="42.97217" lon="0.08335">
        <ele>1532.959473</ele>
        <time>2012-06-09T11:57:51Z</time>
      </trkpt>
      <trkpt lat="42.97209" lon="0.08341">
        <ele>1529.594727</ele>
        <time>2012-06-09T11:58:07Z</time>
      </trkpt>
      <trkpt lat="42.97208" lon="0.08342">
        <ele>1529.114014</ele>
        <time>2012-06-09T11:58:09Z</time>
      </trkpt>
      <trkpt lat="42.97206" lon="0.08341">
        <ele>1528.152832</ele>
        <time>2012-06-09T11:58:12Z</time>
      </trkpt>
      <trkpt lat="42.97198" lon="0.08344">
        <ele>1523.346436</ele>
        <time>2012-06-09T11:58:21Z</time>
      </trkpt>
      <trkpt lat="42.97194" lon="0.08346">
        <ele>1520.462402</ele>
        <time>2012-06-09T11:58:25Z</time>
      </trkpt>
      <trkpt lat="42.97188" lon="0.08347">
        <ele>1518.059082</ele>
        <time>2012-06-09T11:58:35Z</time>
      </trkpt>
      <trkpt lat="42.97177" lon="0.08355">
        <ele>1514.213623</ele>
        <time>2012-06-09T11:58:49Z</time>
      </trkpt>
      <trkpt lat="42.97175" lon="0.08357">
        <ele>1513.252441</ele>
        <time>2012-06-09T11:58:52Z</time>
      </trkpt>
      <trkpt lat="42.97172" lon="0.08359">
        <ele>1512.291016</ele>
        <time>2012-06-09T11:58:56Z</time>
      </trkpt>
      <trkpt lat="42.97169" lon="0.08368">
        <ele>1509.407227</ele>
        <time>2012-06-09T11:59:03Z</time>
      </trkpt>
      <trkpt lat="42.97167" lon="0.0838">
        <ele>1507.003906</ele>
        <time>2012-06-09T11:59:11Z</time>
      </trkpt>
      <trkpt lat="42.97158" lon="0.08392">
        <ele>1504.120117</ele>
        <time>2012-06-09T11:59:23Z</time>
      </trkpt>
      <trkpt lat="42.97152" lon="0.08401">
        <ele>1500.755371</ele>
        <time>2012-06-09T11:59:31Z</time>
      </trkpt>
      <trkpt lat="42.97147" lon="0.08407">
        <ele>1498.351807</ele>
        <time>2012-06-09T11:59:51Z</time>
      </trkpt>
      <trkpt lat="42.97148" lon="0.08407">
        <ele>1498.351807</ele>
        <time>2012-06-09T12:02:09Z</time>
      </trkpt>
      <trkpt lat="42.97148" lon="0.08407">
        <ele>1498.351807</ele>
        <time>2012-06-09T12:03:00Z</time>
      </trkpt>
      <trkpt lat="42.97148" lon="0.08407">
        <ele>1498.351807</ele>
        <time>2012-06-09T12:03:42Z</time>
      </trkpt>
      <trkpt lat="42.97148" lon="0.08407">
        <ele>1498.351807</ele>
        <time>2012-06-09T12:04:48Z</time>
      </trkpt>
      <trkpt lat="42.97148" lon="0.08407">
        <ele>1498.83252</ele>
        <time>2012-06-09T12:05:51Z</time>
      </trkpt>
      <trkpt lat="42.97147" lon="0.0841">
        <ele>1498.83252</ele>
        <time>2012-06-09T12:06:18Z</time>
      </trkpt>
      <trkpt lat="42.97141" lon="0.08413">
        <ele>1498.83252</ele>
        <time>2012-06-09T12:06:23Z</time>
      </trkpt>
      <trkpt lat="42.97139" lon="0.08415">
        <ele>1498.83252</ele>
        <time>2012-06-09T12:06:25Z</time>
      </trkpt>
      <trkpt lat="42.97135" lon="0.08418">
        <ele>1497.390625</ele>
        <time>2012-06-09T12:06:29Z</time>
      </trkpt>
      <trkpt lat="42.97128" lon="0.08425">
        <ele>1495.94873</ele>
        <time>2012-06-09T12:06:36Z</time>
      </trkpt>
      <trkpt lat="42.97102" lon="0.08436">
        <ele>1490.180908</ele>
        <time>2012-06-09T12:06:58Z</time>
      </trkpt>
      <trkpt lat="42.97095" lon="0.08441">
        <ele>1489.219482</ele>
        <time>2012-06-09T12:07:04Z</time>
      </trkpt>
      <trkpt lat="42.97078" lon="0.08451">
        <ele>1488.258301</ele>
        <time>2012-06-09T12:07:18Z</time>
      </trkpt>
      <trkpt lat="42.97054" lon="0.08457">
        <ele>1486.816162</ele>
        <time>2012-06-09T12:07:40Z</time>
      </trkpt>
      <trkpt lat="42.97046" lon="0.08463">
        <ele>1484.893799</ele>
        <time>2012-06-09T12:07:47Z</time>
      </trkpt>
      <trkpt lat="42.97039" lon="0.08471">
        <ele>1483.451416</ele>
        <time>2012-06-09T12:07:56Z</time>
      </trkpt>
      <trkpt lat="42.97037" lon="0.08471">
        <ele>1482.970703</ele>
        <time>2012-06-09T12:07:59Z</time>
      </trkpt>
      <trkpt lat="42.9703" lon="0.08479">
        <ele>1482.009521</ele>
        <time>2012-06-09T12:08:09Z</time>
      </trkpt>
      <trkpt lat="42.97025" lon="0.08485">
        <ele>1481.04834</ele>
        <time>2012-06-09T12:08:16Z</time>
      </trkpt>
      <trkpt lat="42.97024" lon="0.08498">
        <ele>1480.567627</ele>
        <time>2012-06-09T12:08:37Z</time>
      </trkpt>
      <trkpt lat="42.97024" lon="0.08499">
        <ele>1480.567627</ele>
        <time>2012-06-09T12:08:38Z</time>
      </trkpt>
      <trkpt lat="42.97023" lon="0.08502">
        <ele>1480.567627</ele>
        <time>2012-06-09T12:08:40Z</time>
      </trkpt>
      <trkpt lat="42.97029" lon="0.08521">
        <ele>1480.086914</ele>
        <time>2012-06-09T12:08:59Z</time>
      </trkpt>
      <trkpt lat="42.97031" lon="0.08535">
        <ele>1477.203125</ele>
        <time>2012-06-09T12:09:15Z</time>
      </trkpt>
      <trkpt lat="42.97036" lon="0.08548">
        <ele>1475.760986</ele>
        <time>2012-06-09T12:09:30Z</time>
      </trkpt>
      <trkpt lat="42.97038" lon="0.08553">
        <ele>1475.280273</ele>
        <time>2012-06-09T12:09:34Z</time>
      </trkpt>
      <trkpt lat="42.97041" lon="0.08566">
        <ele>1474.319092</ele>
        <time>2012-06-09T12:09:45Z</time>
      </trkpt>
      <trkpt lat="42.97038" lon="0.0858">
        <ele>1475.280273</ele>
        <time>2012-06-09T12:09:56Z</time>
      </trkpt>
      <trkpt lat="42.97036" lon="0.08585">
        <ele>1474.319092</ele>
        <time>2012-06-09T12:10:04Z</time>
      </trkpt>
      <trkpt lat="42.97038" lon="0.08589">
        <ele>1473.838379</ele>
        <time>2012-06-09T12:10:07Z</time>
      </trkpt>
      <trkpt lat="42.97041" lon="0.08598">
        <ele>1473.838379</ele>
        <time>2012-06-09T12:10:14Z</time>
      </trkpt>
      <trkpt lat="42.97044" lon="0.08611">
        <ele>1472.877197</ele>
        <time>2012-06-09T12:10:21Z</time>
      </trkpt>
      <trkpt lat="42.9705" lon="0.0863">
        <ele>1471.435059</ele>
        <time>2012-06-09T12:10:37Z</time>
      </trkpt>
      <trkpt lat="42.97056" lon="0.08645">
        <ele>1472.396484</ele>
        <time>2012-06-09T12:10:49Z</time>
      </trkpt>
      <trkpt lat="42.97059" lon="0.0865">
        <ele>1472.396484</ele>
        <time>2012-06-09T12:10:52Z</time>
      </trkpt>
      <trkpt lat="42.97059" lon="0.08655">
        <ele>1472.396484</ele>
        <time>2012-06-09T12:10:56Z</time>
      </trkpt>
      <trkpt lat="42.97058" lon="0.0868">
        <ele>1470.473877</ele>
        <time>2012-06-09T12:11:11Z</time>
      </trkpt>
      <trkpt lat="42.97055" lon="0.08703">
        <ele>1470.473877</ele>
        <time>2012-06-09T12:11:25Z</time>
      </trkpt>
      <trkpt lat="42.97057" lon="0.08716">
        <ele>1468.070557</ele>
        <time>2012-06-09T12:11:30Z</time>
      </trkpt>
      <trkpt lat="42.97058" lon="0.08732">
        <ele>1465.186523</ele>
        <time>2012-06-09T12:11:37Z</time>
      </trkpt>
      <trkpt lat="42.97059" lon="0.08737">
        <ele>1463.263916</ele>
        <time>2012-06-09T12:11:40Z</time>
      </trkpt>
      <trkpt lat="42.97059" lon="0.08751">
        <ele>1460.379883</ele>
        <time>2012-06-09T12:11:48Z</time>
      </trkpt>
      <trkpt lat="42.97061" lon="0.08772">
        <ele>1457.496094</ele>
        <time>2012-06-09T12:12:01Z</time>
      </trkpt>
      <trkpt lat="42.97063" lon="0.08778">
        <ele>1457.976807</ele>
        <time>2012-06-09T12:12:07Z</time>
      </trkpt>
      <trkpt lat="42.97066" lon="0.08785">
        <ele>1457.976807</ele>
        <time>2012-06-09T12:12:13Z</time>
      </trkpt>
      <trkpt lat="42.97072" lon="0.08806">
        <ele>1454.131592</ele>
        <time>2012-06-09T12:12:28Z</time>
      </trkpt>
      <trkpt lat="42.97078" lon="0.08821">
        <ele>1454.612061</ele>
        <time>2012-06-09T12:12:41Z</time>
      </trkpt>
      <trkpt lat="42.9708" lon="0.08827">
        <ele>1455.092773</ele>
        <time>2012-06-09T12:12:45Z</time>
      </trkpt>
      <trkpt lat="42.97084" lon="0.08834">
        <ele>1453.650879</ele>
        <time>2012-06-09T12:12:50Z</time>
      </trkpt>
      <trkpt lat="42.97086" lon="0.08845">
        <ele>1451.247314</ele>
        <time>2012-06-09T12:12:56Z</time>
      </trkpt>
      <trkpt lat="42.97084" lon="0.08851">
        <ele>1449.324707</ele>
        <time>2012-06-09T12:13:00Z</time>
      </trkpt>
      <trkpt lat="42.9708" lon="0.08853">
        <ele>1447.882812</ele>
        <time>2012-06-09T12:13:03Z</time>
      </trkpt>
      <trkpt lat="42.97072" lon="0.08842">
        <ele>1439.71167</ele>
        <time>2012-06-09T12:13:15Z</time>
      </trkpt>
      <trkpt lat="42.9706" lon="0.08831">
        <ele>1434.424316</ele>
        <time>2012-06-09T12:13:28Z</time>
      </trkpt>
      <trkpt lat="42.97058" lon="0.0883">
        <ele>1433.943604</ele>
        <time>2012-06-09T12:13:30Z</time>
      </trkpt>
      <trkpt lat="42.9705" lon="0.08824">
        <ele>1431.540283</ele>
        <time>2012-06-09T12:13:38Z</time>
      </trkpt>
      <trkpt lat="42.97048" lon="0.08822">
        <ele>1430.579102</ele>
        <time>2012-06-09T12:13:40Z</time>
      </trkpt>
      <trkpt lat="42.97036" lon="0.08811">
        <ele>1425.291748</ele>
        <time>2012-06-09T12:13:52Z</time>
      </trkpt>
      <trkpt lat="42.97033" lon="0.08807">
        <ele>1423.369385</ele>
        <time>2012-06-09T12:13:56Z</time>
      </trkpt>
      <trkpt lat="42.97022" lon="0.08798">
        <ele>1418.5625</ele>
        <time>2012-06-09T12:14:15Z</time>
      </trkpt>
      <trkpt lat="42.97021" lon="0.08798">
        <ele>1418.081787</ele>
        <time>2012-06-09T12:14:18Z</time>
      </trkpt>
      <trkpt lat="42.97021" lon="0.088">
        <ele>1417.601074</ele>
        <time>2012-06-09T12:14:21Z</time>
      </trkpt>
      <trkpt lat="42.97024" lon="0.08807">
        <ele>1417.120605</ele>
        <time>2012-06-09T12:14:28Z</time>
      </trkpt>
      <trkpt lat="42.97024" lon="0.08811">
        <ele>1416.639893</ele>
        <time>2012-06-09T12:14:31Z</time>
      </trkpt>
      <trkpt lat="42.97026" lon="0.08822">
        <ele>1413.275391</ele>
        <time>2012-06-09T12:14:41Z</time>
      </trkpt>
      <trkpt lat="42.97027" lon="0.08834">
        <ele>1411.833496</ele>
        <time>2012-06-09T12:14:50Z</time>
      </trkpt>
      <trkpt lat="42.97028" lon="0.08838">
        <ele>1411.352783</ele>
        <time>2012-06-09T12:14:53Z</time>
      </trkpt>
      <trkpt lat="42.97029" lon="0.08848">
        <ele>1411.352783</ele>
        <time>2012-06-09T12:15:00Z</time>
      </trkpt>
      <trkpt lat="42.97026" lon="0.08864">
        <ele>1410.391357</ele>
        <time>2012-06-09T12:15:15Z</time>
      </trkpt>
      <trkpt lat="42.97022" lon="0.08879">
        <ele>1407.026855</ele>
        <time>2012-06-09T12:15:28Z</time>
      </trkpt>
      <trkpt lat="42.97021" lon="0.08889">
        <ele>1404.143066</ele>
        <time>2012-06-09T12:15:39Z</time>
      </trkpt>
      <trkpt lat="42.97019" lon="0.0889">
        <ele>1404.143066</ele>
        <time>2012-06-09T12:15:41Z</time>
      </trkpt>
      <trkpt lat="42.97017" lon="0.08896">
        <ele>1402.700684</ele>
        <time>2012-06-09T12:15:46Z</time>
      </trkpt>
      <trkpt lat="42.97014" lon="0.08911">
        <ele>1397.894287</ele>
        <time>2012-06-09T12:15:56Z</time>
      </trkpt>
      <trkpt lat="42.97011" lon="0.08914">
        <ele>1396.452393</ele>
        <time>2012-06-09T12:15:59Z</time>
      </trkpt>
      <trkpt lat="42.97009" lon="0.08924">
        <ele>1392.126465</ele>
        <time>2012-06-09T12:16:07Z</time>
      </trkpt>
      <trkpt lat="42.97009" lon="0.08934">
        <ele>1384.916504</ele>
        <time>2012-06-09T12:16:19Z</time>
      </trkpt>
      <trkpt lat="42.97001" lon="0.0893">
        <ele>1377.226074</ele>
        <time>2012-06-09T12:16:35Z</time>
      </trkpt>
      <trkpt lat="42.96997" lon="0.08929">
        <ele>1377.226074</ele>
        <time>2012-06-09T12:16:41Z</time>
      </trkpt>
      <trkpt lat="42.96996" lon="0.08931">
        <ele>1376.264648</ele>
        <time>2012-06-09T12:16:44Z</time>
      </trkpt>
      <trkpt lat="42.96995" lon="0.08933">
        <ele>1375.783936</ele>
        <time>2012-06-09T12:16:46Z</time>
      </trkpt>
      <trkpt lat="42.96993" lon="0.08933">
        <ele>1374.822754</ele>
        <time>2012-06-09T12:16:49Z</time>
      </trkpt>
      <trkpt lat="42.96985" lon="0.0895">
        <ele>1368.093262</ele>
        <time>2012-06-09T12:17:07Z</time>
      </trkpt>
      <trkpt lat="42.96984" lon="0.08953">
        <ele>1367.612549</ele>
        <time>2012-06-09T12:17:09Z</time>
      </trkpt>
      <trkpt lat="42.96985" lon="0.08963">
        <ele>1365.690186</ele>
        <time>2012-06-09T12:17:16Z</time>
      </trkpt>
      <trkpt lat="42.96988" lon="0.08979">
        <ele>1364.248047</ele>
        <time>2012-06-09T12:17:29Z</time>
      </trkpt>
      <trkpt lat="42.96988" lon="0.08983">
        <ele>1363.286865</ele>
        <time>2012-06-09T12:17:32Z</time>
      </trkpt>
      <trkpt lat="42.96989" lon="0.08989">
        <ele>1361.844971</ele>
        <time>2012-06-09T12:17:37Z</time>
      </trkpt>
      <trkpt lat="42.96992" lon="0.09002">
        <ele>1357.519043</ele>
        <time>2012-06-09T12:17:44Z</time>
      </trkpt>
      <trkpt lat="42.96994" lon="0.0901">
        <ele>1353.673584</ele>
        <time>2012-06-09T12:17:51Z</time>
      </trkpt>
      <trkpt lat="42.96999" lon="0.09028">
        <ele>1352.231445</ele>
        <time>2012-06-09T12:18:03Z</time>
      </trkpt>
      <trkpt lat="42.97" lon="0.09039">
        <ele>1352.712158</ele>
        <time>2012-06-09T12:18:10Z</time>
      </trkpt>
      <trkpt lat="42.97" lon="0.09052">
        <ele>1353.192871</ele>
        <time>2012-06-09T12:18:22Z</time>
      </trkpt>
      <trkpt lat="42.97001" lon="0.09063">
        <ele>1355.596191</ele>
        <time>2012-06-09T12:18:30Z</time>
      </trkpt>
      <trkpt lat="42.97001" lon="0.09074">
        <ele>1357.03833</ele>
        <time>2012-06-09T12:18:39Z</time>
      </trkpt>
      <trkpt lat="42.97006" lon="0.09088">
        <ele>1358.960938</ele>
        <time>2012-06-09T12:18:48Z</time>
      </trkpt>
      <trkpt lat="42.97009" lon="0.09103">
        <ele>1357.999756</ele>
        <time>2012-06-09T12:18:59Z</time>
      </trkpt>
      <trkpt lat="42.96999" lon="0.09112">
        <ele>1349.828369</ele>
        <time>2012-06-09T12:22:13Z</time>
      </trkpt>
      <trkpt lat="42.96996" lon="0.09107">
        <ele>1348.866943</ele>
        <time>2012-06-09T12:22:17Z</time>
      </trkpt>
      <trkpt lat="42.96987" lon="0.09101">
        <ele>1347.425049</ele>
        <time>2012-06-09T12:22:26Z</time>
      </trkpt>
      <trkpt lat="42.96977" lon="0.09081">
        <ele>1346.944336</ele>
        <time>2012-06-09T12:22:42Z</time>
      </trkpt>
      <trkpt lat="42.96975" lon="0.09078">
        <ele>1345.983154</ele>
        <time>2012-06-09T12:22:44Z</time>
      </trkpt>
      <trkpt lat="42.96969" lon="0.09065">
        <ele>1342.618652</ele>
        <time>2012-06-09T12:22:52Z</time>
      </trkpt>
      <trkpt lat="42.96965" lon="0.0906">
        <ele>1342.618652</ele>
        <time>2012-06-09T12:22:56Z</time>
      </trkpt>
      <trkpt lat="42.96958" lon="0.09049">
        <ele>1340.695801</ele>
        <time>2012-06-09T12:23:05Z</time>
      </trkpt>
      <trkpt lat="42.96954" lon="0.09038">
        <ele>1338.773193</ele>
        <time>2012-06-09T12:23:12Z</time>
      </trkpt>
      <trkpt lat="42.96954" lon="0.09033">
        <ele>1338.773193</ele>
        <time>2012-06-09T12:23:15Z</time>
      </trkpt>
      <trkpt lat="42.96953" lon="0.09027">
        <ele>1337.811768</ele>
        <time>2012-06-09T12:23:19Z</time>
      </trkpt>
      <trkpt lat="42.96952" lon="0.09017">
        <ele>1337.811768</ele>
        <time>2012-06-09T12:23:25Z</time>
      </trkpt>
      <trkpt lat="42.96941" lon="0.08999">
        <ele>1336.369873</ele>
        <time>2012-06-09T12:23:38Z</time>
      </trkpt>
      <trkpt lat="42.96933" lon="0.08993">
        <ele>1332.043945</ele>
        <time>2012-06-09T12:23:46Z</time>
      </trkpt>
      <trkpt lat="42.96928" lon="0.08991">
        <ele>1328.19873</ele>
        <time>2012-06-09T12:23:51Z</time>
      </trkpt>
      <trkpt lat="42.96926" lon="0.08994">
        <ele>1327.718018</ele>
        <time>2012-06-09T12:23:53Z</time>
      </trkpt>
      <trkpt lat="42.96927" lon="0.08999">
        <ele>1326.276123</ele>
        <time>2012-06-09T12:23:58Z</time>
      </trkpt>
      <trkpt lat="42.96928" lon="0.09006">
        <ele>1324.834229</ele>
        <time>2012-06-09T12:24:03Z</time>
      </trkpt>
      <trkpt lat="42.96928" lon="0.09014">
        <ele>1324.353516</ele>
        <time>2012-06-09T12:24:09Z</time>
      </trkpt>
      <trkpt lat="42.96929" lon="0.09027">
        <ele>1322.430664</ele>
        <time>2012-06-09T12:24:16Z</time>
      </trkpt>
      <trkpt lat="42.96932" lon="0.0904">
        <ele>1319.066162</ele>
        <time>2012-06-09T12:24:23Z</time>
      </trkpt>
      <trkpt lat="42.96933" lon="0.09044">
        <ele>1318.104736</ele>
        <time>2012-06-09T12:24:25Z</time>
      </trkpt>
      <trkpt lat="42.96936" lon="0.0905">
        <ele>1315.220947</ele>
        <time>2012-06-09T12:24:29Z</time>
      </trkpt>
      <trkpt lat="42.96937" lon="0.09053">
        <ele>1314.259521</ele>
        <time>2012-06-09T12:24:31Z</time>
      </trkpt>
      <trkpt lat="42.9694" lon="0.09068">
        <ele>1307.530273</ele>
        <time>2012-06-09T12:24:41Z</time>
      </trkpt>
      <trkpt lat="42.96942" lon="0.09073">
        <ele>1306.088135</ele>
        <time>2012-06-09T12:24:44Z</time>
      </trkpt>
      <trkpt lat="42.96944" lon="0.09088">
        <ele>1304.64624</ele>
        <time>2012-06-09T12:24:52Z</time>
      </trkpt>
      <trkpt lat="42.96951" lon="0.09107">
        <ele>1302.24292</ele>
        <time>2012-06-09T12:25:04Z</time>
      </trkpt>
      <trkpt lat="42.96951" lon="0.09111">
        <ele>1302.24292</ele>
        <time>2012-06-09T12:25:07Z</time>
      </trkpt>
      <trkpt lat="42.96953" lon="0.09111">
        <ele>1301.762451</ele>
        <time>2012-06-09T12:25:12Z</time>
      </trkpt>
      <trkpt lat="42.96959" lon="0.09133">
        <ele>1298.397705</ele>
        <time>2012-06-09T12:25:24Z</time>
      </trkpt>
      <trkpt lat="42.96959" lon="0.09137">
        <ele>1297.436523</ele>
        <time>2012-06-09T12:25:26Z</time>
      </trkpt>
      <trkpt lat="42.96963" lon="0.09144">
        <ele>1295.513916</ele>
        <time>2012-06-09T12:25:32Z</time>
      </trkpt>
      <trkpt lat="42.96963" lon="0.0915">
        <ele>1293.591309</ele>
        <time>2012-06-09T12:25:36Z</time>
      </trkpt>
      <trkpt lat="42.96964" lon="0.09159">
        <ele>1293.110596</ele>
        <time>2012-06-09T12:25:41Z</time>
      </trkpt>
      <trkpt lat="42.96965" lon="0.09166">
        <ele>1291.668457</ele>
        <time>2012-06-09T12:25:47Z</time>
      </trkpt>
      <trkpt lat="42.96966" lon="0.09172">
        <ele>1290.226562</ele>
        <time>2012-06-09T12:25:51Z</time>
      </trkpt>
      <trkpt lat="42.96967" lon="0.09175">
        <ele>1289.74585</ele>
        <time>2012-06-09T12:25:53Z</time>
      </trkpt>
      <trkpt lat="42.96977" lon="0.09188">
        <ele>1286.861816</ele>
        <time>2012-06-09T12:26:06Z</time>
      </trkpt>
      <trkpt lat="42.96985" lon="0.09202">
        <ele>1287.342529</ele>
        <time>2012-06-09T12:26:17Z</time>
      </trkpt>
      <trkpt lat="42.9699" lon="0.09217">
        <ele>1285.900635</ele>
        <time>2012-06-09T12:26:27Z</time>
      </trkpt>
      <trkpt lat="42.96991" lon="0.09227">
        <ele>1284.939453</ele>
        <time>2012-06-09T12:26:33Z</time>
      </trkpt>
      <trkpt lat="42.96993" lon="0.09229">
        <ele>1284.939453</ele>
        <time>2012-06-09T12:26:35Z</time>
      </trkpt>
      <trkpt lat="42.96992" lon="0.0924">
        <ele>1283.978027</ele>
        <time>2012-06-09T12:26:42Z</time>
      </trkpt>
      <trkpt lat="42.96992" lon="0.09245">
        <ele>1283.497314</ele>
        <time>2012-06-09T12:26:45Z</time>
      </trkpt>
      <trkpt lat="42.96992" lon="0.09259">
        <ele>1283.497314</ele>
        <time>2012-06-09T12:26:53Z</time>
      </trkpt>
      <trkpt lat="42.96995" lon="0.09264">
        <ele>1283.016602</ele>
        <time>2012-06-09T12:26:56Z</time>
      </trkpt>
      <trkpt lat="42.96996" lon="0.09268">
        <ele>1281.574707</ele>
        <time>2012-06-09T12:26:59Z</time>
      </trkpt>
      <trkpt lat="42.96998" lon="0.09275">
        <ele>1279.171387</ele>
        <time>2012-06-09T12:27:04Z</time>
      </trkpt>
      <trkpt lat="42.97" lon="0.09281">
        <ele>1278.210205</ele>
        <time>2012-06-09T12:27:08Z</time>
      </trkpt>
      <trkpt lat="42.97001" lon="0.09287">
        <ele>1277.249023</ele>
        <time>2012-06-09T12:27:13Z</time>
      </trkpt>
      <trkpt lat="42.97006" lon="0.09313">
        <ele>1273.884033</ele>
        <time>2012-06-09T12:27:29Z</time>
      </trkpt>
      <trkpt lat="42.97006" lon="0.09319">
        <ele>1272.922852</ele>
        <time>2012-06-09T12:27:33Z</time>
      </trkpt>
      <trkpt lat="42.97008" lon="0.09332">
        <ele>1270.519531</ele>
        <time>2012-06-09T12:27:41Z</time>
      </trkpt>
      <trkpt lat="42.97009" lon="0.09336">
        <ele>1269.077637</ele>
        <time>2012-06-09T12:27:44Z</time>
      </trkpt>
      <trkpt lat="42.97008" lon="0.09343">
        <ele>1267.635498</ele>
        <time>2012-06-09T12:27:48Z</time>
      </trkpt>
      <trkpt lat="42.97008" lon="0.09346">
        <ele>1266.193604</ele>
        <time>2012-06-09T12:27:50Z</time>
      </trkpt>
      <trkpt lat="42.97008" lon="0.09349">
        <ele>1264.751709</ele>
        <time>2012-06-09T12:27:52Z</time>
      </trkpt>
      <trkpt lat="42.97009" lon="0.09364">
        <ele>1259.944824</ele>
        <time>2012-06-09T12:28:01Z</time>
      </trkpt>
      <trkpt lat="42.97016" lon="0.09381">
        <ele>1255.138428</ele>
        <time>2012-06-09T12:28:15Z</time>
      </trkpt>
      <trkpt lat="42.97019" lon="0.09392">
        <ele>1253.21582</ele>
        <time>2012-06-09T12:28:22Z</time>
      </trkpt>
      <trkpt lat="42.9703" lon="0.09403">
        <ele>1251.293213</ele>
        <time>2012-06-09T12:28:36Z</time>
      </trkpt>
      <trkpt lat="42.97042" lon="0.09411">
        <ele>1250.8125</ele>
        <time>2012-06-09T12:28:52Z</time>
      </trkpt>
      <trkpt lat="42.97047" lon="0.09415">
        <ele>1250.332031</ele>
        <time>2012-06-09T12:28:59Z</time>
      </trkpt>
      <trkpt lat="42.97048" lon="0.09417">
        <ele>1249.851318</ele>
        <time>2012-06-09T12:29:01Z</time>
      </trkpt>
      <trkpt lat="42.97051" lon="0.0943">
        <ele>1248.889893</ele>
        <time>2012-06-09T12:29:08Z</time>
      </trkpt>
      <trkpt lat="42.97056" lon="0.09443">
        <ele>1246.486816</ele>
        <time>2012-06-09T12:29:16Z</time>
      </trkpt>
      <trkpt lat="42.97063" lon="0.09469">
        <ele>1240.718506</ele>
        <time>2012-06-09T12:29:32Z</time>
      </trkpt>
      <trkpt lat="42.97065" lon="0.09477">
        <ele>1238.796143</ele>
        <time>2012-06-09T12:29:37Z</time>
      </trkpt>
      <trkpt lat="42.97069" lon="0.09492">
        <ele>1237.834717</ele>
        <time>2012-06-09T12:29:45Z</time>
      </trkpt>
      <trkpt lat="42.97071" lon="0.09495">
        <ele>1236.873291</ele>
        <time>2012-06-09T12:29:48Z</time>
      </trkpt>
      <trkpt lat="42.97071" lon="0.09501">
        <ele>1235.431396</ele>
        <time>2012-06-09T12:29:52Z</time>
      </trkpt>
      <trkpt lat="42.97074" lon="0.09521">
        <ele>1232.547607</ele>
        <time>2012-06-09T12:30:05Z</time>
      </trkpt>
      <trkpt lat="42.97076" lon="0.09528">
        <ele>1231.105713</ele>
        <time>2012-06-09T12:30:10Z</time>
      </trkpt>
      <trkpt lat="42.97081" lon="0.09539">
        <ele>1230.144287</ele>
        <time>2012-06-09T12:30:18Z</time>
      </trkpt>
      <trkpt lat="42.97082" lon="0.09543">
        <ele>1229.182861</ele>
        <time>2012-06-09T12:30:21Z</time>
      </trkpt>
      <trkpt lat="42.97089" lon="0.09558">
        <ele>1225.818115</ele>
        <time>2012-06-09T12:30:31Z</time>
      </trkpt>
      <trkpt lat="42.97094" lon="0.09563">
        <ele>1224.376221</ele>
        <time>2012-06-09T12:30:37Z</time>
      </trkpt>
      <trkpt lat="42.97102" lon="0.09575">
        <ele>1223.895508</ele>
        <time>2012-06-09T12:30:47Z</time>
      </trkpt>
      <trkpt lat="42.97105" lon="0.09578">
        <ele>1223.895508</ele>
        <time>2012-06-09T12:30:50Z</time>
      </trkpt>
      <trkpt lat="42.97116" lon="0.09594">
        <ele>1221.492188</ele>
        <time>2012-06-09T12:31:04Z</time>
      </trkpt>
      <trkpt lat="42.97119" lon="0.09603">
        <ele>1219.089111</ele>
        <time>2012-06-09T12:31:14Z</time>
      </trkpt>
      <trkpt lat="42.9712" lon="0.0961">
        <ele>1217.166504</ele>
        <time>2012-06-09T12:31:20Z</time>
      </trkpt>
      <trkpt lat="42.97125" lon="0.09619">
        <ele>1216.205078</ele>
        <time>2012-06-09T12:31:33Z</time>
      </trkpt>
      <trkpt lat="42.97131" lon="0.09629">
        <ele>1214.763184</ele>
        <time>2012-06-09T12:31:43Z</time>
      </trkpt>
      <trkpt lat="42.9713" lon="0.09634">
        <ele>1214.282471</ele>
        <time>2012-06-09T12:31:46Z</time>
      </trkpt>
      <trkpt lat="42.97128" lon="0.09635">
        <ele>1213.321289</ele>
        <time>2012-06-09T12:31:49Z</time>
      </trkpt>
      <trkpt lat="42.97126" lon="0.09642">
        <ele>1210.437012</ele>
        <time>2012-06-09T12:31:57Z</time>
      </trkpt>
      <trkpt lat="42.97123" lon="0.09644">
        <ele>1209.956299</ele>
        <time>2012-06-09T12:32:01Z</time>
      </trkpt>
      <trkpt lat="42.97124" lon="0.09649">
        <ele>1209.47583</ele>
        <time>2012-06-09T12:32:05Z</time>
      </trkpt>
      <trkpt lat="42.97118" lon="0.09655">
        <ele>1208.514404</ele>
        <time>2012-06-09T12:32:12Z</time>
      </trkpt>
      <trkpt lat="42.97121" lon="0.09665">
        <ele>1205.149902</ele>
        <time>2012-06-09T12:32:22Z</time>
      </trkpt>
      <trkpt lat="42.97115" lon="0.09677">
        <ele>1203.227295</ele>
        <time>2012-06-09T12:32:38Z</time>
      </trkpt>
      <trkpt lat="42.97115" lon="0.09678">
        <ele>1202.746582</ele>
        <time>2012-06-09T12:32:42Z</time>
      </trkpt>
      <trkpt lat="42.97115" lon="0.09682">
        <ele>1201.7854</ele>
        <time>2012-06-09T12:32:46Z</time>
      </trkpt>
      <trkpt lat="42.9711" lon="0.09684">
        <ele>1200.343506</ele>
        <time>2012-06-09T12:32:51Z</time>
      </trkpt>
      <trkpt lat="42.97103" lon="0.09683">
        <ele>1197.940186</ele>
        <time>2012-06-09T12:33:03Z</time>
      </trkpt>
      <trkpt lat="42.97101" lon="0.09684">
        <ele>1197.459473</ele>
        <time>2012-06-09T12:33:05Z</time>
      </trkpt>
      <trkpt lat="42.97094" lon="0.0968">
        <ele>1195.055908</ele>
        <time>2012-06-09T12:33:11Z</time>
      </trkpt>
      <trkpt lat="42.97086" lon="0.09677">
        <ele>1192.652832</ele>
        <time>2012-06-09T12:33:18Z</time>
      </trkpt>
      <trkpt lat="42.97083" lon="0.09677">
        <ele>1191.210693</ele>
        <time>2012-06-09T12:33:21Z</time>
      </trkpt>
      <trkpt lat="42.97074" lon="0.0967">
        <ele>1188.326904</ele>
        <time>2012-06-09T12:33:29Z</time>
      </trkpt>
      <trkpt lat="42.97055" lon="0.09668">
        <ele>1184.000977</ele>
        <time>2012-06-09T12:33:44Z</time>
      </trkpt>
      <trkpt lat="42.97036" lon="0.09668">
        <ele>1180.155762</ele>
        <time>2012-06-09T12:34:00Z</time>
      </trkpt>
      <trkpt lat="42.97033" lon="0.09668">
        <ele>1179.194092</ele>
        <time>2012-06-09T12:34:03Z</time>
      </trkpt>
      <trkpt lat="42.97023" lon="0.09661">
        <ele>1175.82959</ele>
        <time>2012-06-09T12:34:12Z</time>
      </trkpt>
      <trkpt lat="42.97017" lon="0.09655">
        <ele>1172.465088</ele>
        <time>2012-06-09T12:34:20Z</time>
      </trkpt>
      <trkpt lat="42.97015" lon="0.09651">
        <ele>1170.54248</ele>
        <time>2012-06-09T12:34:25Z</time>
      </trkpt>
      <trkpt lat="42.97003" lon="0.09634">
        <ele>1166.697266</ele>
        <time>2012-06-09T12:34:38Z</time>
      </trkpt>
      <trkpt lat="42.97001" lon="0.0963">
        <ele>1165.736084</ele>
        <time>2012-06-09T12:34:41Z</time>
      </trkpt>
      <trkpt lat="42.96996" lon="0.09625">
        <ele>1163.812988</ele>
        <time>2012-06-09T12:34:47Z</time>
      </trkpt>
      <trkpt lat="42.96987" lon="0.09615">
        <ele>1160.448486</ele>
        <time>2012-06-09T12:34:58Z</time>
      </trkpt>
      <trkpt lat="42.96979" lon="0.0961">
        <ele>1162.851807</ele>
        <time>2012-06-09T12:35:05Z</time>
      </trkpt>
      <trkpt lat="42.96973" lon="0.09607">
        <ele>1162.371094</ele>
        <time>2012-06-09T12:35:11Z</time>
      </trkpt>
      <trkpt lat="42.96959" lon="0.09592">
        <ele>1158.525879</ele>
        <time>2012-06-09T12:35:27Z</time>
      </trkpt>
      <trkpt lat="42.96958" lon="0.09592">
        <ele>1158.04541</ele>
        <time>2012-06-09T12:35:29Z</time>
      </trkpt>
      <trkpt lat="42.96947" lon="0.09592">
        <ele>1159.006592</ele>
        <time>2012-06-09T12:35:40Z</time>
      </trkpt>
      <trkpt lat="42.96942" lon="0.0959">
        <ele>1159.006592</ele>
        <time>2012-06-09T12:35:44Z</time>
      </trkpt>
      <trkpt lat="42.96941" lon="0.09592">
        <ele>1159.006592</ele>
        <time>2012-06-09T12:35:47Z</time>
      </trkpt>
      <trkpt lat="42.96929" lon="0.09592">
        <ele>1156.122559</ele>
        <time>2012-06-09T12:36:00Z</time>
      </trkpt>
      <trkpt lat="42.96926" lon="0.09592">
        <ele>1155.64209</ele>
        <time>2012-06-09T12:36:02Z</time>
      </trkpt>
      <trkpt lat="42.96913" lon="0.0959">
        <ele>1151.316162</ele>
        <time>2012-06-09T12:36:16Z</time>
      </trkpt>
      <trkpt lat="42.96911" lon="0.09589">
        <ele>1150.35498</ele>
        <time>2012-06-09T12:36:18Z</time>
      </trkpt>
      <trkpt lat="42.96907" lon="0.09586">
        <ele>1148.432129</ele>
        <time>2012-06-09T12:36:22Z</time>
      </trkpt>
      <trkpt lat="42.96899" lon="0.09583">
        <ele>1146.509521</ele>
        <time>2012-06-09T12:36:30Z</time>
      </trkpt>
      <trkpt lat="42.96889" lon="0.09581">
        <ele>1145.067383</ele>
        <time>2012-06-09T12:36:39Z</time>
      </trkpt>
      <trkpt lat="42.96885" lon="0.09577">
        <ele>1143.144775</ele>
        <time>2012-06-09T12:36:44Z</time>
      </trkpt>
      <trkpt lat="42.96877" lon="0.09574">
        <ele>1140.260986</ele>
        <time>2012-06-09T12:36:50Z</time>
      </trkpt>
      <trkpt lat="42.96875" lon="0.09571">
        <ele>1138.338379</ele>
        <time>2012-06-09T12:36:53Z</time>
      </trkpt>
      <trkpt lat="42.96872" lon="0.09571">
        <ele>1136.415771</ele>
        <time>2012-06-09T12:36:56Z</time>
      </trkpt>
      <trkpt lat="42.96868" lon="0.09569">
        <ele>1135.935059</ele>
        <time>2012-06-09T12:37:00Z</time>
      </trkpt>
      <trkpt lat="42.96864" lon="0.09569">
        <ele>1134.973877</ele>
        <time>2012-06-09T12:37:04Z</time>
      </trkpt>
      <trkpt lat="42.9686" lon="0.09567">
        <ele>1134.493164</ele>
        <time>2012-06-09T12:37:08Z</time>
      </trkpt>
      <trkpt lat="42.96843" lon="0.09569">
        <ele>1132.570557</ele>
        <time>2012-06-09T12:37:23Z</time>
      </trkpt>
      <trkpt lat="42.96836" lon="0.09565">
        <ele>1130.647705</ele>
        <time>2012-06-09T12:37:30Z</time>
      </trkpt>
      <trkpt lat="42.96834" lon="0.09564">
        <ele>1130.166992</ele>
        <time>2012-06-09T12:37:32Z</time>
      </trkpt>
      <trkpt lat="42.96832" lon="0.09561">
        <ele>1129.686279</ele>
        <time>2012-06-09T12:37:35Z</time>
      </trkpt>
      <trkpt lat="42.96828" lon="0.09561">
        <ele>1128.725098</ele>
        <time>2012-06-09T12:37:39Z</time>
      </trkpt>
      <trkpt lat="42.96822" lon="0.09558">
        <ele>1127.283203</ele>
        <time>2012-06-09T12:37:44Z</time>
      </trkpt>
      <trkpt lat="42.96818" lon="0.09553">
        <ele>1125.841064</ele>
        <time>2012-06-09T12:37:48Z</time>
      </trkpt>
      <trkpt lat="42.96815" lon="0.09551">
        <ele>1124.39917</ele>
        <time>2012-06-09T12:37:52Z</time>
      </trkpt>
      <trkpt lat="42.96812" lon="0.09547">
        <ele>1123.437988</ele>
        <time>2012-06-09T12:37:55Z</time>
      </trkpt>
      <trkpt lat="42.96807" lon="0.09544">
        <ele>1121.515137</ele>
        <time>2012-06-09T12:38:00Z</time>
      </trkpt>
      <trkpt lat="42.96798" lon="0.09539">
        <ele>1118.150635</ele>
        <time>2012-06-09T12:38:09Z</time>
      </trkpt>
      <trkpt lat="42.96797" lon="0.09536">
        <ele>1117.189453</ele>
        <time>2012-06-09T12:38:11Z</time>
      </trkpt>
      <trkpt lat="42.96793" lon="0.09534">
        <ele>1115.747314</ele>
        <time>2012-06-09T12:38:15Z</time>
      </trkpt>
      <trkpt lat="42.96782" lon="0.09525">
        <ele>1111.421387</ele>
        <time>2012-06-09T12:38:26Z</time>
      </trkpt>
      <trkpt lat="42.96777" lon="0.09519">
        <ele>1110.459961</ele>
        <time>2012-06-09T12:38:31Z</time>
      </trkpt>
      <trkpt lat="42.96768" lon="0.09508">
        <ele>1108.056885</ele>
        <time>2012-06-09T12:38:41Z</time>
      </trkpt>
      <trkpt lat="42.96765" lon="0.09508">
        <ele>1107.576172</ele>
        <time>2012-06-09T12:38:43Z</time>
      </trkpt>
      <trkpt lat="42.96762" lon="0.09504">
        <ele>1107.095459</ele>
        <time>2012-06-09T12:38:48Z</time>
      </trkpt>
      <trkpt lat="42.96757" lon="0.09493">
        <ele>1103.730957</ele>
        <time>2012-06-09T12:38:57Z</time>
      </trkpt>
      <trkpt lat="42.96755" lon="0.09485">
        <ele>1101.80835</ele>
        <time>2012-06-09T12:39:03Z</time>
      </trkpt>
      <trkpt lat="42.96753" lon="0.09484">
        <ele>1101.80835</ele>
        <time>2012-06-09T12:39:05Z</time>
      </trkpt>
      <trkpt lat="42.96751" lon="0.09485">
        <ele>1101.80835</ele>
        <time>2012-06-09T12:39:07Z</time>
      </trkpt>
      <trkpt lat="42.96743" lon="0.09483">
        <ele>1101.80835</ele>
        <time>2012-06-09T12:39:13Z</time>
      </trkpt>
      <trkpt lat="42.96738" lon="0.09485">
        <ele>1101.80835</ele>
        <time>2012-06-09T12:39:18Z</time>
      </trkpt>
      <trkpt lat="42.96729" lon="0.0949">
        <ele>1101.80835</ele>
        <time>2012-06-09T12:39:26Z</time>
      </trkpt>
      <trkpt lat="42.96724" lon="0.09491">
        <ele>1102.769531</ele>
        <time>2012-06-09T12:39:32Z</time>
      </trkpt>
      <trkpt lat="42.96717" lon="0.09487">
        <ele>1101.80835</ele>
        <time>2012-06-09T12:39:40Z</time>
      </trkpt>
      <trkpt lat="42.9671" lon="0.0948">
        <ele>1100.846924</ele>
        <time>2012-06-09T12:39:46Z</time>
      </trkpt>
      <trkpt lat="42.96702" lon="0.09472">
        <ele>1099.404785</ele>
        <time>2012-06-09T12:39:55Z</time>
      </trkpt>
      <trkpt lat="42.96692" lon="0.0946">
        <ele>1096.040283</ele>
        <time>2012-06-09T12:40:05Z</time>
      </trkpt>
      <trkpt lat="42.96669" lon="0.09443">
        <ele>1092.195068</ele>
        <time>2012-06-09T12:40:25Z</time>
      </trkpt>
      <trkpt lat="42.96665" lon="0.09439">
        <ele>1091.714355</ele>
        <time>2012-06-09T12:40:29Z</time>
      </trkpt>
      <trkpt lat="42.96659" lon="0.09436">
        <ele>1090.272461</ele>
        <time>2012-06-09T12:40:33Z</time>
      </trkpt>
      <trkpt lat="42.96654" lon="0.09429">
        <ele>1088.349854</ele>
        <time>2012-06-09T12:40:39Z</time>
      </trkpt>
      <trkpt lat="42.96644" lon="0.09415">
        <ele>1085.46582</ele>
        <time>2012-06-09T12:40:49Z</time>
      </trkpt>
      <trkpt lat="42.96638" lon="0.09404">
        <ele>1081.620361</ele>
        <time>2012-06-09T12:40:57Z</time>
      </trkpt>
      <trkpt lat="42.96621" lon="0.09386">
        <ele>1076.813965</ele>
        <time>2012-06-09T12:41:13Z</time>
      </trkpt>
      <trkpt lat="42.96612" lon="0.09379">
        <ele>1074.891357</ele>
        <time>2012-06-09T12:41:22Z</time>
      </trkpt>
      <trkpt lat="42.96607" lon="0.09376">
        <ele>1073.449463</ele>
        <time>2012-06-09T12:41:27Z</time>
      </trkpt>
      <trkpt lat="42.96602" lon="0.09377">
        <ele>1072.488037</ele>
        <time>2012-06-09T12:41:31Z</time>
      </trkpt>
      <trkpt lat="42.96598" lon="0.09376">
        <ele>1072.007324</ele>
        <time>2012-06-09T12:41:34Z</time>
      </trkpt>
      <trkpt lat="42.96591" lon="0.09381">
        <ele>1071.526611</ele>
        <time>2012-06-09T12:41:41Z</time>
      </trkpt>
      <trkpt lat="42.96591" lon="0.0939">
        <ele>1068.642822</ele>
        <time>2012-06-09T12:41:48Z</time>
      </trkpt>
      <trkpt lat="42.96589" lon="0.09395">
        <ele>1067.681152</ele>
        <time>2012-06-09T12:41:52Z</time>
      </trkpt>
      <trkpt lat="42.96586" lon="0.09401">
        <ele>1066.719971</ele>
        <time>2012-06-09T12:41:57Z</time>
      </trkpt>
      <trkpt lat="42.96585" lon="0.09403">
        <ele>1066.239258</ele>
        <time>2012-06-09T12:41:59Z</time>
      </trkpt>
      <trkpt lat="42.96584" lon="0.09405">
        <ele>1065.278076</ele>
        <time>2012-06-09T12:42:01Z</time>
      </trkpt>
      <trkpt lat="42.9658" lon="0.0941">
        <ele>1064.797363</ele>
        <time>2012-06-09T12:42:06Z</time>
      </trkpt>
      <trkpt lat="42.96573" lon="0.09412">
        <ele>1064.797363</ele>
        <time>2012-06-09T12:42:22Z</time>
      </trkpt>
      <trkpt lat="42.96572" lon="0.09412">
        <ele>1065.278076</ele>
        <time>2012-06-09T12:42:51Z</time>
      </trkpt>
      <trkpt lat="42.96572" lon="0.09413">
        <ele>1065.278076</ele>
        <time>2012-06-09T12:43:20Z</time>
      </trkpt>
      <trkpt lat="42.96572" lon="0.09413">
        <ele>1065.278076</ele>
        <time>2012-06-09T12:43:26Z</time>
      </trkpt>
      <trkpt lat="42.96572" lon="0.09413">
        <ele>1065.278076</ele>
        <time>2012-06-09T12:43:44Z</time>
      </trkpt>
      <trkpt lat="42.96572" lon="0.09414">
        <ele>1065.758789</ele>
        <time>2012-06-09T12:50:09Z</time>
      </trkpt>
      <trkpt lat="42.96572" lon="0.09414">
        <ele>1065.758789</ele>
        <time>2012-06-09T12:50:23Z</time>
      </trkpt>
    </trkseg>
  </trk>
</gpx>